Time,TemperatureF,DewpointF,PressureIn,WindDirection,WindDirectionDegrees,WindSpeedMPH,WindSpeedGustMPH,Humidity,HourlyPrecipIn,Conditions,Clouds,dailyrainin,SoftwareType,DateUTC
2013-02-15 00:00:00,20.9,16.8,29.83,West,274,0.0,36.4,84,0.00,,,0.03,VWS V14.01,2013-02-15 05:00:00,
2013-02-15 00:01:00,22.1,17.7,29.82,NNW,340,21.0,36.4,83,0.00,,,0.03,VWS V14.01,2013-02-15 05:01:00,
2013-02-15 00:02:00,20.8,16.7,29.83,ENE,70,12.6,26.6,84,0.00,,,0.00,VWS V14.01,2013-02-15 05:02:00,
2013-02-15 00:03:00,20.8,16.7,29.83,WNW,292,0.0,26.6,84,0.00,,,0.00,VWS V14.01,2013-02-15 05:03:00,
2013-02-15 00:04:00,20.8,16.7,29.83,NNW,340,0.0,26.6,84,0.00,,,0.00,VWS V14.01,2013-02-15 05:04:00,
2013-02-15 00:05:00,20.8,17.0,29.83,NNE,13,0.0,26.6,85,0.00,,,0.00,VWS V14.01,2013-02-15 05:05:00,
2013-02-15 00:06:00,21.8,17.4,29.82,NNW,345,11.2,36.4,83,0.00,,,0.03,VWS V14.01,2013-02-15 05:06:00,
2013-02-15 00:07:00,20.8,17.0,29.83,NE,41,2.8,26.6,85,0.00,,,0.00,VWS V14.01,2013-02-15 05:07:00,
2013-02-15 00:08:00,20.8,17.0,29.83,North,354,7.0,26.6,85,0.00,,,0.00,VWS V14.01,2013-02-15 05:08:00,
2013-02-15 00:09:00,20.8,17.0,29.83,West,281,0.0,26.6,85,0.00,,,0.00,VWS V14.01,2013-02-15 05:09:00,
2013-02-15 00:10:00,20.8,17.0,29.83,NNW,333,0.0,26.6,85,0.00,,,0.00,VWS V14.01,2013-02-15 05:10:00,
2013-02-15 00:11:00,21.6,17.2,29.82,NNW,336,21.0,36.4,83,0.00,,,0.03,VWS V14.01,2013-02-15 05:11:00,
2013-02-15 00:12:00,20.8,17.0,29.83,NNW,335,0.0,26.6,85,0.00,,,0.00,VWS V14.01,2013-02-15 05:12:00,
2013-02-15 00:13:00,20.7,16.9,29.83,NNW,335,0.0,26.6,85,0.00,,,0.00,VWS V14.01,2013-02-15 05:13:00,
2013-02-15 00:14:00,20.7,16.9,29.83,NW,319,0.0,26.6,85,0.00,,,0.00,VWS V14.01,2013-02-15 05:14:00,
2013-02-15 00:15:00,20.7,16.9,29.83,East,98,0.0,26.6,85,0.00,,,0.00,VWS V14.01,2013-02-15 05:15:00,
2013-02-15 00:16:00,21.4,17.3,29.82,NNW,328,9.8,36.4,84,0.00,,,0.03,VWS V14.01,2013-02-15 05:16:00,
2013-02-15 00:17:00,20.7,16.9,29.83,NNW,328,0.0,26.6,85,0.00,,,0.00,VWS V14.01,2013-02-15 05:17:00,
2013-02-15 00:18:00,20.7,16.9,29.83,NNW,332,1.4,26.6,85,0.00,,,0.00,VWS V14.01,2013-02-15 05:18:00,
2013-02-15 00:19:00,20.7,16.9,29.84,West,276,0.0,26.6,85,0.00,,,0.00,VWS V14.01,2013-02-15 05:19:00,
2013-02-15 00:20:00,20.7,16.9,29.84,North,11,0.0,26.6,85,0.00,,,0.00,VWS V14.01,2013-02-15 05:20:00,
2013-02-15 00:21:00,21.3,17.2,29.82,NNW,342,0.0,36.4,84,0.00,,,0.03,VWS V14.01,2013-02-15 05:21:00,
2013-02-15 00:22:00,20.7,16.9,29.84,NW,322,0.0,26.6,85,0.00,,,0.00,VWS V14.01,2013-02-15 05:22:00,
2013-02-15 00:23:00,20.7,16.9,29.84,NNW,342,2.8,26.6,85,0.00,,,0.00,VWS V14.01,2013-02-15 05:23:00,
2013-02-15 00:24:00,20.7,16.9,29.84,NNW,340,0.0,26.6,85,0.00,,,0.00,VWS V14.01,2013-02-15 05:24:00,
2013-02-15 00:25:00,20.7,16.9,29.84,NNW,338,0.0,26.6,85,0.00,,,0.00,VWS V14.01,2013-02-15 05:25:00,
2013-02-15 00:26:00,21.1,17.0,29.82,NNW,338,0.0,36.4,84,0.00,,,0.03,VWS V14.01,2013-02-15 05:26:00,
2013-02-15 00:27:00,20.7,16.9,29.84,NNW,338,0.0,26.6,85,0.00,,,0.00,VWS V14.01,2013-02-15 05:27:00,
2013-02-15 00:28:00,20.7,16.9,29.84,North,360,1.4,26.6,85,0.00,,,0.00,VWS V14.01,2013-02-15 05:28:00,
2013-02-15 00:29:00,20.6,16.8,29.84,West,270,0.0,26.6,85,0.00,,,0.00,VWS V14.01,2013-02-15 05:29:00,
2013-02-15 00:30:00,20.7,16.9,29.84,ENE,58,0.0,26.6,85,0.00,,,0.00,VWS V14.01,2013-02-15 05:30:00,
2013-02-15 00:31:00,21.0,16.9,29.82,NW,305,0.0,36.4,84,0.00,,,0.03,VWS V14.01,2013-02-15 05:31:00,
2013-02-15 00:32:00,20.6,16.8,29.84,NW,314,0.0,26.6,85,0.00,,,0.00,VWS V14.01,2013-02-15 05:32:00,
2013-02-15 00:33:00,20.6,16.8,29.84,SW,229,0.0,26.6,85,0.00,,,0.00,VWS V14.01,2013-02-15 05:33:00,
2013-02-15 00:34:00,20.6,16.8,29.84,NNW,331,0.0,26.6,85,0.00,,,0.00,VWS V14.01,2013-02-15 05:34:00,
2013-02-15 00:35:00,20.6,16.8,29.84,NNW,333,0.0,26.6,85,0.00,,,0.00,VWS V14.01,2013-02-15 05:35:00,
2013-02-15 00:36:00,20.9,16.8,29.83,NNW,343,1.4,36.4,84,0.00,,,0.03,VWS V14.01,2013-02-15 05:36:00,
2013-02-15 00:37:00,20.8,16.7,29.83,NW,316,0.0,4.2,84,0.00,,,0.00,VWS V14.01,2013-02-15 05:37:00,
2013-02-15 00:38:00,20.6,16.8,29.84,NNW,329,22.4,26.6,85,0.00,,,0.00,VWS V14.01,2013-02-15 05:38:00,
2013-02-15 00:39:00,20.6,16.8,29.84,NW,316,14.0,26.6,85,0.00,,,0.00,VWS V14.01,2013-02-15 05:39:00,
2013-02-15 00:40:00,20.5,16.7,29.84,NNW,345,19.6,26.6,85,0.00,,,0.00,VWS V14.01,2013-02-15 05:40:00,
2013-02-15 00:41:00,20.5,16.7,29.84,NNE,13,0.0,32.2,85,0.00,,,0.00,VWS V14.01,2013-02-15 05:41:00,
2013-02-15 00:42:00,20.8,17.0,29.83,NNW,338,0.0,26.6,85,0.00,,,0.00,VWS V14.01,2013-02-15 05:42:00,
2013-02-15 00:43:00,20.5,16.7,29.84,NNW,336,0.0,32.2,85,0.00,,,0.00,VWS V14.01,2013-02-15 05:43:00,
2013-02-15 00:44:00,20.5,16.7,29.84,NW,308,0.0,32.2,85,0.00,,,0.00,VWS V14.01,2013-02-15 05:44:00,
2013-02-15 00:45:00,20.5,16.7,29.84,NNW,333,0.0,32.2,85,0.00,,,0.00,VWS V14.01,2013-02-15 05:45:00,
2013-02-15 00:46:00,20.5,16.4,29.84,NNW,338,0.0,32.2,84,0.00,,,0.00,VWS V14.01,2013-02-15 05:46:00,
2013-02-15 00:47:00,20.8,17.0,29.83,NW,318,0.0,26.6,85,0.00,,,0.00,VWS V14.01,2013-02-15 05:47:00,
2013-02-15 00:48:00,20.4,16.4,29.84,North,354,0.0,32.2,84,0.00,,,0.00,VWS V14.01,2013-02-15 05:48:00,
2013-02-15 00:49:00,20.4,16.6,29.84,North,8,0.0,32.2,85,0.00,,,0.00,VWS V14.01,2013-02-15 05:49:00,
2013-02-15 00:50:00,20.4,16.6,29.84,NW,321,0.0,32.2,85,0.00,,,0.00,VWS V14.01,2013-02-15 05:50:00,
2013-02-15 00:51:00,20.4,16.6,29.84,NNW,333,0.0,32.2,85,0.00,,,0.00,VWS V14.01,2013-02-15 05:51:00,
2013-02-15 00:52:00,20.7,16.9,29.83,NW,319,0.0,26.6,85,0.00,,,0.00,VWS V14.01,2013-02-15 05:52:00,
2013-02-15 00:53:00,20.4,16.6,29.84,NNW,328,0.0,32.2,85,0.00,,,0.00,VWS V14.01,2013-02-15 05:53:00,
2013-02-15 00:54:00,20.4,16.6,29.84,NNW,340,0.0,32.2,85,0.00,,,0.00,VWS V14.01,2013-02-15 05:54:00,
2013-02-15 00:55:00,20.4,16.6,29.84,WNW,298,8.4,32.2,85,0.00,,,0.00,VWS V14.01,2013-02-15 05:55:00,
2013-02-15 00:56:00,20.4,16.6,29.84,NW,321,0.0,32.2,85,0.00,,,0.00,VWS V14.01,2013-02-15 05:56:00,
2013-02-15 00:57:00,20.7,16.9,29.84,NW,308,0.0,26.6,85,0.00,,,0.00,VWS V14.01,2013-02-15 05:57:00,
2013-02-15 00:58:00,20.4,16.6,29.84,North,358,0.0,32.2,85,0.00,,,0.00,VWS V14.01,2013-02-15 05:58:00,
2013-02-15 00:59:00,20.4,16.4,29.84,NW,325,0.0,32.2,84,0.00,,,0.00,VWS V14.01,2013-02-15 05:59:00,
2013-02-15 01:00:00,20.4,16.4,29.84,NNW,338,0.0,32.2,84,0.00,,,0.00,VWS V14.01,2013-02-15 06:00:00,
2013-02-15 01:01:00,20.4,16.4,29.84,NW,305,0.0,32.2,84,0.00,,,0.00,VWS V14.01,2013-02-15 06:01:00,
2013-02-15 01:02:00,20.6,16.8,29.84,North,8,0.0,26.6,85,0.00,,,0.00,VWS V14.01,2013-02-15 06:02:00,
2013-02-15 01:03:00,20.3,16.0,29.84,NNW,343,1.4,32.2,83,0.00,,,0.00,VWS V14.01,2013-02-15 06:03:00,
2013-02-15 01:04:00,20.7,16.9,29.84,NW,314,0.0,26.6,85,0.00,,,0.00,VWS V14.01,2013-02-15 06:04:00,
2013-02-15 01:05:00,20.3,16.2,29.84,NW,314,0.0,32.2,84,0.00,,,0.00,VWS V14.01,2013-02-15 06:05:00,
2013-02-15 01:06:00,20.3,16.2,29.84,NNW,340,0.0,32.2,84,0.00,,,0.00,VWS V14.01,2013-02-15 06:06:00,
2013-02-15 01:07:00,20.3,16.0,29.84,NNW,345,0.0,32.2,83,0.00,,,0.00,VWS V14.01,2013-02-15 06:07:00,
2013-02-15 01:08:00,20.3,16.0,29.84,NW,308,0.0,32.2,83,0.00,,,0.00,VWS V14.01,2013-02-15 06:08:00,
2013-02-15 01:09:00,20.6,16.8,29.84,NW,325,1.4,26.6,85,0.00,,,0.00,VWS V14.01,2013-02-15 06:09:00,
2013-02-15 01:10:00,20.3,16.0,29.84,NNW,340,0.0,32.2,83,0.00,,,0.00,VWS V14.01,2013-02-15 06:10:00,
2013-02-15 01:11:00,20.3,16.0,29.84,NE,34,0.0,32.2,83,0.00,,,0.00,VWS V14.01,2013-02-15 06:11:00,
2013-02-15 01:12:00,20.3,16.0,29.84,NNW,328,0.0,32.2,83,0.00,,,0.00,VWS V14.01,2013-02-15 06:12:00,
2013-02-15 01:13:00,20.2,15.9,29.84,NNE,19,0.0,32.2,83,0.00,,,0.00,VWS V14.01,2013-02-15 06:13:00,
2013-02-15 01:14:00,20.6,16.8,29.84,NNW,343,12.6,26.6,85,0.00,,,0.00,VWS V14.01,2013-02-15 06:14:00,
2013-02-15 01:15:00,20.2,15.9,29.84,NNE,20,0.0,32.2,83,0.00,,,0.00,VWS V14.01,2013-02-15 06:15:00,
2013-02-15 01:16:00,20.2,15.6,29.84,North,352,0.0,32.2,82,0.00,,,0.00,VWS V14.01,2013-02-15 06:16:00,
2013-02-15 01:17:00,20.2,15.6,29.84,NNW,333,0.0,32.2,82,0.00,,,0.00,VWS V14.01,2013-02-15 06:17:00,
2013-02-15 01:18:00,20.1,15.5,29.84,NW,322,0.0,32.2,82,0.00,,,0.00,VWS V14.01,2013-02-15 06:18:00,
2013-02-15 01:19:00,20.5,16.7,29.84,NNW,331,0.0,32.2,85,0.00,,,0.00,VWS V14.01,2013-02-15 06:19:00,
2013-02-15 01:20:00,20.1,15.8,29.84,NNW,333,0.0,32.2,83,0.00,,,0.00,VWS V14.01,2013-02-15 06:20:00,
2013-02-15 01:21:00,20.1,15.8,29.84,NNW,345,0.0,32.2,83,0.00,,,0.00,VWS V14.01,2013-02-15 06:21:00,
2013-02-15 01:22:00,20.1,15.8,29.85,NNW,345,0.0,32.2,83,0.00,,,0.00,VWS V14.01,2013-02-15 06:22:00,
2013-02-15 01:23:00,20.1,15.8,29.84,NW,305,0.0,32.2,83,0.00,,,0.00,VWS V14.01,2013-02-15 06:23:00,
2013-02-15 01:24:00,20.4,16.4,29.84,NNE,14,0.0,32.2,84,0.00,,,0.00,VWS V14.01,2013-02-15 06:24:00,
2013-02-15 01:25:00,20.0,15.7,29.85,NNW,331,1.4,32.2,83,0.00,,,0.00,VWS V14.01,2013-02-15 06:25:00,
2013-02-15 01:26:00,19.8,15.5,29.85,NNW,335,14.0,32.2,83,0.00,,,0.00,VWS V14.01,2013-02-15 06:26:00,
2013-02-15 01:27:00,19.8,15.2,29.85,North,5,0.0,32.2,82,0.00,,,0.00,VWS V14.01,2013-02-15 06:27:00,
2013-02-15 01:28:00,19.7,15.1,29.85,NW,322,0.0,32.2,82,0.00,,,0.00,VWS V14.01,2013-02-15 06:28:00,
2013-02-15 01:29:00,20.4,16.6,29.84,NNW,340,0.0,32.2,85,0.00,,,0.00,VWS V14.01,2013-02-15 06:29:00,
2013-02-15 01:30:00,19.6,15.3,29.85,NNW,333,0.0,33.6,83,0.00,,,0.00,VWS V14.01,2013-02-15 06:30:00,
2013-02-15 01:31:00,19.6,15.3,29.85,WNW,294,4.2,33.6,83,0.00,,,0.00,VWS V14.01,2013-02-15 06:31:00,
2013-02-15 01:32:00,19.6,15.3,29.85,NNW,342,9.8,33.6,83,0.00,,,0.00,VWS V14.01,2013-02-15 06:32:00,
2013-02-15 01:33:00,19.5,15.2,29.85,NW,305,9.8,33.6,83,0.00,,,0.00,VWS V14.01,2013-02-15 06:33:00,
2013-02-15 01:34:00,20.4,16.6,29.84,NNW,330,0.0,32.2,85,0.00,,,0.00,VWS V14.01,2013-02-15 06:34:00,
2013-02-15 01:35:00,19.5,14.9,29.85,NNW,335,9.8,33.6,82,0.00,,,0.00,VWS V14.01,2013-02-15 06:35:00,
2013-02-15 01:36:00,19.4,15.1,29.85,North,349,8.4,33.6,83,0.00,,,0.00,VWS V14.01,2013-02-15 06:36:00,
2013-02-15 01:37:00,19.4,15.1,29.85,NW,325,9.8,33.6,83,0.00,,,0.00,VWS V14.01,2013-02-15 06:37:00,
2013-02-15 01:38:00,19.4,15.1,29.85,North,358,12.6,33.6,83,0.00,,,0.00,VWS V14.01,2013-02-15 06:38:00,
2013-02-15 01:39:00,20.3,16.0,29.84,WSW,256,0.0,32.2,83,0.00,,,0.00,VWS V14.01,2013-02-15 06:39:00,
2013-02-15 01:40:00,19.4,15.1,29.85,North,352,15.4,33.6,83,0.00,,,0.00,VWS V14.01,2013-02-15 06:40:00,
2013-02-15 01:41:00,19.4,15.1,29.86,NNW,335,12.6,33.6,83,0.00,,,0.00,VWS V14.01,2013-02-15 06:41:00,
2013-02-15 01:42:00,19.4,15.1,29.86,West,279,16.8,33.6,83,0.00,,,0.00,VWS V14.01,2013-02-15 06:42:00,
2013-02-15 01:43:00,19.4,15.1,29.86,North,350,15.4,33.6,83,0.00,,,0.00,VWS V14.01,2013-02-15 06:43:00,
2013-02-15 01:44:00,20.3,16.0,29.84,NW,311,0.0,32.2,83,0.00,,,0.00,VWS V14.01,2013-02-15 06:44:00,
2013-02-15 01:45:00,19.3,15.0,29.86,NNW,327,9.8,33.6,83,0.00,,,0.00,VWS V14.01,2013-02-15 06:45:00,
2013-02-15 01:46:00,19.3,15.0,29.86,NNW,342,15.4,33.6,83,0.00,,,0.00,VWS V14.01,2013-02-15 06:46:00,
2013-02-15 01:47:00,19.3,15.0,29.86,NNW,333,19.6,33.6,83,0.00,,,0.00,VWS V14.01,2013-02-15 06:47:00,
2013-02-15 01:48:00,19.2,14.9,29.86,NNW,328,15.4,33.6,83,0.00,,,0.00,VWS V14.01,2013-02-15 06:48:00,
2013-02-15 01:49:00,20.2,15.9,29.84,NNW,336,0.0,32.2,83,0.00,,,0.00,VWS V14.01,2013-02-15 06:49:00,
2013-02-15 01:50:00,19.2,14.9,29.86,NNW,338,14.0,33.6,83,0.00,,,0.00,VWS V14.01,2013-02-15 06:50:00,
2013-02-15 01:51:00,19.2,14.9,29.86,North,352,12.6,33.6,83,0.00,,,0.00,VWS V14.01,2013-02-15 06:51:00,
2013-02-15 01:52:00,19.1,14.5,29.86,North,354,18.2,33.6,82,0.00,,,0.00,VWS V14.01,2013-02-15 06:52:00,
2013-02-15 01:53:00,19.1,14.5,29.86,NNW,328,22.4,33.6,82,0.00,,,0.00,VWS V14.01,2013-02-15 06:53:00,
2013-02-15 01:54:00,20.2,15.6,29.84,NNW,342,0.0,32.2,82,0.00,,,0.00,VWS V14.01,2013-02-15 06:54:00,
2013-02-15 01:55:00,19.0,14.4,29.86,NNW,328,8.4,33.6,82,0.00,,,0.00,VWS V14.01,2013-02-15 06:55:00,
2013-02-15 01:56:00,19.0,14.4,29.86,NNW,342,15.4,33.6,82,0.00,,,0.00,VWS V14.01,2013-02-15 06:56:00,
2013-02-15 01:57:00,19.0,14.4,29.86,NNW,340,11.2,33.6,82,0.00,,,0.00,VWS V14.01,2013-02-15 06:57:00,
2013-02-15 01:58:00,19.0,14.4,29.86,NNW,335,18.2,33.6,82,0.00,,,0.00,VWS V14.01,2013-02-15 06:58:00,
2013-02-15 01:59:00,20.1,15.8,29.84,NW,316,0.0,32.2,83,0.00,,,0.00,VWS V14.01,2013-02-15 06:59:00,
2013-02-15 02:00:00,18.9,14.3,29.87,NNW,329,11.2,33.6,82,0.00,,,0.00,VWS V14.01,2013-02-15 07:00:00,
2013-02-15 02:01:00,18.9,14.3,29.86,NNW,335,11.2,19.6,82,0.00,,,0.00,VWS V14.01,2013-02-15 07:01:00,
2013-02-15 02:02:00,18.9,14.3,29.87,NW,321,11.2,28.0,82,0.00,,,0.00,VWS V14.01,2013-02-15 07:02:00,
2013-02-15 02:03:00,18.9,14.3,29.87,NW,323,12.6,28.0,82,0.00,,,0.00,VWS V14.01,2013-02-15 07:03:00,
2013-02-15 02:04:00,19.7,15.1,29.85,North,11,0.0,32.2,82,0.00,,,0.00,VWS V14.01,2013-02-15 07:04:00,
2013-02-15 02:05:00,18.8,14.2,29.87,NNW,337,16.8,28.0,82,0.00,,,0.00,VWS V14.01,2013-02-15 07:05:00,
2013-02-15 02:06:00,18.8,14.2,29.87,NNW,338,15.4,28.0,82,0.00,,,0.00,VWS V14.01,2013-02-15 07:06:00,
2013-02-15 02:07:00,18.7,14.1,29.87,NNW,336,11.2,28.0,82,0.00,,,0.00,VWS V14.01,2013-02-15 07:07:00,
2013-02-15 02:08:00,18.7,14.1,29.87,NNW,340,14.0,28.0,82,0.00,,,0.00,VWS V14.01,2013-02-15 07:08:00,
2013-02-15 02:09:00,19.6,15.3,29.85,North,358,12.6,33.6,83,0.00,,,0.00,VWS V14.01,2013-02-15 07:09:00,
2013-02-15 02:10:00,18.7,14.1,29.87,NW,315,14.0,28.0,82,0.00,,,0.00,VWS V14.01,2013-02-15 07:10:00,
2013-02-15 02:11:00,18.6,14.0,29.87,NW,316,9.8,28.0,82,0.00,,,0.00,VWS V14.01,2013-02-15 07:11:00,
2013-02-15 02:12:00,18.6,14.0,29.87,NW,308,9.8,28.0,82,0.00,,,0.00,VWS V14.01,2013-02-15 07:12:00,
2013-02-15 02:13:00,18.6,13.8,29.87,North,352,21.0,28.0,81,0.00,,,0.00,VWS V14.01,2013-02-15 07:13:00,
2013-02-15 02:14:00,19.4,15.1,29.85,NW,322,9.8,33.6,83,0.00,,,0.00,VWS V14.01,2013-02-15 07:14:00,
2013-02-15 02:15:00,18.6,13.8,29.87,NNW,345,11.2,28.0,81,0.00,,,0.00,VWS V14.01,2013-02-15 07:15:00,
2013-02-15 02:16:00,18.6,13.8,29.87,WNW,301,0.0,28.0,81,0.00,,,0.00,VWS V14.01,2013-02-15 07:16:00,
2013-02-15 02:17:00,18.5,13.6,29.87,NW,319,0.0,28.0,81,0.00,,,0.00,VWS V14.01,2013-02-15 07:17:00,
2013-02-15 02:18:00,18.5,13.6,29.87,NNW,338,0.0,28.0,81,0.00,,,0.00,VWS V14.01,2013-02-15 07:18:00,
2013-02-15 02:19:00,19.4,15.1,29.86,NNW,340,12.6,33.6,83,0.00,,,0.00,VWS V14.01,2013-02-15 07:19:00,
2013-02-15 02:20:00,18.4,13.8,29.87,NNW,343,0.0,28.0,82,0.00,,,0.00,VWS V14.01,2013-02-15 07:20:00,
2013-02-15 02:21:00,18.4,13.8,29.87,NNW,338,0.0,28.0,82,0.00,,,0.00,VWS V14.01,2013-02-15 07:21:00,
2013-02-15 02:22:00,18.4,13.8,29.88,NNW,328,0.0,28.0,82,0.00,,,0.00,VWS V14.01,2013-02-15 07:22:00,
2013-02-15 02:23:00,18.3,14.0,29.88,NNW,345,0.0,28.0,83,0.00,,,0.00,VWS V14.01,2013-02-15 07:23:00,
2013-02-15 02:24:00,19.2,14.9,29.86,NW,315,16.8,33.6,83,0.00,,,0.00,VWS V14.01,2013-02-15 07:24:00,
2013-02-15 02:25:00,18.2,13.9,29.88,North,4,0.0,28.0,83,0.00,,,0.00,VWS V14.01,2013-02-15 07:25:00,
2013-02-15 02:26:00,18.1,13.5,29.88,NNW,338,0.0,28.0,82,0.00,,,0.00,VWS V14.01,2013-02-15 07:26:00,
2013-02-15 02:27:00,18.1,13.5,29.87,NW,326,0.0,28.0,82,0.00,,,0.00,VWS V14.01,2013-02-15 07:27:00,
2013-02-15 02:28:00,18.0,13.4,29.88,NNW,333,0.0,28.0,82,0.00,,,0.00,VWS V14.01,2013-02-15 07:28:00,
2013-02-15 02:29:00,19.1,14.5,29.86,NNW,342,21.0,33.6,82,0.00,,,0.00,VWS V14.01,2013-02-15 07:29:00,
2013-02-15 02:30:00,17.9,13.4,29.88,North,352,0.0,28.0,82,0.00,,,0.00,VWS V14.01,2013-02-15 07:30:00,
2013-02-15 02:31:00,17.8,13.2,29.88,WNW,295,0.0,28.0,82,0.00,,,0.00,VWS V14.01,2013-02-15 07:31:00,
2013-02-15 02:32:00,17.8,13.5,29.88,NNE,26,0.0,28.0,83,0.00,,,0.00,VWS V14.01,2013-02-15 07:32:00,
2013-02-15 02:33:00,17.8,13.2,29.88,NNW,348,0.0,28.0,82,0.00,,,0.00,VWS V14.01,2013-02-15 07:33:00,
2013-02-15 02:34:00,19.0,14.4,29.86,North,8,12.6,33.6,82,0.00,,,0.00,VWS V14.01,2013-02-15 07:34:00,
2013-02-15 02:35:00,17.7,13.1,29.88,NW,313,0.0,28.0,82,0.00,,,0.00,VWS V14.01,2013-02-15 07:35:00,
2013-02-15 02:36:00,17.7,13.1,29.88,NNW,335,0.0,28.0,82,0.00,,,0.00,VWS V14.01,2013-02-15 07:36:00,
2013-02-15 02:37:00,18.9,14.3,29.86,NNW,342,12.6,19.6,82,0.00,,,0.00,VWS V14.01,2013-02-15 07:37:00,
2013-02-15 02:38:00,17.6,13.1,29.88,NNW,347,0.0,28.0,82,0.00,,,0.00,VWS V14.01,2013-02-15 07:38:00,
2013-02-15 02:39:00,17.6,13.1,29.88,North,353,0.0,28.0,82,0.00,,,0.00,VWS V14.01,2013-02-15 07:39:00,
2013-02-15 02:40:00,17.6,13.1,29.88,NNW,338,0.0,28.0,82,0.00,,,0.00,VWS V14.01,2013-02-15 07:40:00,
2013-02-15 02:41:00,17.5,12.9,29.88,North,349,0.0,28.0,82,0.00,,,0.00,VWS V14.01,2013-02-15 07:41:00,
2013-02-15 02:42:00,18.8,14.2,29.87,NNW,330,11.2,28.0,82,0.00,,,0.00,VWS V14.01,2013-02-15 07:42:00,
2013-02-15 02:43:00,17.5,12.7,29.88,NNW,339,0.0,28.0,81,0.00,,,0.00,VWS V14.01,2013-02-15 07:43:00,
2013-02-15 02:44:00,17.5,12.9,29.88,NNW,342,0.0,28.0,82,0.00,,,0.00,VWS V14.01,2013-02-15 07:44:00,
2013-02-15 02:45:00,17.5,12.9,29.88,NW,305,0.0,28.0,82,0.00,,,0.00,VWS V14.01,2013-02-15 07:45:00,
2013-02-15 02:46:00,17.5,12.9,29.88,North,352,0.0,28.0,82,0.00,,,0.00,VWS V14.01,2013-02-15 07:46:00,
2013-02-15 02:47:00,18.6,14.0,29.87,NNW,330,12.6,28.0,82,0.00,,,0.00,VWS V14.01,2013-02-15 07:47:00,
2013-02-15 02:48:00,17.4,12.9,29.88,NNE,13,0.0,28.0,82,0.00,,,0.00,VWS V14.01,2013-02-15 07:48:00,
2013-02-15 02:49:00,17.4,12.9,29.88,NNW,338,0.0,28.0,82,0.00,,,0.00,VWS V14.01,2013-02-15 07:49:00,
2013-02-15 02:50:00,17.4,12.6,29.88,NNW,338,0.0,28.0,81,0.00,,,0.00,VWS V14.01,2013-02-15 07:50:00,
2013-02-15 02:51:00,17.3,12.5,29.88,NNW,342,0.0,28.0,81,0.00,,,0.00,VWS V14.01,2013-02-15 07:51:00,
2013-02-15 02:52:00,18.6,13.8,29.87,NW,323,0.0,28.0,81,0.00,,,0.00,VWS V14.01,2013-02-15 07:52:00,
2013-02-15 02:53:00,17.3,12.5,29.88,NNW,347,7.0,28.0,81,0.00,,,0.00,VWS V14.01,2013-02-15 07:53:00,
2013-02-15 02:54:00,17.3,12.8,29.88,NNW,333,0.0,28.0,82,0.00,,,0.00,VWS V14.01,2013-02-15 07:54:00,
2013-02-15 02:55:00,17.3,12.8,29.88,NNW,346,0.0,28.0,82,0.00,,,0.00,VWS V14.01,2013-02-15 07:55:00,
2013-02-15 02:56:00,17.3,12.8,29.88,NNW,342,0.0,28.0,82,0.00,,,0.00,VWS V14.01,2013-02-15 07:56:00,
2013-02-15 02:57:00,18.4,13.8,29.87,NNW,328,0.0,28.0,82,0.00,,,0.00,VWS V14.01,2013-02-15 07:57:00,
2013-02-15 02:58:00,17.3,12.8,29.89,North,6,0.0,28.0,82,0.00,,,0.00,VWS V14.01,2013-02-15 07:58:00,
2013-02-15 02:59:00,17.2,12.7,29.89,North,352,15.4,28.0,82,0.00,,,0.00,VWS V14.01,2013-02-15 07:59:00,
2013-02-15 03:00:00,17.2,12.4,29.89,NNE,15,11.2,28.0,81,0.00,,,0.00,VWS V14.01,2013-02-15 08:00:00,
2013-02-15 03:01:00,17.2,12.4,29.89,North,4,11.2,28.0,81,0.00,,,0.00,VWS V14.01,2013-02-15 08:01:00,
2013-02-15 03:02:00,18.2,13.6,29.88,North,354,0.0,28.0,82,0.00,,,0.00,VWS V14.01,2013-02-15 08:02:00,
2013-02-15 03:03:00,17.2,12.7,29.89,NW,319,11.2,28.0,82,0.00,,,0.00,VWS V14.01,2013-02-15 08:03:00,
2013-02-15 03:04:00,17.2,12.7,29.89,NNW,342,11.2,28.0,82,0.00,,,0.00,VWS V14.01,2013-02-15 08:04:00,
2013-02-15 03:05:00,17.2,12.7,29.89,NNW,332,8.4,28.0,82,0.00,,,0.00,VWS V14.01,2013-02-15 08:05:00,
2013-02-15 03:06:00,17.3,12.8,29.89,NNW,345,12.6,28.0,82,0.00,,,0.00,VWS V14.01,2013-02-15 08:06:00,
2013-02-15 03:07:00,17.9,13.4,29.88,NNW,328,0.0,28.0,82,0.00,,,0.00,VWS V14.01,2013-02-15 08:07:00,
2013-02-15 03:08:00,17.3,12.8,29.89,NNW,347,14.0,28.0,82,0.00,,,0.00,VWS V14.01,2013-02-15 08:08:00,
2013-02-15 03:09:00,17.3,12.8,29.89,North,354,12.6,28.0,82,0.00,,,0.00,VWS V14.01,2013-02-15 08:09:00,
2013-02-15 03:10:00,17.3,12.8,29.89,North,352,0.0,28.0,82,0.00,,,0.00,VWS V14.01,2013-02-15 08:10:00,
2013-02-15 03:11:00,17.4,12.9,29.89,NNW,345,0.0,28.0,82,0.00,,,0.00,VWS V14.01,2013-02-15 08:11:00,
2013-02-15 03:12:00,17.7,13.1,29.88,NNW,335,0.0,28.0,82,0.00,,,0.00,VWS V14.01,2013-02-15 08:12:00,
2013-02-15 03:13:00,17.4,12.9,29.89,NNW,338,0.0,28.0,82,0.00,,,0.00,VWS V14.01,2013-02-15 08:13:00,
2013-02-15 03:14:00,17.3,12.8,29.89,WNW,302,0.0,28.0,82,0.00,,,0.00,VWS V14.01,2013-02-15 08:14:00,
2013-02-15 03:15:00,17.3,12.8,29.89,WNW,295,0.0,28.0,82,0.00,,,0.00,VWS V14.01,2013-02-15 08:15:00,
2013-02-15 03:16:00,17.3,12.8,29.89,NNE,15,0.0,28.0,82,0.00,,,0.00,VWS V14.01,2013-02-15 08:16:00,
2013-02-15 03:17:00,17.5,12.9,29.88,NNW,330,0.0,28.0,82,0.00,,,0.00,VWS V14.01,2013-02-15 08:17:00,
2013-02-15 03:18:00,17.3,12.5,29.89,NW,319,0.0,36.4,81,0.00,,,0.00,VWS V14.01,2013-02-15 08:18:00,
2013-02-15 03:19:00,17.3,12.5,29.89,NNW,335,0.0,36.4,81,0.00,,,0.00,VWS V14.01,2013-02-15 08:19:00,
2013-02-15 03:20:00,17.3,12.5,29.89,NW,325,0.0,36.4,81,0.00,,,0.00,VWS V14.01,2013-02-15 08:20:00,
2013-02-15 03:21:00,17.3,12.5,29.89,North,351,0.0,36.4,81,0.00,,,0.00,VWS V14.01,2013-02-15 08:21:00,
2013-02-15 03:22:00,17.5,12.9,29.88,NW,325,0.0,28.0,82,0.00,,,0.00,VWS V14.01,2013-02-15 08:22:00,
2013-02-15 03:23:00,17.2,12.1,29.90,NNW,342,0.0,36.4,80,0.00,,,0.00,VWS V14.01,2013-02-15 08:23:00,
2013-02-15 03:24:00,17.2,12.1,29.90,NNW,342,9.8,36.4,80,0.00,,,0.00,VWS V14.01,2013-02-15 08:24:00,
2013-02-15 03:25:00,17.2,12.1,29.90,NNW,338,0.0,36.4,80,0.00,,,0.00,VWS V14.01,2013-02-15 08:25:00,
2013-02-15 03:26:00,17.1,12.0,29.90,NW,322,0.0,36.4,80,0.00,,,0.00,VWS V14.01,2013-02-15 08:26:00,
2013-02-15 03:27:00,17.4,12.6,29.88,NNW,340,0.0,28.0,81,0.00,,,0.00,VWS V14.01,2013-02-15 08:27:00,
2013-02-15 03:28:00,17.1,12.0,29.90,North,9,5.6,36.4,80,0.00,,,0.00,VWS V14.01,2013-02-15 08:28:00,
2013-02-15 03:29:00,17.0,11.9,29.90,North,352,0.0,36.4,80,0.00,,,0.00,VWS V14.01,2013-02-15 08:29:00,
2013-02-15 03:30:00,17.0,11.9,29.90,North,358,0.0,36.4,80,0.00,,,0.00,VWS V14.01,2013-02-15 08:30:00,
2013-02-15 03:31:00,16.9,11.8,29.90,NNE,16,0.0,36.4,80,0.00,,,0.00,VWS V14.01,2013-02-15 08:31:00,
2013-02-15 03:32:00,17.3,12.8,29.88,North,356,0.0,28.0,82,0.00,,,0.00,VWS V14.01,2013-02-15 08:32:00,
2013-02-15 03:33:00,16.9,12.1,29.90,NW,313,0.0,36.4,81,0.00,,,0.00,VWS V14.01,2013-02-15 08:33:00,
2013-02-15 03:34:00,16.8,12.0,29.90,NW,316,0.0,36.4,81,0.00,,,0.00,VWS V14.01,2013-02-15 08:34:00,
2013-02-15 03:35:00,16.8,12.0,29.90,NW,316,0.0,36.4,81,0.00,,,0.00,VWS V14.01,2013-02-15 08:35:00,
2013-02-15 03:36:00,16.8,12.0,29.90,NNE,13,0.0,36.4,81,0.00,,,0.00,VWS V14.01,2013-02-15 08:36:00,
2013-02-15 03:37:00,17.2,12.4,29.89,NW,325,7.0,28.0,81,0.00,,,0.00,VWS V14.01,2013-02-15 08:37:00,
2013-02-15 03:38:00,16.7,11.9,29.90,North,352,0.0,36.4,81,0.00,,,0.00,VWS V14.01,2013-02-15 08:38:00,
2013-02-15 03:39:00,16.7,11.6,29.90,NNW,340,0.0,36.4,80,0.00,,,0.00,VWS V14.01,2013-02-15 08:39:00,
2013-02-15 03:40:00,16.7,11.9,29.90,NNW,332,0.0,36.4,81,0.00,,,0.00,VWS V14.01,2013-02-15 08:40:00,
2013-02-15 03:41:00,16.6,11.8,29.90,NNE,15,0.0,36.4,81,0.00,,,0.00,VWS V14.01,2013-02-15 08:41:00,
2013-02-15 03:42:00,17.3,12.8,29.89,NNW,330,11.2,28.0,82,0.00,,,0.00,VWS V14.01,2013-02-15 08:42:00,
2013-02-15 03:43:00,16.5,11.7,29.90,North,357,0.0,36.4,81,0.00,,,0.00,VWS V14.01,2013-02-15 08:43:00,
2013-02-15 03:44:00,16.4,11.6,29.90,NW,325,0.0,36.4,81,0.00,,,0.00,VWS V14.01,2013-02-15 08:44:00,
2013-02-15 03:45:00,16.4,11.6,29.90,NW,316,0.0,36.4,81,0.00,,,0.00,VWS V14.01,2013-02-15 08:45:00,
2013-02-15 03:46:00,16.4,11.3,29.90,NW,319,0.0,36.4,80,0.00,,,0.00,VWS V14.01,2013-02-15 08:46:00,
2013-02-15 03:47:00,17.4,12.9,29.89,NW,305,0.0,28.0,82,0.00,,,0.00,VWS V14.01,2013-02-15 08:47:00,
2013-02-15 03:48:00,16.2,11.1,29.90,NNW,348,0.0,36.4,80,0.00,,,0.00,VWS V14.01,2013-02-15 08:48:00,
2013-02-15 03:49:00,16.2,11.1,29.90,NNW,338,0.0,36.4,80,0.00,,,0.00,VWS V14.01,2013-02-15 08:49:00,
2013-02-15 03:50:00,16.1,11.0,29.90,NNW,340,0.0,36.4,80,0.00,,,0.00,VWS V14.01,2013-02-15 08:50:00,
2013-02-15 03:51:00,16.1,11.0,29.91,North,352,0.0,36.4,80,0.00,,,0.00,VWS V14.01,2013-02-15 08:51:00,
2013-02-15 03:52:00,17.3,12.8,29.89,NNW,342,0.0,28.0,82,0.00,,,0.00,VWS V14.01,2013-02-15 08:52:00,
2013-02-15 03:53:00,16.0,11.2,29.91,NNE,26,0.0,36.4,81,0.00,,,0.00,VWS V14.01,2013-02-15 08:53:00,
2013-02-15 03:54:00,16.0,10.9,29.91,NNW,343,0.0,36.4,80,0.00,,,0.00,VWS V14.01,2013-02-15 08:54:00,
2013-02-15 03:55:00,16.0,10.9,29.91,NNE,13,0.0,36.4,80,0.00,,,0.00,VWS V14.01,2013-02-15 08:55:00,
2013-02-15 03:56:00,16.0,11.2,29.91,North,5,0.0,36.4,81,0.00,,,0.00,VWS V14.01,2013-02-15 08:56:00,
2013-02-15 03:57:00,17.3,12.5,29.89,NNW,338,0.0,36.4,81,0.00,,,0.00,VWS V14.01,2013-02-15 08:57:00,
2013-02-15 03:58:00,15.9,11.1,29.91,NNW,337,0.0,36.4,81,0.00,,,0.00,VWS V14.01,2013-02-15 08:58:00,
2013-02-15 03:59:00,15.9,11.1,29.91,NW,326,0.0,36.4,81,0.00,,,0.00,VWS V14.01,2013-02-15 08:59:00,
2013-02-15 04:00:00,16.0,11.2,29.91,NNW,330,0.0,36.4,81,0.00,,,0.00,VWS V14.01,2013-02-15 09:00:00,
2013-02-15 04:01:00,16.0,11.2,29.91,North,1,0.0,9.8,81,0.00,,,0.00,VWS V14.01,2013-02-15 09:01:00,
2013-02-15 04:02:00,17.1,12.0,29.90,North,8,0.0,36.4,80,0.00,,,0.00,VWS V14.01,2013-02-15 09:02:00,
2013-02-15 04:03:00,16.0,11.5,29.91,NW,318,0.0,9.8,82,0.00,,,0.00,VWS V14.01,2013-02-15 09:03:00,
2013-02-15 04:04:00,16.0,11.5,29.91,NW,319,2.8,9.8,82,0.00,,,0.00,VWS V14.01,2013-02-15 09:04:00,
2013-02-15 04:05:00,16.0,11.5,29.91,NNE,21,0.0,9.8,82,0.00,,,0.00,VWS V14.01,2013-02-15 09:05:00,
2013-02-15 04:06:00,16.0,11.5,29.91,North,8,0.0,9.8,82,0.00,,,0.00,VWS V14.01,2013-02-15 09:06:00,
2013-02-15 04:07:00,16.9,11.8,29.90,NNE,22,5.6,36.4,80,0.00,,,0.00,VWS V14.01,2013-02-15 09:07:00,
2013-02-15 04:08:00,16.1,11.6,29.91,North,353,0.0,21.0,82,0.00,,,0.00,VWS V14.01,2013-02-15 09:08:00,
2013-02-15 04:09:00,16.2,12.0,29.91,NNW,345,19.6,21.0,83,0.00,,,0.00,VWS V14.01,2013-02-15 09:09:00,
2013-02-15 04:10:00,16.2,12.0,29.91,NNW,332,0.0,21.0,83,0.00,,,0.00,VWS V14.01,2013-02-15 09:10:00,
2013-02-15 04:11:00,16.3,12.1,29.91,NW,309,0.0,21.0,83,0.00,,,0.00,VWS V14.01,2013-02-15 09:11:00,
2013-02-15 04:12:00,16.8,12.0,29.90,NW,318,0.0,36.4,81,0.00,,,0.00,VWS V14.01,2013-02-15 09:12:00,
2013-02-15 04:13:00,16.5,12.0,29.91,NNW,340,0.0,21.0,82,0.00,,,0.00,VWS V14.01,2013-02-15 09:13:00,
2013-02-15 04:14:00,16.5,12.0,29.91,North,357,0.0,21.0,82,0.00,,,0.00,VWS V14.01,2013-02-15 09:14:00,
2013-02-15 04:15:00,16.5,12.0,29.92,NNE,13,0.0,21.0,82,0.00,,,0.00,VWS V14.01,2013-02-15 09:15:00,
2013-02-15 04:16:00,16.6,12.1,29.91,North,11,0.0,21.0,82,0.00,,,0.00,VWS V14.01,2013-02-15 09:16:00,
2013-02-15 04:17:00,16.6,11.8,29.90,North,1,0.0,36.4,81,0.00,,,0.00,VWS V14.01,2013-02-15 09:17:00,
2013-02-15 04:18:00,16.6,12.1,29.92,North,355,0.0,21.0,82,0.00,,,0.00,VWS V14.01,2013-02-15 09:18:00,
2013-02-15 04:19:00,16.6,12.1,29.92,NW,322,0.0,21.0,82,0.00,,,0.00,VWS V14.01,2013-02-15 09:19:00,
2013-02-15 04:20:00,16.6,11.8,29.92,North,357,0.0,21.0,81,0.00,,,0.00,VWS V14.01,2013-02-15 09:20:00,
2013-02-15 04:21:00,16.6,11.8,29.92,North,354,0.0,21.0,81,0.00,,,0.00,VWS V14.01,2013-02-15 09:21:00,
2013-02-15 04:22:00,16.4,11.3,29.90,NNW,338,0.0,36.4,80,0.00,,,0.00,VWS V14.01,2013-02-15 09:22:00,
2013-02-15 04:23:00,16.6,12.1,29.92,NNW,338,0.0,21.0,82,0.00,,,0.00,VWS V14.01,2013-02-15 09:23:00,
2013-02-15 04:24:00,16.6,11.8,29.92,North,6,0.0,21.0,81,0.00,,,0.00,VWS V14.01,2013-02-15 09:24:00,
2013-02-15 04:25:00,16.6,11.8,29.92,North,5,0.0,21.0,81,0.00,,,0.00,VWS V14.01,2013-02-15 09:25:00,
2013-02-15 04:26:00,16.6,11.8,29.92,NNW,333,0.0,21.0,81,0.00,,,0.00,VWS V14.01,2013-02-15 09:26:00,
2013-02-15 04:27:00,16.1,11.0,29.91,NNW,337,0.0,36.4,80,0.00,,,0.00,VWS V14.01,2013-02-15 09:27:00,
2013-02-15 04:28:00,16.5,11.7,29.92,NNW,332,0.0,21.0,81,0.00,,,0.00,VWS V14.01,2013-02-15 09:28:00,
2013-02-15 04:29:00,16.4,11.6,29.92,NNW,348,0.0,21.0,81,0.00,,,0.00,VWS V14.01,2013-02-15 09:29:00,
2013-02-15 04:30:00,16.4,11.6,29.92,NNW,335,0.0,21.0,81,0.00,,,0.00,VWS V14.01,2013-02-15 09:30:00,
2013-02-15 04:31:00,16.4,11.3,29.92,North,349,0.0,21.0,80,0.00,,,0.00,VWS V14.01,2013-02-15 09:31:00,
2013-02-15 04:32:00,16.0,11.2,29.91,NNW,328,0.0,36.4,81,0.00,,,0.00,VWS V14.01,2013-02-15 09:32:00,
2013-02-15 04:33:00,16.3,11.5,29.93,NNW,335,0.0,21.0,81,0.00,,,0.00,VWS V14.01,2013-02-15 09:33:00,
2013-02-15 04:34:00,16.3,11.8,29.93,NNE,19,0.0,21.0,82,0.00,,,0.00,VWS V14.01,2013-02-15 09:34:00,
2013-02-15 04:35:00,16.3,11.8,29.93,North,11,0.0,21.0,82,0.00,,,0.00,VWS V14.01,2013-02-15 09:35:00,
2013-02-15 04:36:00,16.3,11.5,29.93,NNW,345,0.0,21.0,81,0.00,,,0.00,VWS V14.01,2013-02-15 09:36:00,
2013-02-15 04:37:00,16.0,11.2,29.91,NNW,333,0.0,9.8,81,0.00,,,0.00,VWS V14.01,2013-02-15 09:37:00,
2013-02-15 04:38:00,16.2,11.4,29.93,NNW,329,0.0,21.0,81,0.00,,,0.00,VWS V14.01,2013-02-15 09:38:00,
2013-02-15 04:39:00,16.2,11.4,29.93,NW,308,0.0,21.0,81,0.00,,,0.00,VWS V14.01,2013-02-15 09:39:00,
2013-02-15 04:40:00,16.2,11.4,29.93,NNW,338,0.0,21.0,81,0.00,,,0.00,VWS V14.01,2013-02-15 09:40:00,
2013-02-15 04:41:00,16.2,11.4,29.93,NW,318,0.0,21.0,81,0.00,,,0.00,VWS V14.01,2013-02-15 09:41:00,
2013-02-15 04:42:00,16.0,11.5,29.91,NNW,335,0.0,9.8,82,0.00,,,0.00,VWS V14.01,2013-02-15 09:42:00,
2013-02-15 04:43:00,16.1,11.6,29.93,NNE,23,0.0,21.0,82,0.00,,,0.00,VWS V14.01,2013-02-15 09:43:00,
2013-02-15 04:44:00,16.0,11.5,29.93,NNW,333,0.0,21.0,82,0.00,,,0.00,VWS V14.01,2013-02-15 09:44:00,
2013-02-15 04:45:00,16.0,11.5,29.93,NW,319,0.0,21.0,82,0.00,,,0.00,VWS V14.01,2013-02-15 09:45:00,
2013-02-15 04:46:00,15.9,11.4,29.93,North,357,0.0,21.0,82,0.00,,,0.00,VWS V14.01,2013-02-15 09:46:00,
2013-02-15 04:47:00,16.3,12.1,29.91,NNW,328,0.0,21.0,83,0.00,,,0.00,VWS V14.01,2013-02-15 09:47:00,
2013-02-15 04:48:00,15.9,11.4,29.93,North,360,0.0,21.0,82,0.00,,,0.00,VWS V14.01,2013-02-15 09:48:00,
2013-02-15 04:49:00,15.9,11.4,29.93,North,356,0.0,21.0,82,0.00,,,0.00,VWS V14.01,2013-02-15 09:49:00,
2013-02-15 04:50:00,15.9,11.7,29.93,NW,311,0.0,21.0,83,0.00,,,0.00,VWS V14.01,2013-02-15 09:50:00,
2013-02-15 04:51:00,15.9,11.4,29.93,NNW,335,0.0,21.0,82,0.00,,,0.00,VWS V14.01,2013-02-15 09:51:00,
2013-02-15 04:52:00,16.5,12.0,29.91,NNW,345,0.0,21.0,82,0.00,,,0.00,VWS V14.01,2013-02-15 09:52:00,
2013-02-15 04:53:00,15.7,10.9,29.93,NNW,335,0.0,21.0,81,0.00,,,0.00,VWS V14.01,2013-02-15 09:53:00,
2013-02-15 04:54:00,15.6,10.8,29.93,NNW,335,0.0,21.0,81,0.00,,,0.00,VWS V14.01,2013-02-15 09:54:00,
2013-02-15 04:55:00,15.6,10.8,29.93,NE,38,0.0,21.0,81,0.00,,,0.00,VWS V14.01,2013-02-15 09:55:00,
2013-02-15 04:56:00,15.5,10.7,29.93,North,354,0.0,21.0,81,0.00,,,0.00,VWS V14.01,2013-02-15 09:56:00,
2013-02-15 04:57:00,16.6,11.8,29.92,NNE,22,0.0,21.0,81,0.00,,,0.00,VWS V14.01,2013-02-15 09:57:00,
2013-02-15 04:58:00,15.5,10.7,29.93,NNW,346,0.0,21.0,81,0.00,,,0.00,VWS V14.01,2013-02-15 09:58:00,
2013-02-15 04:59:00,15.5,10.7,29.93,NE,50,0.0,21.0,81,0.00,,,0.00,VWS V14.01,2013-02-15 09:59:00,
2013-02-15 05:00:00,15.5,11.0,29.93,NNW,332,0.0,21.0,82,0.00,,,0.00,VWS V14.01,2013-02-15 10:00:00,
2013-02-15 05:01:00,15.5,11.0,29.93,NNW,340,0.0,21.0,82,0.00,,,0.00,VWS V14.01,2013-02-15 10:01:00,
2013-02-15 05:02:00,16.6,11.8,29.92,NNW,345,0.0,21.0,81,0.00,,,0.00,VWS V14.01,2013-02-15 10:02:00,
2013-02-15 05:03:00,15.5,11.0,29.94,WNW,288,0.0,21.0,82,0.00,,,0.00,VWS V14.01,2013-02-15 10:03:00,
2013-02-15 05:04:00,15.5,11.0,29.94,NNW,338,0.0,21.0,82,0.00,,,0.00,VWS V14.01,2013-02-15 10:04:00,
2013-02-15 05:05:00,15.5,11.0,29.94,NNE,23,0.0,21.0,82,0.00,,,0.00,VWS V14.01,2013-02-15 10:05:00,
2013-02-15 05:06:00,15.6,11.1,29.94,NNW,336,9.8,21.0,82,0.00,,,0.00,VWS V14.01,2013-02-15 10:06:00,
2013-02-15 05:07:00,16.4,11.3,29.92,North,4,0.0,21.0,80,0.00,,,0.00,VWS V14.01,2013-02-15 10:07:00,
2013-02-15 05:08:00,15.6,11.1,29.94,NNE,18,9.8,21.0,82,0.00,,,0.00,VWS V14.01,2013-02-15 10:08:00,
2013-02-15 05:09:00,15.7,11.2,29.94,WNW,300,11.2,21.0,82,0.00,,,0.00,VWS V14.01,2013-02-15 10:09:00,
2013-02-15 05:10:00,15.7,11.2,29.94,North,4,14.0,21.0,82,0.00,,,0.00,VWS V14.01,2013-02-15 10:10:00,
2013-02-15 05:11:00,15.7,11.2,29.94,NW,326,11.2,21.0,82,0.00,,,0.00,VWS V14.01,2013-02-15 10:11:00,
2013-02-15 05:12:00,16.3,11.5,29.93,SW,236,0.0,21.0,81,0.00,,,0.00,VWS V14.01,2013-02-15 10:12:00,
2013-02-15 05:13:00,15.7,11.2,29.94,NNW,335,7.0,21.0,82,0.00,,,0.00,VWS V14.01,2013-02-15 10:13:00,
2013-02-15 05:14:00,15.6,11.1,29.94,North,352,8.4,21.0,82,0.00,,,0.00,VWS V14.01,2013-02-15 10:14:00,
2013-02-15 05:15:00,15.6,11.1,29.94,NNW,345,9.8,21.0,82,0.00,,,0.00,VWS V14.01,2013-02-15 10:15:00,
2013-02-15 05:16:00,15.6,11.1,29.94,NW,305,8.4,21.0,82,0.00,,,0.00,VWS V14.01,2013-02-15 10:16:00,
2013-02-15 05:17:00,16.2,11.4,29.93,NW,322,0.0,21.0,81,0.00,,,0.00,VWS V14.01,2013-02-15 10:17:00,
2013-02-15 05:18:00,15.6,10.8,29.94,North,11,7.0,21.0,81,0.00,,,0.00,VWS V14.01,2013-02-15 10:18:00,
2013-02-15 05:19:00,15.5,11.0,29.94,NNW,345,8.4,21.0,82,0.00,,,0.00,VWS V14.01,2013-02-15 10:19:00,
2013-02-15 05:20:00,15.5,11.0,29.94,NNW,345,8.4,21.0,82,0.00,,,0.00,VWS V14.01,2013-02-15 10:20:00,
2013-02-15 05:21:00,15.4,10.9,29.94,NNW,335,7.0,21.0,82,0.00,,,0.00,VWS V14.01,2013-02-15 10:21:00,
2013-02-15 05:22:00,15.4,10.9,29.94,NNW,333,9.8,21.0,82,0.00,,,0.00,VWS V14.01,2013-02-15 10:22:00,
2013-02-15 05:23:00,15.9,11.4,29.93,NE,44,0.0,21.0,82,0.00,,,0.00,VWS V14.01,2013-02-15 10:23:00,
2013-02-15 05:24:00,15.3,10.8,29.95,NNW,338,8.4,21.0,82,0.00,,,0.00,VWS V14.01,2013-02-15 10:24:00,
2013-02-15 05:25:00,15.3,10.8,29.95,NNW,342,9.8,21.0,82,0.00,,,0.00,VWS V14.01,2013-02-15 10:25:00,
2013-02-15 05:26:00,15.3,11.1,29.95,NNW,342,8.4,21.0,83,0.00,,,0.00,VWS V14.01,2013-02-15 10:26:00,
2013-02-15 05:27:00,15.3,11.1,29.95,NNE,22,11.2,21.0,83,0.00,,,0.00,VWS V14.01,2013-02-15 10:27:00,
2013-02-15 05:28:00,15.8,11.3,29.93,NNE,27,0.0,21.0,82,0.00,,,0.00,VWS V14.01,2013-02-15 10:28:00,
2013-02-15 05:29:00,15.2,10.7,29.95,NNW,340,0.0,21.0,82,0.00,,,0.00,VWS V14.01,2013-02-15 10:29:00,
2013-02-15 05:30:00,15.1,10.6,29.95,North,355,0.0,21.0,82,0.00,,,0.00,VWS V14.01,2013-02-15 10:30:00,
2013-02-15 05:31:00,15.1,10.9,29.95,NNW,340,0.0,21.0,83,0.00,,,0.00,VWS V14.01,2013-02-15 10:31:00,
2013-02-15 05:32:00,15.0,10.8,29.95,NW,319,0.0,21.0,83,0.00,,,0.00,VWS V14.01,2013-02-15 10:32:00,
2013-02-15 05:33:00,15.5,10.7,29.93,NW,305,0.0,21.0,81,0.00,,,0.00,VWS V14.01,2013-02-15 10:33:00,
2013-02-15 05:34:00,15.0,11.1,29.95,NNW,342,0.0,29.4,84,0.00,,,0.00,VWS V14.01,2013-02-15 10:34:00,
2013-02-15 05:35:00,14.9,10.9,29.95,NNW,338,0.0,29.4,84,0.00,,,0.00,VWS V14.01,2013-02-15 10:35:00,
2013-02-15 05:36:00,14.9,10.9,29.95,NNW,340,0.0,29.4,84,0.00,,,0.00,VWS V14.01,2013-02-15 10:36:00,
2013-02-15 05:37:00,14.9,10.9,29.95,NNW,333,0.0,29.4,84,0.00,,,0.00,VWS V14.01,2013-02-15 10:37:00,
2013-02-15 05:38:00,15.5,11.0,29.93,NNW,342,0.0,21.0,82,0.00,,,0.00,VWS V14.01,2013-02-15 10:38:00,
2013-02-15 05:39:00,14.9,10.9,29.95,NNE,12,0.0,29.4,84,0.00,,,0.00,VWS V14.01,2013-02-15 10:39:00,
2013-02-15 05:40:00,14.8,11.1,29.95,NNW,343,0.0,29.4,85,0.00,,,0.00,VWS V14.01,2013-02-15 10:40:00,
2013-02-15 05:41:00,14.8,11.1,29.95,NW,308,0.0,29.4,85,0.00,,,0.00,VWS V14.01,2013-02-15 10:41:00,
2013-02-15 05:42:00,14.7,11.0,29.95,NW,319,0.0,29.4,85,0.00,,,0.00,VWS V14.01,2013-02-15 10:42:00,
2013-02-15 05:43:00,15.6,11.1,29.94,NNW,330,8.4,21.0,82,0.00,,,0.00,VWS V14.01,2013-02-15 10:43:00,
2013-02-15 05:44:00,14.7,11.0,29.95,NNE,20,0.0,29.4,85,0.00,,,0.00,VWS V14.01,2013-02-15 10:44:00,
2013-02-15 05:45:00,14.6,10.9,29.95,NW,318,0.0,29.4,85,0.00,,,0.00,VWS V14.01,2013-02-15 10:45:00,
2013-02-15 05:46:00,14.6,10.7,29.95,NNW,333,0.0,29.4,84,0.00,,,0.00,VWS V14.01,2013-02-15 10:46:00,
2013-02-15 05:47:00,14.6,10.7,29.95,NNW,346,11.2,29.4,84,0.00,,,0.00,VWS V14.01,2013-02-15 10:47:00,
2013-02-15 05:48:00,15.7,11.2,29.94,NNW,328,11.2,21.0,82,0.00,,,0.00,VWS V14.01,2013-02-15 10:48:00,
2013-02-15 05:49:00,14.6,10.9,29.95,North,5,0.0,29.4,85,0.00,,,0.00,VWS V14.01,2013-02-15 10:49:00,
2013-02-15 05:50:00,14.5,10.8,29.95,WNW,287,0.0,29.4,85,0.00,,,0.00,VWS V14.01,2013-02-15 10:50:00,
2013-02-15 05:51:00,14.5,10.8,29.95,NNW,338,0.0,29.4,85,0.00,,,0.00,VWS V14.01,2013-02-15 10:51:00,
2013-02-15 05:52:00,14.5,10.8,29.96,NW,326,0.0,29.4,85,0.00,,,0.00,VWS V14.01,2013-02-15 10:52:00,
2013-02-15 05:53:00,15.6,10.8,29.94,NNW,332,9.8,21.0,81,0.00,,,0.00,VWS V14.01,2013-02-15 10:53:00,
2013-02-15 05:54:00,14.5,10.8,29.96,NW,319,0.0,29.4,85,0.00,,,0.00,VWS V14.01,2013-02-15 10:54:00,
2013-02-15 05:55:00,14.4,10.7,29.96,NNE,15,0.0,29.4,85,0.00,,,0.00,VWS V14.01,2013-02-15 10:55:00,
2013-02-15 05:56:00,14.4,10.7,29.96,NW,315,0.0,29.4,85,0.00,,,0.00,VWS V14.01,2013-02-15 10:56:00,
2013-02-15 05:57:00,14.4,10.7,29.96,NNW,330,0.0,29.4,85,0.00,,,0.00,VWS V14.01,2013-02-15 10:57:00,
2013-02-15 05:58:00,15.4,10.9,29.94,North,354,12.6,21.0,82,0.00,,,0.00,VWS V14.01,2013-02-15 10:58:00,
2013-02-15 05:59:00,14.3,10.6,29.96,WNW,303,0.0,29.4,85,0.00,,,0.00,VWS V14.01,2013-02-15 10:59:00,
2013-02-15 06:00:00,14.4,10.7,29.96,NNW,330,0.0,29.4,85,0.00,,,0.00,VWS V14.01,2013-02-15 11:00:00,
2013-02-15 06:01:00,14.3,10.6,29.96,NNW,348,0.0,4.2,85,0.00,,,0.00,VWS V14.01,2013-02-15 11:01:00,
2013-02-15 06:02:00,14.3,10.6,29.96,North,4,0.0,4.2,85,0.00,,,0.00,VWS V14.01,2013-02-15 11:02:00,
2013-02-15 06:03:00,15.3,11.1,29.95,NNW,345,7.0,21.0,83,0.00,,,0.00,VWS V14.01,2013-02-15 11:03:00,
2013-02-15 06:04:00,14.3,10.6,29.96,North,354,0.0,9.8,85,0.00,,,0.00,VWS V14.01,2013-02-15 11:04:00,
2013-02-15 06:05:00,14.3,10.6,29.96,NNW,342,0.0,9.8,85,0.00,,,0.00,VWS V14.01,2013-02-15 11:05:00,
2013-02-15 06:06:00,14.3,10.6,29.96,NNE,24,0.0,9.8,85,0.00,,,0.00,VWS V14.01,2013-02-15 11:06:00,
2013-02-15 06:07:00,14.4,10.7,29.96,NW,323,0.0,9.8,85,0.00,,,0.00,VWS V14.01,2013-02-15 11:07:00,
2013-02-15 06:08:00,15.1,10.9,29.95,North,9,0.0,21.0,83,0.00,,,0.00,VWS V14.01,2013-02-15 11:08:00,
2013-02-15 06:09:00,14.4,10.5,29.96,NNW,343,0.0,16.8,84,0.00,,,0.00,VWS V14.01,2013-02-15 11:09:00,
2013-02-15 06:10:00,14.3,10.4,29.97,NNW,328,0.0,16.8,84,0.00,,,0.00,VWS V14.01,2013-02-15 11:10:00,
2013-02-15 06:11:00,14.3,10.4,29.97,NNE,12,0.0,16.8,84,0.00,,,0.00,VWS V14.01,2013-02-15 11:11:00,
2013-02-15 06:12:00,14.4,10.5,29.97,NNW,338,1.4,16.8,84,0.00,,,0.00,VWS V14.01,2013-02-15 11:12:00,
2013-02-15 06:13:00,14.3,10.4,29.97,North,358,0.0,16.8,84,0.00,,,0.00,VWS V14.01,2013-02-15 11:13:00,
2013-02-15 06:14:00,14.3,10.4,29.97,North,4,0.0,16.8,84,0.00,,,0.00,VWS V14.01,2013-02-15 11:14:00,
2013-02-15 06:15:00,14.9,10.9,29.95,NW,312,0.0,29.4,84,0.00,,,0.00,VWS V14.01,2013-02-15 11:15:00,
2013-02-15 06:16:00,14.3,10.6,29.97,NNW,328,9.8,16.8,85,0.00,,,0.00,VWS V14.01,2013-02-15 11:16:00,
2013-02-15 06:17:00,14.3,10.6,29.97,NNW,338,0.0,16.8,85,0.00,,,0.00,VWS V14.01,2013-02-15 11:17:00,
2013-02-15 06:18:00,14.3,10.6,29.97,NW,311,0.0,16.8,85,0.00,,,0.00,VWS V14.01,2013-02-15 11:18:00,
2013-02-15 06:19:00,14.3,10.6,29.97,NNW,338,0.0,16.8,85,0.00,,,0.00,VWS V14.01,2013-02-15 11:19:00,
2013-02-15 06:20:00,14.7,11.0,29.95,North,355,0.0,29.4,85,0.00,,,0.00,VWS V14.01,2013-02-15 11:20:00,
2013-02-15 06:21:00,14.2,10.5,29.97,NW,326,0.0,16.8,85,0.00,,,0.00,VWS V14.01,2013-02-15 11:21:00,
2013-02-15 06:22:00,14.2,10.3,29.97,North,6,0.0,16.8,84,0.00,,,0.00,VWS V14.01,2013-02-15 11:22:00,
2013-02-15 06:23:00,14.1,10.2,29.97,NNW,335,0.0,16.8,84,0.00,,,0.00,VWS V14.01,2013-02-15 11:23:00,
2013-02-15 06:24:00,14.1,10.2,29.97,NNW,335,0.0,16.8,84,0.00,,,0.00,VWS V14.01,2013-02-15 11:24:00,
2013-02-15 06:25:00,14.6,10.9,29.95,North,352,0.0,29.4,85,0.00,,,0.00,VWS V14.01,2013-02-15 11:25:00,
2013-02-15 06:26:00,14.1,10.4,29.97,NW,326,7.0,16.8,85,0.00,,,0.00,VWS V14.01,2013-02-15 11:26:00,
2013-02-15 06:27:00,14.1,10.4,29.97,NNW,330,8.4,16.8,85,0.00,,,0.00,VWS V14.01,2013-02-15 11:27:00,
2013-02-15 06:28:00,14.1,10.4,29.97,NW,325,9.8,16.8,85,0.00,,,0.00,VWS V14.01,2013-02-15 11:28:00,
2013-02-15 06:29:00,14.0,10.3,29.97,NW,325,7.0,16.8,85,0.00,,,0.00,VWS V14.01,2013-02-15 11:29:00,
2013-02-15 06:30:00,14.4,10.7,29.96,NNW,338,0.0,29.4,85,0.00,,,0.00,VWS V14.01,2013-02-15 11:30:00,
2013-02-15 06:31:00,14.0,10.3,29.97,NW,317,12.6,16.8,85,0.00,,,0.00,VWS V14.01,2013-02-15 11:31:00,
2013-02-15 06:32:00,13.9,10.0,29.97,NW,316,7.0,16.8,84,0.00,,,0.00,VWS V14.01,2013-02-15 11:32:00,
2013-02-15 06:33:00,13.9,10.0,29.98,North,352,8.4,16.8,84,0.00,,,0.00,VWS V14.01,2013-02-15 11:33:00,
2013-02-15 06:34:00,13.9,10.0,29.98,NNW,338,9.8,16.8,84,0.00,,,0.00,VWS V14.01,2013-02-15 11:34:00,
2013-02-15 06:35:00,14.3,10.6,29.96,North,352,0.0,29.4,85,0.00,,,0.00,VWS V14.01,2013-02-15 11:35:00,
2013-02-15 06:36:00,13.8,9.9,29.98,NW,308,8.4,16.8,84,0.00,,,0.00,VWS V14.01,2013-02-15 11:36:00,
2013-02-15 06:37:00,13.7,10.0,29.98,North,11,4.2,16.8,85,0.00,,,0.00,VWS V14.01,2013-02-15 11:37:00,
2013-02-15 06:38:00,13.7,10.0,29.98,NNW,328,5.6,16.8,85,0.00,,,0.00,VWS V14.01,2013-02-15 11:38:00,
2013-02-15 06:39:00,13.7,10.0,29.98,NNW,333,7.0,16.8,85,0.00,,,0.00,VWS V14.01,2013-02-15 11:39:00,
2013-02-15 06:40:00,14.3,10.6,29.96,NNW,329,0.0,9.8,85,0.00,,,0.00,VWS V14.01,2013-02-15 11:40:00,
2013-02-15 06:41:00,13.7,10.0,29.98,NNW,332,4.2,16.8,85,0.00,,,0.00,VWS V14.01,2013-02-15 11:41:00,
2013-02-15 06:42:00,13.7,10.0,29.98,NNW,340,5.6,16.8,85,0.00,,,0.00,VWS V14.01,2013-02-15 11:42:00,
2013-02-15 06:43:00,13.7,10.0,29.98,NW,325,5.6,16.8,85,0.00,,,0.00,VWS V14.01,2013-02-15 11:43:00,
2013-02-15 06:44:00,13.7,10.0,29.98,NNW,333,5.6,16.8,85,0.00,,,0.00,VWS V14.01,2013-02-15 11:44:00,
2013-02-15 06:45:00,14.4,10.5,29.96,NNW,345,0.0,16.8,84,0.00,,,0.00,VWS V14.01,2013-02-15 11:45:00,
2013-02-15 06:46:00,13.7,10.0,29.98,NNE,25,5.6,16.8,85,0.00,,,0.00,VWS V14.01,2013-02-15 11:46:00,
2013-02-15 06:47:00,13.7,10.0,29.98,NNW,333,4.2,16.8,85,0.00,,,0.00,VWS V14.01,2013-02-15 11:47:00,
2013-02-15 06:48:00,13.7,10.0,29.98,North,350,7.0,16.8,85,0.00,,,0.00,VWS V14.01,2013-02-15 11:48:00,
2013-02-15 06:49:00,13.7,10.0,29.98,North,1,7.0,16.8,85,0.00,,,0.00,VWS V14.01,2013-02-15 11:49:00,
2013-02-15 06:50:00,14.3,10.4,29.97,NW,326,4.2,16.8,84,0.00,,,0.00,VWS V14.01,2013-02-15 11:50:00,
2013-02-15 06:51:00,13.6,9.9,29.98,NNW,345,7.0,16.8,85,0.00,,,0.00,VWS V14.01,2013-02-15 11:51:00,
2013-02-15 06:52:00,13.6,9.9,29.98,NNE,12,5.6,16.8,85,0.00,,,0.00,VWS V14.01,2013-02-15 11:52:00,
2013-02-15 06:53:00,13.6,9.7,29.98,NNW,328,7.0,16.8,84,0.00,,,0.00,VWS V14.01,2013-02-15 11:53:00,
2013-02-15 06:54:00,13.6,9.9,29.98,NNW,333,5.6,16.8,85,0.00,,,0.00,VWS V14.01,2013-02-15 11:54:00,
2013-02-15 06:55:00,14.3,10.6,29.97,NNW,329,0.0,16.8,85,0.00,,,0.00,VWS V14.01,2013-02-15 11:55:00,
2013-02-15 06:56:00,13.6,9.9,29.98,North,357,5.6,16.8,85,0.00,,,0.00,VWS V14.01,2013-02-15 11:56:00,
2013-02-15 06:57:00,13.6,9.9,29.98,North,9,7.0,16.8,85,0.00,,,0.00,VWS V14.01,2013-02-15 11:57:00,
2013-02-15 06:58:00,13.6,9.9,29.98,NNW,330,8.4,16.8,85,0.00,,,0.00,VWS V14.01,2013-02-15 11:58:00,
2013-02-15 06:59:00,13.6,9.9,29.98,North,11,9.8,16.8,85,0.00,,,0.00,VWS V14.01,2013-02-15 11:59:00,
2013-02-15 07:00:00,14.1,10.2,29.97,NNE,12,14.0,16.8,84,0.00,,,0.00,VWS V14.01,2013-02-15 12:00:00,
2013-02-15 07:01:00,13.6,9.7,29.99,NNW,333,8.4,16.8,84,0.00,,,0.00,VWS V14.01,2013-02-15 12:01:00,
2013-02-15 07:02:00,13.6,9.7,29.99,NNW,335,5.6,16.8,84,0.00,,,0.00,VWS V14.01,2013-02-15 12:02:00,
2013-02-15 07:03:00,13.6,9.7,29.99,NNW,338,5.6,16.8,84,0.00,,,0.00,VWS V14.01,2013-02-15 12:03:00,
2013-02-15 07:04:00,13.6,9.7,29.99,NW,323,5.6,16.8,84,0.00,,,0.00,VWS V14.01,2013-02-15 12:04:00,
2013-02-15 07:05:00,14.1,10.4,29.97,NNW,332,4.2,16.8,85,0.00,,,0.00,VWS V14.01,2013-02-15 12:05:00,
2013-02-15 07:06:00,13.6,9.7,29.99,NW,308,4.2,16.8,84,0.00,,,0.00,VWS V14.01,2013-02-15 12:06:00,
2013-02-15 07:07:00,13.6,9.7,29.99,NNW,335,7.0,16.8,84,0.00,,,0.00,VWS V14.01,2013-02-15 12:07:00,
2013-02-15 07:08:00,13.6,9.7,29.99,NNW,347,7.0,16.8,84,0.00,,,0.00,VWS V14.01,2013-02-15 12:08:00,
2013-02-15 07:09:00,13.6,9.7,29.99,NNW,342,5.6,16.8,84,0.00,,,0.00,VWS V14.01,2013-02-15 12:09:00,
2013-02-15 07:10:00,13.9,10.0,29.98,NNW,340,12.6,16.8,84,0.00,,,0.00,VWS V14.01,2013-02-15 12:10:00,
2013-02-15 07:11:00,13.6,9.7,29.99,NW,319,7.0,16.8,84,0.00,,,0.00,VWS V14.01,2013-02-15 12:11:00,
2013-02-15 07:12:00,13.6,9.7,29.99,NNW,335,9.8,16.8,84,0.00,,,0.00,VWS V14.01,2013-02-15 12:12:00,
2013-02-15 07:13:00,13.6,9.7,29.99,NNE,12,12.6,19.6,84,0.00,,,0.00,VWS V14.01,2013-02-15 12:13:00,
2013-02-15 07:14:00,13.6,9.7,29.99,NNW,327,8.4,19.6,84,0.00,,,0.00,VWS V14.01,2013-02-15 12:14:00,
2013-02-15 07:15:00,13.7,10.0,29.98,NNW,335,7.0,16.8,85,0.00,,,0.00,VWS V14.01,2013-02-15 12:15:00,
2013-02-15 07:16:00,13.6,9.7,29.99,North,349,8.4,19.6,84,0.00,,,0.00,VWS V14.01,2013-02-15 12:16:00,
2013-02-15 07:17:00,13.6,9.7,29.99,NNW,338,7.0,19.6,84,0.00,,,0.00,VWS V14.01,2013-02-15 12:17:00,
2013-02-15 07:18:00,13.6,9.7,29.99,North,6,8.4,19.6,84,0.00,,,0.00,VWS V14.01,2013-02-15 12:18:00,
2013-02-15 07:19:00,13.6,9.7,29.99,NNW,347,7.0,19.6,84,0.00,,,0.00,VWS V14.01,2013-02-15 12:19:00,
2013-02-15 07:20:00,13.7,10.0,29.98,NNW,334,4.2,16.8,85,0.00,,,0.00,VWS V14.01,2013-02-15 12:20:00,
2013-02-15 07:21:00,13.5,9.3,29.99,NW,308,2.8,19.6,83,0.00,,,0.00,VWS V14.01,2013-02-15 12:21:00,
2013-02-15 07:22:00,13.5,9.3,29.99,NNE,15,5.6,19.6,83,0.00,,,0.00,VWS V14.01,2013-02-15 12:22:00,
2013-02-15 07:23:00,13.4,9.2,29.99,North,4,8.4,19.6,83,0.00,,,0.00,VWS V14.01,2013-02-15 12:23:00,
2013-02-15 07:24:00,13.4,9.2,29.99,NNW,338,4.2,19.6,83,0.00,,,0.00,VWS V14.01,2013-02-15 12:24:00,
2013-02-15 07:25:00,13.7,10.0,29.98,North,352,7.0,16.8,85,0.00,,,0.00,VWS V14.01,2013-02-15 12:25:00,
2013-02-15 07:26:00,13.4,9.2,29.99,North,352,9.8,19.6,83,0.00,,,0.00,VWS V14.01,2013-02-15 12:26:00,
2013-02-15 07:27:00,13.4,9.2,29.99,NNW,338,11.2,19.6,83,0.00,,,0.00,VWS V14.01,2013-02-15 12:27:00,
2013-02-15 07:28:00,13.5,9.3,29.99,NNW,333,5.6,19.6,83,0.00,,,0.00,VWS V14.01,2013-02-15 12:28:00,
2013-02-15 07:29:00,13.5,9.0,29.99,NNW,345,8.4,19.6,82,0.00,,,0.00,VWS V14.01,2013-02-15 12:29:00,
2013-02-15 07:30:00,13.6,9.9,29.98,NNW,338,5.6,16.8,85,0.00,,,0.00,VWS V14.01,2013-02-15 12:30:00,
2013-02-15 07:31:00,13.5,9.0,29.99,NW,322,4.2,19.6,82,0.00,,,0.00,VWS V14.01,2013-02-15 12:31:00,
2013-02-15 07:32:00,13.5,9.0,29.99,NNW,340,5.6,19.6,82,0.00,,,0.00,VWS V14.01,2013-02-15 12:32:00,
2013-02-15 07:33:00,13.4,9.2,29.99,North,8,8.4,19.6,83,0.00,,,0.00,VWS V14.01,2013-02-15 12:33:00,
2013-02-15 07:34:00,13.4,8.9,29.99,NNW,338,4.2,19.6,82,0.00,,,0.00,VWS V14.01,2013-02-15 12:34:00,
2013-02-15 07:35:00,13.6,9.9,29.98,NNW,333,5.6,16.8,85,0.00,,,0.00,VWS V14.01,2013-02-15 12:35:00,
2013-02-15 07:36:00,13.3,9.1,29.99,NW,312,4.2,19.6,83,0.00,,,0.00,VWS V14.01,2013-02-15 12:36:00,
2013-02-15 07:37:00,13.3,9.1,29.99,NNW,335,7.0,19.6,83,0.00,,,0.00,VWS V14.01,2013-02-15 12:37:00,
2013-02-15 07:38:00,13.3,9.1,29.99,NNW,335,7.0,19.6,83,0.00,,,0.00,VWS V14.01,2013-02-15 12:38:00,
2013-02-15 07:39:00,13.3,9.1,30.00,North,359,8.4,19.6,83,0.00,,,0.00,VWS V14.01,2013-02-15 12:39:00,
2013-02-15 07:40:00,13.6,9.7,29.99,NW,313,2.8,16.8,84,0.00,,,0.00,VWS V14.01,2013-02-15 12:40:00,
2013-02-15 07:41:00,13.3,9.1,30.00,NNW,342,5.6,19.6,83,0.00,,,0.00,VWS V14.01,2013-02-15 12:41:00,
2013-02-15 07:42:00,13.3,9.1,30.00,NNW,338,14.0,19.6,83,0.00,,,0.00,VWS V14.01,2013-02-15 12:42:00,
2013-02-15 07:43:00,13.5,9.6,30.00,NNW,332,16.8,19.6,84,0.00,,,0.00,VWS V14.01,2013-02-15 12:43:00,
2013-02-15 07:44:00,13.7,9.5,30.00,NNW,333,8.4,19.6,83,0.00,,,0.00,VWS V14.01,2013-02-15 12:44:00,
2013-02-15 07:45:00,13.6,9.7,29.99,NNW,332,7.0,16.8,84,0.00,,,0.00,VWS V14.01,2013-02-15 12:45:00,
2013-02-15 07:46:00,13.9,9.7,30.00,NW,322,8.4,19.6,83,0.00,,,0.00,VWS V14.01,2013-02-15 12:46:00,
2013-02-15 07:47:00,14.0,9.5,30.00,North,352,7.0,19.6,82,0.00,,,0.00,VWS V14.01,2013-02-15 12:47:00,
2013-02-15 07:48:00,13.9,9.4,30.00,North,358,9.8,19.6,82,0.00,,,0.00,VWS V14.01,2013-02-15 12:48:00,
2013-02-15 07:49:00,13.9,9.4,30.00,NNW,340,4.2,19.6,82,0.00,,,0.00,VWS V14.01,2013-02-15 12:49:00,
2013-02-15 07:50:00,13.6,9.7,29.99,NNE,20,11.2,19.6,84,0.00,,,0.00,VWS V14.01,2013-02-15 12:50:00,
2013-02-15 07:51:00,13.9,9.4,30.00,NNW,338,5.6,19.6,82,0.00,,,0.00,VWS V14.01,2013-02-15 12:51:00,
2013-02-15 07:52:00,13.9,9.4,30.00,NW,314,0.0,19.6,82,0.00,,,0.00,VWS V14.01,2013-02-15 12:52:00,
2013-02-15 07:53:00,14.0,9.8,30.00,North,352,11.2,19.6,83,0.00,,,0.00,VWS V14.01,2013-02-15 12:53:00,
2013-02-15 07:54:00,14.1,9.6,30.00,NNW,342,9.8,19.6,82,0.00,,,0.00,VWS V14.01,2013-02-15 12:54:00,
2013-02-15 07:55:00,13.6,9.7,29.99,NNW,333,5.6,19.6,84,0.00,,,0.00,VWS V14.01,2013-02-15 12:55:00,
2013-02-15 07:56:00,14.2,9.7,30.00,NW,308,2.8,19.6,82,0.00,,,0.00,VWS V14.01,2013-02-15 12:56:00,
2013-02-15 07:57:00,14.3,9.8,30.00,NNW,328,5.6,19.6,82,0.00,,,0.00,VWS V14.01,2013-02-15 12:57:00,
2013-02-15 07:58:00,14.3,9.8,30.00,NE,39,4.2,19.6,82,0.00,,,0.00,VWS V14.01,2013-02-15 12:58:00,
2013-02-15 07:59:00,14.2,9.7,30.00,West,277,1.4,19.6,82,0.00,,,0.00,VWS V14.01,2013-02-15 12:59:00,
2013-02-15 08:00:00,13.4,9.2,29.99,NNW,347,5.6,19.6,83,0.00,,,0.00,VWS V14.01,2013-02-15 13:00:00,
2013-02-15 08:01:00,14.1,9.6,30.00,NE,34,5.6,9.8,82,0.00,,,0.00,VWS V14.01,2013-02-15 13:01:00,
2013-02-15 08:02:00,14.0,9.5,30.00,North,354,2.8,9.8,82,0.00,,,0.00,VWS V14.01,2013-02-15 13:02:00,
2013-02-15 08:03:00,14.0,9.5,30.00,NW,305,7.0,9.8,82,0.00,,,0.00,VWS V14.01,2013-02-15 13:03:00,
2013-02-15 08:04:00,14.0,9.5,30.00,North,354,0.0,9.8,82,0.00,,,0.00,VWS V14.01,2013-02-15 13:04:00,
2013-02-15 08:05:00,13.5,9.0,29.99,NNW,342,7.0,19.6,82,0.00,,,0.00,VWS V14.01,2013-02-15 13:05:00,
2013-02-15 08:06:00,14.0,9.5,30.00,North,8,0.0,9.8,82,0.00,,,0.00,VWS V14.01,2013-02-15 13:06:00,
2013-02-15 08:07:00,14.0,9.5,30.00,NNE,20,0.0,9.8,82,0.00,,,0.00,VWS V14.01,2013-02-15 13:07:00,
2013-02-15 08:08:00,14.0,9.5,30.00,NNW,335,0.0,9.8,82,0.00,,,0.00,VWS V14.01,2013-02-15 13:08:00,
2013-02-15 08:09:00,14.0,9.3,30.00,NNW,332,0.0,9.8,81,0.00,,,0.00,VWS V14.01,2013-02-15 13:09:00,
2013-02-15 08:10:00,13.4,8.9,29.99,NNW,342,5.6,19.6,82,0.00,,,0.00,VWS V14.01,2013-02-15 13:10:00,
2013-02-15 08:11:00,14.0,9.3,30.01,NNW,335,0.0,9.8,81,0.00,,,0.00,VWS V14.01,2013-02-15 13:11:00,
2013-02-15 08:12:00,14.1,9.6,30.01,NNW,340,0.0,9.8,82,0.00,,,0.00,VWS V14.01,2013-02-15 13:12:00,
2013-02-15 08:13:00,14.1,9.6,30.01,North,11,1.4,9.8,82,0.00,,,0.00,VWS V14.01,2013-02-15 13:13:00,
2013-02-15 08:14:00,14.1,9.6,30.01,NNE,29,0.0,9.8,82,0.00,,,0.00,VWS V14.01,2013-02-15 13:14:00,
2013-02-15 08:15:00,13.3,9.1,30.00,NW,318,7.0,19.6,83,0.00,,,0.00,VWS V14.01,2013-02-15 13:15:00,
2013-02-15 08:16:00,14.0,9.3,30.01,NNW,338,0.0,9.8,81,0.00,,,0.00,VWS V14.01,2013-02-15 13:16:00,
2013-02-15 08:17:00,14.0,9.3,30.01,NNW,338,0.0,9.8,81,0.00,,,0.00,VWS V14.01,2013-02-15 13:17:00,
2013-02-15 08:18:00,14.0,9.3,30.01,North,11,0.0,9.8,81,0.00,,,0.00,VWS V14.01,2013-02-15 13:18:00,
2013-02-15 08:19:00,14.1,9.4,30.01,NNE,29,0.0,9.8,81,0.00,,,0.00,VWS V14.01,2013-02-15 13:19:00,
2013-02-15 08:20:00,13.6,9.4,30.00,NNW,346,11.2,19.6,83,0.00,,,0.00,VWS V14.01,2013-02-15 13:20:00,
2013-02-15 08:21:00,14.2,9.4,30.01,NW,308,0.0,9.8,81,0.00,,,0.00,VWS V14.01,2013-02-15 13:21:00,
2013-02-15 08:22:00,14.3,9.6,30.01,NNW,339,0.0,9.8,81,0.00,,,0.00,VWS V14.01,2013-02-15 13:22:00,
2013-02-15 08:23:00,14.3,9.6,30.01,NNW,340,0.0,9.8,81,0.00,,,0.00,VWS V14.01,2013-02-15 13:23:00,
2013-02-15 08:24:00,14.3,9.6,30.01,NNE,25,0.0,9.8,81,0.00,,,0.00,VWS V14.01,2013-02-15 13:24:00,
2013-02-15 08:25:00,13.9,9.4,30.00,NNW,328,4.2,19.6,82,0.00,,,0.00,VWS V14.01,2013-02-15 13:25:00,
2013-02-15 08:26:00,14.3,9.6,30.01,NNW,335,0.0,9.8,81,0.00,,,0.00,VWS V14.01,2013-02-15 13:26:00,
2013-02-15 08:27:00,14.3,9.6,30.01,NW,325,0.0,9.8,81,0.00,,,0.00,VWS V14.01,2013-02-15 13:27:00,
2013-02-15 08:28:00,14.3,9.6,30.01,WNW,302,0.0,9.8,81,0.00,,,0.00,VWS V14.01,2013-02-15 13:28:00,
2013-02-15 08:29:00,14.3,9.6,30.01,NW,323,0.0,9.8,81,0.00,,,0.00,VWS V14.01,2013-02-15 13:29:00,
2013-02-15 08:30:00,14.0,9.8,30.00,NW,313,8.4,19.6,83,0.00,,,0.00,VWS V14.01,2013-02-15 13:30:00,
2013-02-15 08:31:00,14.3,9.6,30.01,North,356,0.0,9.8,81,0.00,,,0.00,VWS V14.01,2013-02-15 13:31:00,
2013-02-15 08:32:00,14.3,9.6,30.01,NW,311,0.0,9.8,81,0.00,,,0.00,VWS V14.01,2013-02-15 13:32:00,
2013-02-15 08:33:00,14.3,9.8,30.01,NW,322,0.0,9.8,82,0.00,,,0.00,VWS V14.01,2013-02-15 13:33:00,
2013-02-15 08:34:00,14.2,9.4,30.01,NNE,20,0.0,9.8,81,0.00,,,0.00,VWS V14.01,2013-02-15 13:34:00,
2013-02-15 08:35:00,14.2,9.7,30.00,NNE,20,4.2,19.6,82,0.00,,,0.00,VWS V14.01,2013-02-15 13:35:00,
2013-02-15 08:36:00,14.1,9.4,30.02,North,1,0.0,9.8,81,0.00,,,0.00,VWS V14.01,2013-02-15 13:36:00,
2013-02-15 08:37:00,14.1,9.4,30.01,NNW,342,0.0,9.8,81,0.00,,,0.00,VWS V14.01,2013-02-15 13:37:00,
2013-02-15 08:38:00,14.1,9.6,30.02,NNW,330,0.0,9.8,82,0.00,,,0.00,VWS V14.01,2013-02-15 13:38:00,
2013-02-15 08:39:00,14.1,9.6,30.02,North,355,0.0,9.8,82,0.00,,,0.00,VWS V14.01,2013-02-15 13:39:00,
2013-02-15 08:40:00,14.0,9.5,30.00,NNW,340,2.8,9.8,82,0.00,,,0.00,VWS V14.01,2013-02-15 13:40:00,
2013-02-15 08:41:00,14.1,9.6,30.02,NNW,345,0.0,9.8,82,0.00,,,0.00,VWS V14.01,2013-02-15 13:41:00,
2013-02-15 08:42:00,14.1,9.6,30.02,NNW,330,0.0,9.8,82,0.00,,,0.00,VWS V14.01,2013-02-15 13:42:00,
2013-02-15 08:43:00,14.2,9.7,30.02,North,354,0.0,9.8,82,0.00,,,0.00,VWS V14.01,2013-02-15 13:43:00,
2013-02-15 08:44:00,14.2,9.7,30.02,NNE,12,0.0,9.8,82,0.00,,,0.00,VWS V14.01,2013-02-15 13:44:00,
2013-02-15 08:45:00,14.0,9.3,30.00,NW,319,0.0,9.8,81,0.00,,,0.00,VWS V14.01,2013-02-15 13:45:00,
2013-02-15 08:46:00,14.3,9.8,30.02,North,355,0.0,9.8,82,0.00,,,0.00,VWS V14.01,2013-02-15 13:46:00,
2013-02-15 08:47:00,14.3,9.8,30.02,NNW,332,0.0,9.8,82,0.00,,,0.00,VWS V14.01,2013-02-15 13:47:00,
2013-02-15 08:48:00,14.3,9.8,30.02,North,6,0.0,9.8,82,0.00,,,0.00,VWS V14.01,2013-02-15 13:48:00,
2013-02-15 08:49:00,14.3,9.6,30.02,North,8,0.0,9.8,81,0.00,,,0.00,VWS V14.01,2013-02-15 13:49:00,
2013-02-15 08:50:00,14.3,9.6,30.02,NNW,330,0.0,9.8,81,0.00,,,0.00,VWS V14.01,2013-02-15 13:50:00,
2013-02-15 08:51:00,14.1,9.4,30.01,NNW,342,0.0,9.8,81,0.00,,,0.00,VWS V14.01,2013-02-15 13:51:00,
2013-02-15 08:52:00,14.4,9.6,30.02,NNW,338,0.0,9.8,81,0.00,,,0.00,VWS V14.01,2013-02-15 13:52:00,
2013-02-15 08:53:00,14.4,9.6,30.02,NW,319,0.0,9.8,81,0.00,,,0.00,VWS V14.01,2013-02-15 13:53:00,
2013-02-15 08:54:00,14.4,9.6,30.02,North,1,0.0,9.8,81,0.00,,,0.00,VWS V14.01,2013-02-15 13:54:00,
2013-02-15 08:55:00,14.4,9.6,30.02,NNW,333,0.0,9.8,81,0.00,,,0.00,VWS V14.01,2013-02-15 13:55:00,
2013-02-15 08:56:00,14.1,9.4,30.01,NW,325,0.0,9.8,81,0.00,,,0.00,VWS V14.01,2013-02-15 13:56:00,
2013-02-15 08:57:00,14.4,9.6,30.02,NNW,335,0.0,9.8,81,0.00,,,0.00,VWS V14.01,2013-02-15 13:57:00,
2013-02-15 08:58:00,14.4,9.6,30.02,NW,315,1.4,9.8,81,0.00,,,0.00,VWS V14.01,2013-02-15 13:58:00,
2013-02-15 08:59:00,14.4,9.4,30.02,SSW,209,0.0,14.0,80,0.00,,,0.00,VWS V14.01,2013-02-15 13:59:00,
2013-02-15 09:00:00,14.4,9.4,30.02,North,352,4.2,14.0,80,0.00,,,0.00,VWS V14.01,2013-02-15 14:00:00,
2013-02-15 09:01:00,14.3,9.6,30.01,NNW,340,0.0,9.8,81,0.00,,,0.00,VWS V14.01,2013-02-15 14:01:00,
2013-02-15 09:02:00,14.5,9.5,30.02,NNW,340,1.4,14.0,80,0.00,,,0.00,VWS V14.01,2013-02-15 14:02:00,
2013-02-15 09:03:00,14.5,9.2,30.02,North,4,4.2,14.0,79,0.00,,,0.00,VWS V14.01,2013-02-15 14:03:00,
2013-02-15 09:04:00,14.5,9.2,30.02,NW,322,2.8,14.0,79,0.00,,,0.00,VWS V14.01,2013-02-15 14:04:00,
2013-02-15 09:05:00,14.5,9.2,30.02,NNW,338,1.4,14.0,79,0.00,,,0.00,VWS V14.01,2013-02-15 14:05:00,
2013-02-15 09:06:00,14.3,9.6,30.01,NNW,338,0.0,9.8,81,0.00,,,0.00,VWS V14.01,2013-02-15 14:06:00,
2013-02-15 09:07:00,14.6,9.3,30.02,NNW,345,1.4,14.0,79,0.00,,,0.00,VWS V14.01,2013-02-15 14:07:00,
2013-02-15 09:08:00,14.7,9.4,30.03,NNW,347,4.2,14.0,79,0.00,,,0.00,VWS V14.01,2013-02-15 14:08:00,
2013-02-15 09:09:00,14.7,9.4,30.03,North,8,5.6,14.0,79,0.00,,,0.00,VWS V14.01,2013-02-15 14:09:00,
2013-02-15 09:10:00,14.7,9.1,30.03,NNW,338,8.4,14.0,78,0.00,,,0.00,VWS V14.01,2013-02-15 14:10:00,
2013-02-15 09:11:00,14.1,9.4,30.01,NNW,338,0.0,9.8,81,0.00,,,0.00,VWS V14.01,2013-02-15 14:11:00,
2013-02-15 09:12:00,14.7,8.8,30.03,NNW,347,7.0,14.0,77,0.00,,,0.00,VWS V14.01,2013-02-15 14:12:00,
2013-02-15 09:13:00,14.8,8.9,30.03,NNW,335,4.2,14.0,77,0.00,,,0.00,VWS V14.01,2013-02-15 14:13:00,
2013-02-15 09:14:00,14.8,8.9,30.03,NNW,348,1.4,14.0,77,0.00,,,0.00,VWS V14.01,2013-02-15 14:14:00,
2013-02-15 09:15:00,14.9,9.3,30.03,North,351,5.6,14.0,78,0.00,,,0.00,VWS V14.01,2013-02-15 14:15:00,
2013-02-15 09:16:00,14.1,9.6,30.01,NNW,345,0.0,9.8,82,0.00,,,0.00,VWS V14.01,2013-02-15 14:16:00,
2013-02-15 09:17:00,14.9,9.3,30.03,NNW,348,5.6,14.0,78,0.00,,,0.00,VWS V14.01,2013-02-15 14:17:00,
2013-02-15 09:18:00,14.9,9.0,30.03,NW,318,5.6,16.8,77,0.00,,,0.00,VWS V14.01,2013-02-15 14:18:00,
2013-02-15 09:19:00,14.9,9.0,30.03,NW,321,4.2,16.8,77,0.00,,,0.00,VWS V14.01,2013-02-15 14:19:00,
2013-02-15 09:20:00,14.9,9.0,30.03,North,6,11.2,16.8,77,0.00,,,0.00,VWS V14.01,2013-02-15 14:20:00,
2013-02-15 09:21:00,14.3,9.8,30.02,WNW,301,0.0,9.8,82,0.00,,,0.00,VWS V14.01,2013-02-15 14:21:00,
2013-02-15 09:22:00,15.0,9.1,30.03,North,7,9.8,16.8,77,0.00,,,0.00,VWS V14.01,2013-02-15 14:22:00,
2013-02-15 09:23:00,15.0,9.1,30.03,NW,321,7.0,16.8,77,0.00,,,0.00,VWS V14.01,2013-02-15 14:23:00,
2013-02-15 09:24:00,15.0,9.1,30.03,North,356,8.4,16.8,77,0.00,,,0.00,VWS V14.01,2013-02-15 14:24:00,
2013-02-15 09:25:00,15.0,9.1,30.03,NW,312,5.6,16.8,77,0.00,,,0.00,VWS V14.01,2013-02-15 14:25:00,
2013-02-15 09:26:00,14.3,9.6,30.02,NNW,343,0.0,9.8,81,0.00,,,0.00,VWS V14.01,2013-02-15 14:26:00,
2013-02-15 09:27:00,14.8,8.6,30.03,NW,326,5.6,16.8,76,0.00,,,0.00,VWS V14.01,2013-02-15 14:27:00,
2013-02-15 09:28:00,14.8,8.6,30.03,NNW,343,7.0,16.8,76,0.00,,,0.00,VWS V14.01,2013-02-15 14:28:00,
2013-02-15 09:29:00,14.8,8.9,30.03,NNE,29,8.4,16.8,77,0.00,,,0.00,VWS V14.01,2013-02-15 14:29:00,
2013-02-15 09:30:00,14.8,8.9,30.03,NNW,335,5.6,16.8,77,0.00,,,0.00,VWS V14.01,2013-02-15 14:30:00,
2013-02-15 09:31:00,14.4,9.6,30.02,NE,46,0.0,9.8,81,0.00,,,0.00,VWS V14.01,2013-02-15 14:31:00,
2013-02-15 09:32:00,14.9,9.0,30.03,NNW,341,5.6,16.8,77,0.00,,,0.00,VWS V14.01,2013-02-15 14:32:00,
2013-02-15 09:33:00,14.9,9.0,30.03,North,357,8.4,16.8,77,0.00,,,0.00,VWS V14.01,2013-02-15 14:33:00,
2013-02-15 09:34:00,14.9,9.0,30.03,NNE,13,12.6,16.8,77,0.00,,,0.00,VWS V14.01,2013-02-15 14:34:00,
2013-02-15 09:35:00,14.8,8.6,30.03,NNW,345,12.6,16.8,76,0.00,,,0.00,VWS V14.01,2013-02-15 14:35:00,
2013-02-15 09:36:00,14.4,9.4,30.02,NNW,345,2.8,14.0,80,0.00,,,0.00,VWS V14.01,2013-02-15 14:36:00,
2013-02-15 09:37:00,14.6,8.4,30.03,NNW,348,8.4,16.8,76,0.00,,,0.00,VWS V14.01,2013-02-15 14:37:00,
2013-02-15 09:38:00,14.5,8.3,30.03,NE,38,7.0,16.8,76,0.00,,,0.00,VWS V14.01,2013-02-15 14:38:00,
2013-02-15 09:39:00,14.5,8.3,30.03,NNW,328,9.8,16.8,76,0.00,,,0.00,VWS V14.01,2013-02-15 14:39:00,
2013-02-15 09:40:00,14.5,8.3,30.03,NNW,328,7.0,16.8,76,0.00,,,0.00,VWS V14.01,2013-02-15 14:40:00,
2013-02-15 09:41:00,14.5,9.2,30.02,NW,326,1.4,14.0,79,0.00,,,0.00,VWS V14.01,2013-02-15 14:41:00,
2013-02-15 09:42:00,14.5,8.6,30.03,NNW,342,8.4,16.8,77,0.00,,,0.00,VWS V14.01,2013-02-15 14:42:00,
2013-02-15 09:43:00,14.5,8.6,30.03,North,357,7.0,16.8,77,0.00,,,0.00,VWS V14.01,2013-02-15 14:43:00,
2013-02-15 09:44:00,14.5,8.6,30.03,North,354,15.4,16.8,77,0.00,,,0.00,VWS V14.01,2013-02-15 14:44:00,
2013-02-15 09:45:00,14.5,8.6,30.03,NNE,30,5.6,16.8,77,0.00,,,0.00,VWS V14.01,2013-02-15 14:45:00,
2013-02-15 09:46:00,14.7,9.1,30.03,NNW,335,5.6,14.0,78,0.00,,,0.00,VWS V14.01,2013-02-15 14:46:00,
2013-02-15 09:47:00,14.4,8.2,30.03,NW,325,9.8,18.2,76,0.00,,,0.00,VWS V14.01,2013-02-15 14:47:00,
2013-02-15 09:48:00,14.3,8.1,30.03,North,1,8.4,18.2,76,0.00,,,0.00,VWS V14.01,2013-02-15 14:48:00,
2013-02-15 09:49:00,14.2,8.0,30.03,North,6,9.8,18.2,76,0.00,,,0.00,VWS V14.01,2013-02-15 14:49:00,
2013-02-15 09:50:00,14.1,7.9,30.03,NNE,12,8.4,18.2,76,0.00,,,0.00,VWS V14.01,2013-02-15 14:50:00,
2013-02-15 09:51:00,14.9,9.3,30.03,NW,321,1.4,14.0,78,0.00,,,0.00,VWS V14.01,2013-02-15 14:51:00,
2013-02-15 09:52:00,14.0,7.8,30.03,NNW,328,7.0,18.2,76,0.00,,,0.00,VWS V14.01,2013-02-15 14:52:00,
2013-02-15 09:53:00,13.9,7.8,30.03,North,357,8.4,18.2,76,0.00,,,0.00,VWS V14.01,2013-02-15 14:53:00,
2013-02-15 09:54:00,13.9,8.0,30.03,NW,322,8.4,18.2,77,0.00,,,0.00,VWS V14.01,2013-02-15 14:54:00,
2013-02-15 09:55:00,13.9,8.0,30.04,NNW,328,7.0,18.2,77,0.00,,,0.00,VWS V14.01,2013-02-15 14:55:00,
2013-02-15 09:56:00,14.9,9.0,30.03,NW,319,2.8,16.8,77,0.00,,,0.00,VWS V14.01,2013-02-15 14:56:00,
2013-02-15 09:57:00,13.9,8.0,30.04,NNW,345,5.6,18.2,77,0.00,,,0.00,VWS V14.01,2013-02-15 14:57:00,
2013-02-15 09:58:00,13.9,8.0,30.04,NNW,328,8.4,18.2,77,0.00,,,0.00,VWS V14.01,2013-02-15 14:58:00,
2013-02-15 09:59:00,13.9,8.0,30.04,NNW,342,8.4,18.2,77,0.00,,,0.00,VWS V14.01,2013-02-15 14:59:00,
2013-02-15 10:00:00,13.9,8.0,30.04,NW,326,8.4,18.2,77,0.00,,,0.00,VWS V14.01,2013-02-15 15:00:00,
2013-02-15 10:01:00,15.0,9.1,30.03,NNW,335,8.4,16.8,77,0.00,,,0.00,VWS V14.01,2013-02-15 15:01:00,
2013-02-15 10:02:00,13.9,7.8,30.04,NNW,338,14.0,16.8,76,0.00,,,0.00,VWS V14.01,2013-02-15 15:02:00,
2013-02-15 10:03:00,13.8,7.7,30.04,NNW,331,8.4,16.8,76,0.00,,,0.00,VWS V14.01,2013-02-15 15:03:00,
2013-02-15 10:04:00,13.7,7.6,30.04,NNW,345,8.4,16.8,76,0.00,,,0.00,VWS V14.01,2013-02-15 15:04:00,
2013-02-15 10:05:00,13.6,7.5,30.04,NNW,336,8.4,16.8,76,0.00,,,0.00,VWS V14.01,2013-02-15 15:05:00,
2013-02-15 10:06:00,14.8,8.9,30.03,NNW,342,7.0,16.8,77,0.00,,,0.00,VWS V14.01,2013-02-15 15:06:00,
2013-02-15 10:07:00,13.7,7.6,30.04,NNW,336,5.6,16.8,76,0.00,,,0.00,VWS V14.01,2013-02-15 15:07:00,
2013-02-15 10:08:00,13.8,7.9,30.04,North,9,9.8,16.8,77,0.00,,,0.00,VWS V14.01,2013-02-15 15:08:00,
2013-02-15 10:09:00,13.8,7.7,30.04,North,11,8.4,16.8,76,0.00,,,0.00,VWS V14.01,2013-02-15 15:09:00,
2013-02-15 10:10:00,13.8,7.7,30.04,NE,38,14.0,16.8,76,0.00,,,0.00,VWS V14.01,2013-02-15 15:10:00,
2013-02-15 10:11:00,14.8,8.6,30.03,North,352,9.8,16.8,76,0.00,,,0.00,VWS V14.01,2013-02-15 15:11:00,
2013-02-15 10:12:00,14.0,7.8,30.04,NNW,348,7.0,16.8,76,0.00,,,0.00,VWS V14.01,2013-02-15 15:12:00,
2013-02-15 10:13:00,14.0,7.8,30.04,NNW,341,7.0,16.8,76,0.00,,,0.00,VWS V14.01,2013-02-15 15:13:00,
2013-02-15 10:14:00,14.1,7.9,30.04,NNE,25,12.6,16.8,76,0.00,,,0.00,VWS V14.01,2013-02-15 15:14:00,
2013-02-15 10:15:00,14.2,8.0,30.04,North,11,14.0,16.8,76,0.00,,,0.00,VWS V14.01,2013-02-15 15:15:00,
2013-02-15 10:16:00,14.5,8.3,30.03,North,349,8.4,16.8,76,0.00,,,0.00,VWS V14.01,2013-02-15 15:16:00,
2013-02-15 10:17:00,14.2,7.7,30.04,NNW,328,14.0,18.2,75,0.00,,,0.00,VWS V14.01,2013-02-15 15:17:00,
2013-02-15 10:18:00,14.2,7.7,30.04,NW,315,14.0,21.0,75,0.00,,,0.00,VWS V14.01,2013-02-15 15:18:00,
2013-02-15 10:19:00,14.1,7.3,30.04,North,351,8.4,21.0,74,0.00,,,0.00,VWS V14.01,2013-02-15 15:19:00,
2013-02-15 10:20:00,14.2,7.7,30.04,North,4,9.8,21.0,75,0.00,,,0.00,VWS V14.01,2013-02-15 15:20:00,
2013-02-15 10:21:00,14.5,8.6,30.03,NNW,333,8.4,16.8,77,0.00,,,0.00,VWS V14.01,2013-02-15 15:21:00,
2013-02-15 10:22:00,14.2,8.0,30.04,NNW,346,8.4,21.0,76,0.00,,,0.00,VWS V14.01,2013-02-15 15:22:00,
2013-02-15 10:23:00,14.2,7.7,30.04,NNE,16,7.0,21.0,75,0.00,,,0.00,VWS V14.01,2013-02-15 15:23:00,
2013-02-15 10:24:00,14.2,7.7,30.04,NNE,15,14.0,21.0,75,0.00,,,0.00,VWS V14.01,2013-02-15 15:24:00,
2013-02-15 10:25:00,14.2,8.0,30.04,North,1,8.4,21.0,76,0.00,,,0.00,VWS V14.01,2013-02-15 15:25:00,
2013-02-15 10:26:00,14.1,7.9,30.03,NW,321,5.6,18.2,76,0.00,,,0.00,VWS V14.01,2013-02-15 15:26:00,
2013-02-15 10:27:00,14.2,8.0,30.04,NNW,328,8.4,21.0,76,0.00,,,0.00,VWS V14.01,2013-02-15 15:27:00,
2013-02-15 10:28:00,14.2,8.0,30.04,NW,308,5.6,21.0,76,0.00,,,0.00,VWS V14.01,2013-02-15 15:28:00,
2013-02-15 10:29:00,14.2,8.0,30.04,NNW,343,8.4,21.0,76,0.00,,,0.00,VWS V14.01,2013-02-15 15:29:00,
2013-02-15 10:30:00,14.1,7.7,30.04,NNW,345,8.4,21.0,75,0.00,,,0.00,VWS V14.01,2013-02-15 15:30:00,
2013-02-15 10:31:00,13.9,8.0,30.04,NW,322,5.6,18.2,77,0.00,,,0.00,VWS V14.01,2013-02-15 15:31:00,
2013-02-15 10:32:00,14.1,7.9,30.04,NNW,338,8.4,21.0,76,0.00,,,0.00,VWS V14.01,2013-02-15 15:32:00,
2013-02-15 10:33:00,14.1,7.9,30.04,NNW,328,7.0,21.0,76,0.00,,,0.00,VWS V14.01,2013-02-15 15:33:00,
2013-02-15 10:34:00,14.1,7.9,30.05,NW,315,7.0,21.0,76,0.00,,,0.00,VWS V14.01,2013-02-15 15:34:00,
2013-02-15 10:35:00,14.0,7.8,30.05,NNW,338,8.4,21.0,76,0.00,,,0.00,VWS V14.01,2013-02-15 15:35:00,
2013-02-15 10:36:00,13.9,8.0,30.04,NNE,16,9.8,18.2,77,0.00,,,0.00,VWS V14.01,2013-02-15 15:36:00,
2013-02-15 10:37:00,14.0,8.1,30.05,NNE,20,11.2,21.0,77,0.00,,,0.00,VWS V14.01,2013-02-15 15:37:00,
2013-02-15 10:38:00,14.1,8.2,30.05,NW,321,9.8,21.0,77,0.00,,,0.00,VWS V14.01,2013-02-15 15:38:00,
2013-02-15 10:39:00,14.2,8.3,30.05,NNE,18,5.6,21.0,77,0.00,,,0.00,VWS V14.01,2013-02-15 15:39:00,
2013-02-15 10:40:00,14.2,8.3,30.05,North,351,8.4,21.0,77,0.00,,,0.00,VWS V14.01,2013-02-15 15:40:00,
2013-02-15 10:41:00,13.7,7.6,30.04,NNE,14,12.6,16.8,76,0.00,,,0.00,VWS V14.01,2013-02-15 15:41:00,
2013-02-15 10:42:00,14.2,8.0,30.05,North,355,8.4,21.0,76,0.00,,,0.00,VWS V14.01,2013-02-15 15:42:00,
2013-02-15 10:43:00,14.2,8.0,30.05,NNW,330,9.8,21.0,76,0.00,,,0.00,VWS V14.01,2013-02-15 15:43:00,
2013-02-15 10:44:00,14.1,7.9,30.05,NNE,27,11.2,21.0,76,0.00,,,0.00,VWS V14.01,2013-02-15 15:44:00,
2013-02-15 10:45:00,14.0,7.6,30.05,North,349,8.4,21.0,75,0.00,,,0.00,VWS V14.01,2013-02-15 15:45:00,
2013-02-15 10:46:00,13.8,7.7,30.04,NNE,29,9.8,16.8,76,0.00,,,0.00,VWS V14.01,2013-02-15 15:46:00,
2013-02-15 10:47:00,14.0,7.8,30.05,NW,311,8.4,21.0,76,0.00,,,0.00,VWS V14.01,2013-02-15 15:47:00,
2013-02-15 10:48:00,14.0,8.1,30.05,NNW,340,8.4,21.0,77,0.00,,,0.00,VWS V14.01,2013-02-15 15:48:00,
2013-02-15 10:49:00,14.0,8.1,30.04,NNE,16,15.4,21.0,77,0.00,,,0.00,VWS V14.01,2013-02-15 15:49:00,
2013-02-15 10:50:00,14.0,7.8,30.05,NNW,335,7.0,21.0,76,0.00,,,0.00,VWS V14.01,2013-02-15 15:50:00,
2013-02-15 10:51:00,14.1,7.9,30.04,NNW,345,12.6,16.8,76,0.00,,,0.00,VWS V14.01,2013-02-15 15:51:00,
2013-02-15 10:52:00,14.1,8.2,30.05,NE,34,5.6,21.0,77,0.00,,,0.00,VWS V14.01,2013-02-15 15:52:00,
2013-02-15 10:53:00,14.1,8.2,30.04,NW,319,9.8,21.0,77,0.00,,,0.00,VWS V14.01,2013-02-15 15:53:00,
2013-02-15 10:54:00,14.2,8.0,30.05,NNW,340,8.4,21.0,76,0.00,,,0.00,VWS V14.01,2013-02-15 15:54:00,
2013-02-15 10:55:00,14.2,8.0,30.05,NNW,348,11.2,21.0,76,0.00,,,0.00,VWS V14.01,2013-02-15 15:55:00,
2013-02-15 10:56:00,14.2,7.4,30.04,NNE,29,7.0,21.0,74,0.00,,,0.00,VWS V14.01,2013-02-15 15:56:00,
2013-02-15 10:57:00,14.3,8.1,30.05,NW,326,7.0,21.0,76,0.00,,,0.00,VWS V14.01,2013-02-15 15:57:00,
2013-02-15 10:58:00,14.4,8.5,30.05,North,1,11.2,21.0,77,0.00,,,0.00,VWS V14.01,2013-02-15 15:58:00,
2013-02-15 10:59:00,14.4,8.2,30.05,North,351,8.4,21.0,76,0.00,,,0.00,VWS V14.01,2013-02-15 15:59:00,
2013-02-15 11:00:00,14.4,7.9,30.05,NNE,18,9.8,21.0,75,0.00,,,0.00,VWS V14.01,2013-02-15 16:00:00,
2013-02-15 11:01:00,14.2,8.0,30.04,NNW,335,12.6,21.0,76,0.00,,,0.00,VWS V14.01,2013-02-15 16:01:00,
2013-02-15 11:02:00,14.5,8.3,30.05,North,349,12.6,21.0,76,0.00,,,0.00,VWS V14.01,2013-02-15 16:02:00,
2013-02-15 11:03:00,14.4,7.9,30.05,NNW,343,12.6,21.0,75,0.00,,,0.00,VWS V14.01,2013-02-15 16:03:00,
2013-02-15 11:04:00,14.5,8.3,30.05,NNW,338,8.4,21.0,76,0.00,,,0.00,VWS V14.01,2013-02-15 16:04:00,
2013-02-15 11:05:00,14.5,8.3,30.05,North,8,16.8,21.0,76,0.00,,,0.00,VWS V14.01,2013-02-15 16:05:00,
2013-02-15 11:06:00,14.1,7.7,30.04,NNE,26,11.2,21.0,75,0.00,,,0.00,VWS V14.01,2013-02-15 16:06:00,
2013-02-15 11:07:00,14.4,8.2,30.05,North,358,12.6,21.0,76,0.00,,,0.00,VWS V14.01,2013-02-15 16:07:00,
2013-02-15 11:08:00,14.4,8.2,30.05,NNW,332,7.0,21.0,76,0.00,,,0.00,VWS V14.01,2013-02-15 16:08:00,
2013-02-15 11:09:00,14.5,8.3,30.05,NNE,18,15.4,21.0,76,0.00,,,0.00,VWS V14.01,2013-02-15 16:09:00,
2013-02-15 11:10:00,14.5,8.3,30.05,North,355,9.8,21.0,76,0.00,,,0.00,VWS V14.01,2013-02-15 16:10:00,
2013-02-15 11:11:00,14.0,7.8,30.05,NNW,348,7.0,21.0,76,0.00,,,0.00,VWS V14.01,2013-02-15 16:11:00,
2013-02-15 11:12:00,14.5,8.3,30.05,NNW,335,7.0,21.0,76,0.00,,,0.00,VWS V14.01,2013-02-15 16:12:00,
2013-02-15 11:13:00,14.6,8.4,30.05,NNW,345,9.8,21.0,76,0.00,,,0.00,VWS V14.01,2013-02-15 16:13:00,
2013-02-15 11:14:00,14.6,8.4,30.05,NNW,340,12.6,21.0,76,0.00,,,0.00,VWS V14.01,2013-02-15 16:14:00,
2013-02-15 11:15:00,14.6,8.4,30.05,NW,325,11.2,21.0,76,0.00,,,0.00,VWS V14.01,2013-02-15 16:15:00,
2013-02-15 11:16:00,14.2,8.3,30.05,NNW,329,8.4,21.0,77,0.00,,,0.00,VWS V14.01,2013-02-15 16:16:00,
2013-02-15 11:17:00,14.6,8.1,30.05,North,11,14.0,21.0,75,0.00,,,0.00,VWS V14.01,2013-02-15 16:17:00,
2013-02-15 11:18:00,14.5,8.0,30.05,NNW,338,9.8,21.0,75,0.00,,,0.00,VWS V14.01,2013-02-15 16:18:00,
2013-02-15 11:19:00,14.5,8.0,30.05,North,358,5.6,21.0,75,0.00,,,0.00,VWS V14.01,2013-02-15 16:19:00,
2013-02-15 11:20:00,14.6,8.4,30.05,North,354,9.8,21.0,76,0.00,,,0.00,VWS V14.01,2013-02-15 16:20:00,
2013-02-15 11:21:00,14.0,7.6,30.05,North,351,12.6,21.0,75,0.00,,,0.00,VWS V14.01,2013-02-15 16:21:00,
2013-02-15 11:22:00,14.7,8.5,30.05,North,353,11.2,21.0,76,0.00,,,0.00,VWS V14.01,2013-02-15 16:22:00,
2013-02-15 11:23:00,14.7,8.5,30.05,NNW,335,11.2,21.0,76,0.00,,,0.00,VWS V14.01,2013-02-15 16:23:00,
2013-02-15 11:24:00,14.7,8.5,30.05,NNW,333,5.6,21.0,76,0.00,,,0.00,VWS V14.01,2013-02-15 16:24:00,
2013-02-15 11:25:00,14.7,8.5,30.05,NNW,329,5.6,21.0,76,0.00,,,0.00,VWS V14.01,2013-02-15 16:25:00,
2013-02-15 11:26:00,14.0,7.8,30.05,NNW,336,4.2,21.0,76,0.00,,,0.00,VWS V14.01,2013-02-15 16:26:00,
2013-02-15 11:27:00,14.7,8.5,30.05,North,351,9.8,21.0,76,0.00,,,0.00,VWS V14.01,2013-02-15 16:27:00,
2013-02-15 11:28:00,14.7,8.5,30.05,North,4,8.4,21.0,76,0.00,,,0.00,VWS V14.01,2013-02-15 16:28:00,
2013-02-15 11:29:00,14.8,8.6,30.05,NNW,339,8.4,21.0,76,0.00,,,0.00,VWS V14.01,2013-02-15 16:29:00,
2013-02-15 11:30:00,14.8,8.6,30.04,NNW,345,7.0,21.0,76,0.00,,,0.00,VWS V14.01,2013-02-15 16:30:00,
2013-02-15 11:31:00,14.2,8.0,30.05,NNW,333,14.0,21.0,76,0.00,,,0.00,VWS V14.01,2013-02-15 16:31:00,
2013-02-15 11:32:00,14.9,9.0,30.04,NW,315,5.6,21.0,77,0.00,,,0.00,VWS V14.01,2013-02-15 16:32:00,
2013-02-15 11:33:00,15.0,9.1,30.04,NNW,341,8.4,21.0,77,0.00,,,0.00,VWS V14.01,2013-02-15 16:33:00,
2013-02-15 11:34:00,15.0,9.1,30.04,NNW,338,8.4,21.0,77,0.00,,,0.00,VWS V14.01,2013-02-15 16:34:00,
2013-02-15 11:35:00,15.0,8.8,30.04,NW,322,5.6,21.0,76,0.00,,,0.00,VWS V14.01,2013-02-15 16:35:00,
2013-02-15 11:36:00,14.4,8.2,30.05,NNW,339,7.0,21.0,76,0.00,,,0.00,VWS V14.01,2013-02-15 16:36:00,
2013-02-15 11:37:00,15.0,8.8,30.04,NNW,337,5.6,21.0,76,0.00,,,0.00,VWS V14.01,2013-02-15 16:37:00,
2013-02-15 11:38:00,15.0,8.8,30.04,NNW,348,8.4,21.0,76,0.00,,,0.00,VWS V14.01,2013-02-15 16:38:00,
2013-02-15 11:39:00,15.0,8.8,30.04,North,11,8.4,21.0,76,0.00,,,0.00,VWS V14.01,2013-02-15 16:39:00,
2013-02-15 11:40:00,14.9,8.4,30.04,North,4,12.6,21.0,75,0.00,,,0.00,VWS V14.01,2013-02-15 16:40:00,
2013-02-15 11:41:00,14.5,8.3,30.05,NW,321,11.2,21.0,76,0.00,,,0.00,VWS V14.01,2013-02-15 16:41:00,
2013-02-15 11:42:00,15.0,8.8,30.04,NNE,16,7.0,21.0,76,0.00,,,0.00,VWS V14.01,2013-02-15 16:42:00,
2013-02-15 11:43:00,15.0,8.8,30.04,North,11,7.0,21.0,76,0.00,,,0.00,VWS V14.01,2013-02-15 16:43:00,
2013-02-15 11:44:00,15.1,8.9,30.05,NE,43,8.4,21.0,76,0.00,,,0.00,VWS V14.01,2013-02-15 16:44:00,
2013-02-15 11:45:00,15.1,8.9,30.04,NNW,345,8.4,21.0,76,0.00,,,0.00,VWS V14.01,2013-02-15 16:45:00,
2013-02-15 11:46:00,14.5,8.3,30.05,North,354,7.0,21.0,76,0.00,,,0.00,VWS V14.01,2013-02-15 16:46:00,
2013-02-15 11:47:00,15.1,8.9,30.04,NNE,12,11.2,21.0,76,0.00,,,0.00,VWS V14.01,2013-02-15 16:47:00,
2013-02-15 11:48:00,15.1,8.9,30.05,NNW,341,5.6,21.0,76,0.00,,,0.00,VWS V14.01,2013-02-15 16:48:00,
2013-02-15 11:49:00,15.1,8.9,30.05,North,354,7.0,21.0,76,0.00,,,0.00,VWS V14.01,2013-02-15 16:49:00,
2013-02-15 11:50:00,15.1,8.9,30.05,North,8,15.4,21.0,76,0.00,,,0.00,VWS V14.01,2013-02-15 16:50:00,
2013-02-15 11:51:00,14.6,8.4,30.05,North,358,9.8,21.0,76,0.00,,,0.00,VWS V14.01,2013-02-15 16:51:00,
2013-02-15 11:52:00,15.1,8.6,30.05,NNW,348,9.8,21.0,75,0.00,,,0.00,VWS V14.01,2013-02-15 16:52:00,
2013-02-15 11:53:00,15.1,8.9,30.05,NNW,345,14.0,21.0,76,0.00,,,0.00,VWS V14.01,2013-02-15 16:53:00,
2013-02-15 11:54:00,15.1,8.6,30.05,North,354,7.0,21.0,75,0.00,,,0.00,VWS V14.01,2013-02-15 16:54:00,
2013-02-15 11:55:00,15.1,8.6,30.05,NNW,342,9.8,21.0,75,0.00,,,0.00,VWS V14.01,2013-02-15 16:55:00,
2013-02-15 11:56:00,14.5,8.3,30.05,NW,314,11.2,21.0,76,0.00,,,0.00,VWS V14.01,2013-02-15 16:56:00,
2013-02-15 11:57:00,15.3,9.1,30.04,NNW,348,5.6,21.0,76,0.00,,,0.00,VWS V14.01,2013-02-15 16:57:00,
2013-02-15 11:58:00,15.3,9.1,30.05,NNE,18,7.0,21.0,76,0.00,,,0.00,VWS V14.01,2013-02-15 16:58:00,
2013-02-15 11:59:00,15.3,9.1,30.05,NNE,16,11.2,21.0,76,0.00,,,0.00,VWS V14.01,2013-02-15 16:59:00,
2013-02-15 12:00:00,15.3,9.1,30.05,North,9,7.0,21.0,76,0.00,,,0.00,VWS V14.01,2013-02-15 17:00:00,
2013-02-15 12:01:00,14.7,8.5,30.05,NNW,332,5.6,21.0,76,0.00,,,0.00,VWS V14.01,2013-02-15 17:01:00,
2013-02-15 12:02:00,15.3,9.1,30.05,North,1,4.2,14.0,76,0.00,,,0.00,VWS V14.01,2013-02-15 17:02:00,
2013-02-15 12:03:00,15.4,9.2,30.05,NW,322,5.6,14.0,76,0.00,,,0.00,VWS V14.01,2013-02-15 17:03:00,
2013-02-15 12:04:00,15.4,9.2,30.05,NNW,340,7.0,14.0,76,0.00,,,0.00,VWS V14.01,2013-02-15 17:04:00,
2013-02-15 12:05:00,15.4,8.9,30.05,North,351,4.2,14.0,75,0.00,,,0.00,VWS V14.01,2013-02-15 17:05:00,
2013-02-15 12:06:00,14.8,8.6,30.04,NNW,335,7.0,21.0,76,0.00,,,0.00,VWS V14.01,2013-02-15 17:06:00,
2013-02-15 12:07:00,15.5,9.0,30.05,North,6,9.8,14.0,75,0.00,,,0.00,VWS V14.01,2013-02-15 17:07:00,
2013-02-15 12:08:00,15.5,9.0,30.05,North,350,8.4,14.0,75,0.00,,,0.00,VWS V14.01,2013-02-15 17:08:00,
2013-02-15 12:09:00,15.4,8.9,30.05,NNE,20,12.6,14.0,75,0.00,,,0.00,VWS V14.01,2013-02-15 17:09:00,
2013-02-15 12:10:00,15.4,9.2,30.05,NNW,330,4.2,14.0,76,0.00,,,0.00,VWS V14.01,2013-02-15 17:10:00,
2013-02-15 12:11:00,15.0,9.1,30.04,NW,317,8.4,21.0,77,0.00,,,0.00,VWS V14.01,2013-02-15 17:11:00,
2013-02-15 12:12:00,15.6,9.4,30.05,NNW,334,8.4,14.0,76,0.00,,,0.00,VWS V14.01,2013-02-15 17:12:00,
2013-02-15 12:13:00,15.8,9.6,30.04,NNE,18,8.4,14.0,76,0.00,,,0.00,VWS V14.01,2013-02-15 17:13:00,
2013-02-15 12:14:00,15.9,9.7,30.05,NNW,335,5.6,14.0,76,0.00,,,0.00,VWS V14.01,2013-02-15 17:14:00,
2013-02-15 12:15:00,15.8,9.6,30.05,North,354,8.4,14.0,76,0.00,,,0.00,VWS V14.01,2013-02-15 17:15:00,
2013-02-15 12:16:00,14.9,8.4,30.04,NNE,25,7.0,21.0,75,0.00,,,0.00,VWS V14.01,2013-02-15 17:16:00,
2013-02-15 12:17:00,15.7,9.5,30.04,NNW,332,2.8,14.0,76,0.00,,,0.00,VWS V14.01,2013-02-15 17:17:00,
2013-02-15 12:18:00,15.7,9.5,30.05,North,353,7.0,14.0,76,0.00,,,0.00,VWS V14.01,2013-02-15 17:18:00,
2013-02-15 12:19:00,15.7,9.8,30.04,North,6,8.4,14.0,77,0.00,,,0.00,VWS V14.01,2013-02-15 17:19:00,
2013-02-15 12:20:00,15.6,9.7,30.05,NNE,27,11.2,14.0,77,0.00,,,0.00,VWS V14.01,2013-02-15 17:20:00,
2013-02-15 12:21:00,15.1,8.9,30.04,NNW,336,11.2,21.0,76,0.00,,,0.00,VWS V14.01,2013-02-15 17:21:00,
2013-02-15 12:22:00,15.5,9.6,30.05,NNW,328,7.0,14.0,77,0.00,,,0.00,VWS V14.01,2013-02-15 17:22:00,
2013-02-15 12:23:00,15.6,10.0,30.04,NNW,332,4.2,14.0,78,0.00,,,0.00,VWS V14.01,2013-02-15 17:23:00,
2013-02-15 12:24:00,15.7,10.1,30.04,NNE,18,7.0,14.0,78,0.00,,,0.00,VWS V14.01,2013-02-15 17:24:00,
2013-02-15 12:25:00,15.7,10.1,30.04,North,357,5.6,18.2,78,0.00,,,0.00,VWS V14.01,2013-02-15 17:25:00,
2013-02-15 12:26:00,15.1,8.9,30.05,NNW,339,15.4,21.0,76,0.00,,,0.00,VWS V14.01,2013-02-15 17:26:00,
2013-02-15 12:27:00,16.0,10.4,30.04,NNW,338,14.0,18.2,78,0.00,,,0.00,VWS V14.01,2013-02-15 17:27:00,
2013-02-15 12:28:00,16.3,10.4,30.04,NW,305,5.6,18.2,77,0.00,,,0.00,VWS V14.01,2013-02-15 17:28:00,
2013-02-15 12:29:00,16.5,10.6,30.04,West,272,9.8,18.2,77,0.00,,,0.00,VWS V14.01,2013-02-15 17:29:00,
2013-02-15 12:30:00,16.7,10.2,30.04,NW,316,11.2,18.2,75,0.00,,,0.00,VWS V14.01,2013-02-15 17:30:00,
2013-02-15 12:31:00,15.1,8.6,30.05,North,349,9.8,21.0,75,0.00,,,0.00,VWS V14.01,2013-02-15 17:31:00,
2013-02-15 12:32:00,17.0,10.5,30.04,NNW,348,9.8,18.2,75,0.00,,,0.00,VWS V14.01,2013-02-15 17:32:00,
2013-02-15 12:33:00,17.0,10.5,30.04,North,357,12.6,18.2,75,0.00,,,0.00,VWS V14.01,2013-02-15 17:33:00,
2013-02-15 12:34:00,17.1,10.6,30.04,NNW,329,11.2,18.2,75,0.00,,,0.00,VWS V14.01,2013-02-15 17:34:00,
2013-02-15 12:35:00,17.2,10.6,30.04,NNW,335,12.6,18.2,75,0.00,,,0.00,VWS V14.01,2013-02-15 17:35:00,
2013-02-15 12:36:00,15.3,9.1,30.05,NNW,347,5.6,21.0,76,0.00,,,0.00,VWS V14.01,2013-02-15 17:36:00,
2013-02-15 12:37:00,17.1,10.6,30.04,NNW,348,16.8,18.2,75,0.00,,,0.00,VWS V14.01,2013-02-15 17:37:00,
2013-02-15 12:38:00,17.0,10.5,30.04,North,351,8.4,18.2,75,0.00,,,0.00,VWS V14.01,2013-02-15 17:38:00,
2013-02-15 12:39:00,16.8,10.3,30.04,NW,323,11.2,18.2,75,0.00,,,0.00,VWS V14.01,2013-02-15 17:39:00,
2013-02-15 12:40:00,16.8,10.6,30.04,NNW,342,9.8,18.2,76,0.00,,,0.00,VWS V14.01,2013-02-15 17:40:00,
2013-02-15 12:41:00,15.4,9.2,30.05,NNW,345,4.2,14.0,76,0.00,,,0.00,VWS V14.01,2013-02-15 17:41:00,
2013-02-15 12:42:00,16.6,10.4,30.04,NNW,338,7.0,18.2,76,0.00,,,0.00,VWS V14.01,2013-02-15 17:42:00,
2013-02-15 12:43:00,16.7,10.5,30.04,North,354,8.4,18.2,76,0.00,,,0.00,VWS V14.01,2013-02-15 17:43:00,
2013-02-15 12:44:00,16.7,10.5,30.04,NNE,12,12.6,18.2,76,0.00,,,0.00,VWS V14.01,2013-02-15 17:44:00,
2013-02-15 12:45:00,16.6,10.7,30.04,NW,308,7.0,18.2,77,0.00,,,0.00,VWS V14.01,2013-02-15 17:45:00,
2013-02-15 12:46:00,15.4,9.2,30.05,NNW,335,11.2,14.0,76,0.00,,,0.00,VWS V14.01,2013-02-15 17:46:00,
2013-02-15 12:47:00,16.8,10.9,30.04,North,355,9.8,18.2,77,0.00,,,0.00,VWS V14.01,2013-02-15 17:47:00,
2013-02-15 12:48:00,16.9,10.9,30.04,NW,322,12.6,18.2,77,0.00,,,0.00,VWS V14.01,2013-02-15 17:48:00,
2013-02-15 12:49:00,17.0,11.1,30.04,North,356,8.4,18.2,77,0.00,,,0.00,VWS V14.01,2013-02-15 17:49:00,
2013-02-15 12:50:00,17.1,11.1,30.04,North,356,12.6,18.2,77,0.00,,,0.00,VWS V14.01,2013-02-15 17:50:00,
2013-02-15 12:51:00,15.8,9.6,30.05,NW,326,4.2,14.0,76,0.00,,,0.00,VWS V14.01,2013-02-15 17:51:00,
2013-02-15 12:52:00,17.1,10.6,30.04,North,4,12.6,18.2,75,0.00,,,0.00,VWS V14.01,2013-02-15 17:52:00,
2013-02-15 12:53:00,17.0,10.5,30.04,NW,321,11.2,18.2,75,0.00,,,0.00,VWS V14.01,2013-02-15 17:53:00,
2013-02-15 12:54:00,17.0,10.5,30.04,NNW,333,9.8,18.2,75,0.00,,,0.00,VWS V14.01,2013-02-15 17:54:00,
2013-02-15 12:55:00,17.0,10.5,30.04,NW,307,7.0,18.2,75,0.00,,,0.00,VWS V14.01,2013-02-15 17:55:00,
2013-02-15 12:56:00,15.6,9.7,30.05,NNW,330,7.0,14.0,77,0.00,,,0.00,VWS V14.01,2013-02-15 17:56:00,
2013-02-15 12:57:00,17.0,10.5,30.04,North,4,12.6,18.2,75,0.00,,,0.00,VWS V14.01,2013-02-15 17:57:00,
2013-02-15 12:58:00,17.0,10.5,30.04,NW,322,9.8,18.2,75,0.00,,,0.00,VWS V14.01,2013-02-15 17:58:00,
2013-02-15 12:59:00,17.0,10.5,30.04,NNE,26,9.8,18.2,75,0.00,,,0.00,VWS V14.01,2013-02-15 17:59:00,
2013-02-15 13:00:00,17.2,10.6,30.04,SSW,193,7.0,18.2,75,0.00,,,0.00,VWS V14.01,2013-02-15 18:00:00,
2013-02-15 13:01:00,15.7,10.1,30.04,North,6,11.2,18.2,78,0.00,,,0.00,VWS V14.01,2013-02-15 18:01:00,
2013-02-15 13:02:00,17.3,10.8,30.04,NNW,343,14.0,18.2,75,0.00,,,0.00,VWS V14.01,2013-02-15 18:02:00,
2013-02-15 13:03:00,17.3,10.4,30.04,NNW,331,8.4,18.2,74,0.00,,,0.00,VWS V14.01,2013-02-15 18:03:00,
2013-02-15 13:04:00,17.2,10.4,30.04,NNE,18,11.2,18.2,74,0.00,,,0.00,VWS V14.01,2013-02-15 18:04:00,
2013-02-15 13:05:00,17.1,10.3,30.04,NNW,335,5.6,18.2,74,0.00,,,0.00,VWS V14.01,2013-02-15 18:05:00,
2013-02-15 13:06:00,16.6,10.1,30.04,NW,321,11.2,18.2,75,0.00,,,0.00,VWS V14.01,2013-02-15 18:06:00,
2013-02-15 13:07:00,17.3,10.4,30.04,NNW,347,12.6,18.2,74,0.00,,,0.00,VWS V14.01,2013-02-15 18:07:00,
2013-02-15 13:08:00,17.2,10.6,30.04,NNW,345,9.8,19.6,75,0.00,,,0.00,VWS V14.01,2013-02-15 18:08:00,
2013-02-15 13:09:00,17.1,10.6,30.04,North,351,12.6,19.6,75,0.00,,,0.00,VWS V14.01,2013-02-15 18:09:00,
2013-02-15 13:10:00,17.1,10.6,30.04,NNW,340,8.4,19.6,75,0.00,,,0.00,VWS V14.01,2013-02-15 18:10:00,
2013-02-15 13:11:00,17.2,10.6,30.04,North,350,8.4,18.2,75,0.00,,,0.00,VWS V14.01,2013-02-15 18:11:00,
2013-02-15 13:12:00,16.9,10.4,30.04,NNW,328,5.6,19.6,75,0.00,,,0.00,VWS V14.01,2013-02-15 18:12:00,
2013-02-15 13:13:00,16.9,10.4,30.04,NNW,332,7.0,19.6,75,0.00,,,0.00,VWS V14.01,2013-02-15 18:13:00,
2013-02-15 13:14:00,17.0,10.8,30.04,NNW,341,11.2,19.6,76,0.00,,,0.00,VWS V14.01,2013-02-15 18:14:00,
2013-02-15 13:15:00,17.0,10.5,30.04,North,6,8.4,19.6,75,0.00,,,0.00,VWS V14.01,2013-02-15 18:15:00,
2013-02-15 13:16:00,16.8,10.6,30.04,North,358,12.6,18.2,76,0.00,,,0.00,VWS V14.01,2013-02-15 18:16:00,
2013-02-15 13:17:00,17.2,10.6,30.04,NW,326,12.6,19.6,75,0.00,,,0.00,VWS V14.01,2013-02-15 18:17:00,
2013-02-15 13:18:00,17.2,10.4,30.04,NNE,26,14.0,19.6,74,0.00,,,0.00,VWS V14.01,2013-02-15 18:18:00,
2013-02-15 13:19:00,17.2,10.4,30.04,WNW,295,11.2,19.6,74,0.00,,,0.00,VWS V14.01,2013-02-15 18:19:00,
2013-02-15 13:20:00,17.2,10.4,30.04,WNW,295,11.2,19.6,74,0.00,,,0.00,VWS V14.01,2013-02-15 18:20:00,
2013-02-15 13:21:00,16.6,10.7,30.04,NNW,345,5.6,18.2,77,0.00,,,0.00,VWS V14.01,2013-02-15 18:21:00,
2013-02-15 13:22:00,17.3,10.8,30.04,NNE,23,11.2,19.6,75,0.00,,,0.00,VWS V14.01,2013-02-15 18:22:00,
2013-02-15 13:23:00,17.3,10.8,30.04,NW,312,8.4,19.6,75,0.00,,,0.00,VWS V14.01,2013-02-15 18:23:00,
2013-02-15 13:24:00,17.3,10.8,30.04,NNW,347,12.6,19.6,75,0.00,,,0.00,VWS V14.01,2013-02-15 18:24:00,
2013-02-15 13:25:00,17.2,10.6,30.04,NNW,348,18.2,19.6,75,0.00,,,0.00,VWS V14.01,2013-02-15 18:25:00,
2013-02-15 13:26:00,17.1,11.1,30.04,NNW,336,11.2,18.2,77,0.00,,,0.00,VWS V14.01,2013-02-15 18:26:00,
2013-02-15 13:27:00,17.0,10.2,30.04,NW,314,0.0,19.6,74,0.00,,,0.00,VWS V14.01,2013-02-15 18:27:00,
2013-02-15 13:28:00,16.9,10.4,30.04,NW,319,0.0,19.6,75,0.00,,,0.00,VWS V14.01,2013-02-15 18:28:00,
2013-02-15 13:29:00,17.0,10.5,30.04,WNW,297,0.0,19.6,75,0.00,,,0.00,VWS V14.01,2013-02-15 18:29:00,
2013-02-15 13:30:00,17.0,10.5,30.04,NNE,32,0.0,19.6,75,0.00,,,0.00,VWS V14.01,2013-02-15 18:30:00,
2013-02-15 13:31:00,17.0,10.5,30.04,NNW,348,11.2,18.2,75,0.00,,,0.00,VWS V14.01,2013-02-15 18:31:00,
2013-02-15 13:32:00,17.0,10.2,30.04,NNW,339,0.0,19.6,74,0.00,,,0.00,VWS V14.01,2013-02-15 18:32:00,
2013-02-15 13:33:00,17.1,10.6,30.04,NNW,340,0.0,19.6,75,0.00,,,0.00,VWS V14.01,2013-02-15 18:33:00,
2013-02-15 13:34:00,17.1,10.6,30.04,North,357,0.0,19.6,75,0.00,,,0.00,VWS V14.01,2013-02-15 18:34:00,
2013-02-15 13:35:00,17.0,10.5,30.04,NNW,345,0.0,19.6,75,0.00,,,0.00,VWS V14.01,2013-02-15 18:35:00,
2013-02-15 13:36:00,17.1,10.6,30.04,WNW,301,8.4,18.2,75,0.00,,,0.00,VWS V14.01,2013-02-15 18:36:00,
2013-02-15 13:37:00,16.8,10.0,30.04,NNW,338,0.0,19.6,74,0.00,,,0.00,VWS V14.01,2013-02-15 18:37:00,
2013-02-15 13:38:00,16.8,10.3,30.04,North,351,0.0,19.6,75,0.00,,,0.00,VWS V14.01,2013-02-15 18:38:00,
2013-02-15 13:39:00,16.8,10.3,30.04,North,351,0.0,19.6,75,0.00,,,0.00,VWS V14.01,2013-02-15 18:39:00,
2013-02-15 13:40:00,16.8,10.3,30.04,NNW,330,0.0,19.6,75,0.00,,,0.00,VWS V14.01,2013-02-15 18:40:00,
2013-02-15 13:41:00,17.2,10.4,30.04,North,356,8.4,18.2,74,0.00,,,0.00,VWS V14.01,2013-02-15 18:41:00,
2013-02-15 13:42:00,16.8,10.3,30.04,North,11,0.0,19.6,75,0.00,,,0.00,VWS V14.01,2013-02-15 18:42:00,
2013-02-15 13:43:00,16.9,10.4,30.04,North,4,0.0,19.6,75,0.00,,,0.00,VWS V14.01,2013-02-15 18:43:00,
2013-02-15 13:44:00,16.9,10.4,30.04,NNW,345,0.0,19.6,75,0.00,,,0.00,VWS V14.01,2013-02-15 18:44:00,
2013-02-15 13:45:00,16.9,10.4,30.04,North,4,0.0,19.6,75,0.00,,,0.00,VWS V14.01,2013-02-15 18:45:00,
2013-02-15 13:46:00,17.1,10.6,30.04,NNW,348,9.8,19.6,75,0.00,,,0.00,VWS V14.01,2013-02-15 18:46:00,
2013-02-15 13:47:00,16.9,10.4,30.05,SE,128,0.0,19.6,75,0.00,,,0.00,VWS V14.01,2013-02-15 18:47:00,
2013-02-15 13:48:00,16.9,10.4,30.04,NW,321,0.0,19.6,75,0.00,,,0.00,VWS V14.01,2013-02-15 18:48:00,
2013-02-15 13:49:00,17.0,10.5,30.04,ENE,57,0.0,19.6,75,0.00,,,0.00,VWS V14.01,2013-02-15 18:49:00,
2013-02-15 13:50:00,17.0,10.8,30.04,NW,321,0.0,19.6,76,0.00,,,0.00,VWS V14.01,2013-02-15 18:50:00,
2013-02-15 13:51:00,17.0,10.8,30.04,NW,324,5.6,19.6,76,0.00,,,0.00,VWS V14.01,2013-02-15 18:51:00,
2013-02-15 13:52:00,17.1,10.9,30.04,North,5,0.0,19.6,76,0.00,,,0.00,VWS V14.01,2013-02-15 18:52:00,
2013-02-15 13:53:00,17.1,10.9,30.05,NW,315,0.0,19.6,76,0.00,,,0.00,VWS V14.01,2013-02-15 18:53:00,
2013-02-15 13:54:00,17.1,10.6,30.04,NNE,16,0.0,19.6,75,0.00,,,0.00,VWS V14.01,2013-02-15 18:54:00,
2013-02-15 13:55:00,17.0,10.5,30.04,NW,312,0.0,19.6,75,0.00,,,0.00,VWS V14.01,2013-02-15 18:55:00,
2013-02-15 13:56:00,17.2,10.4,30.04,NNW,340,14.0,19.6,74,0.00,,,0.00,VWS V14.01,2013-02-15 18:56:00,
2013-02-15 13:57:00,16.9,10.4,30.05,NNW,345,0.0,19.6,75,0.00,,,0.00,VWS V14.01,2013-02-15 18:57:00,
2013-02-15 13:58:00,16.9,10.4,30.04,NE,36,0.0,19.6,75,0.00,,,0.00,VWS V14.01,2013-02-15 18:58:00,
2013-02-15 13:59:00,16.8,10.3,30.04,NW,325,0.0,19.6,75,0.00,,,0.00,VWS V14.01,2013-02-15 18:59:00,
2013-02-15 14:00:00,16.8,10.3,30.04,NW,322,0.0,19.6,75,0.00,,,0.00,VWS V14.01,2013-02-15 19:00:00,
2013-02-15 14:01:00,17.2,10.6,30.04,NNE,29,8.4,19.6,75,0.00,,,0.00,VWS V14.01,2013-02-15 19:01:00,
2013-02-15 14:02:00,16.8,10.6,30.05,NNW,336,0.0,0.0,76,0.00,,,0.00,VWS V14.01,2013-02-15 19:02:00,
2013-02-15 14:03:00,16.8,10.6,30.04,NW,322,0.0,0.0,76,0.00,,,0.00,VWS V14.01,2013-02-15 19:03:00,
2013-02-15 14:04:00,16.8,10.6,30.04,SW,218,0.0,0.0,76,0.00,,,0.00,VWS V14.01,2013-02-15 19:04:00,
2013-02-15 14:05:00,16.9,10.7,30.04,WNW,287,0.0,0.0,76,0.00,,,0.00,VWS V14.01,2013-02-15 19:05:00,
2013-02-15 14:06:00,17.0,10.5,30.04,NNE,31,0.0,19.6,75,0.00,,,0.00,VWS V14.01,2013-02-15 19:06:00,
2013-02-15 14:07:00,16.9,10.7,30.04,NNW,341,0.0,0.0,76,0.00,,,0.00,VWS V14.01,2013-02-15 19:07:00,
2013-02-15 14:08:00,16.9,10.7,30.04,NNW,328,0.0,0.0,76,0.00,,,0.00,VWS V14.01,2013-02-15 19:08:00,
2013-02-15 14:09:00,16.9,10.7,30.04,NNW,339,0.0,0.0,76,0.00,,,0.00,VWS V14.01,2013-02-15 19:09:00,
2013-02-15 14:10:00,16.8,10.6,30.04,NNW,340,0.0,0.0,76,0.00,,,0.00,VWS V14.01,2013-02-15 19:10:00,
2013-02-15 14:11:00,17.1,10.6,30.04,North,360,0.0,19.6,75,0.00,,,0.00,VWS V14.01,2013-02-15 19:11:00,
2013-02-15 14:12:00,16.8,10.6,30.04,NW,325,0.0,0.0,76,0.00,,,0.00,VWS V14.01,2013-02-15 19:12:00,
2013-02-15 14:13:00,16.8,10.6,30.04,NNW,328,0.0,0.0,76,0.00,,,0.00,VWS V14.01,2013-02-15 19:13:00,
2013-02-15 14:14:00,16.7,10.2,30.04,NNW,343,0.0,0.0,75,0.00,,,0.00,VWS V14.01,2013-02-15 19:14:00,
2013-02-15 14:15:00,16.8,10.6,30.04,NNW,340,0.0,0.0,76,0.00,,,0.00,VWS V14.01,2013-02-15 19:15:00,
2013-02-15 14:16:00,16.8,10.3,30.04,NNW,333,0.0,19.6,75,0.00,,,0.00,VWS V14.01,2013-02-15 19:16:00,
2013-02-15 14:17:00,16.9,10.7,30.04,NNE,19,0.0,0.0,76,0.00,,,0.00,VWS V14.01,2013-02-15 19:17:00,
2013-02-15 14:18:00,17.1,10.9,30.04,NNW,329,0.0,0.0,76,0.00,,,0.00,VWS V14.01,2013-02-15 19:18:00,
2013-02-15 14:19:00,17.2,11.2,30.04,NNE,22,0.0,0.0,77,0.00,,,0.00,VWS V14.01,2013-02-15 19:19:00,
2013-02-15 14:20:00,17.3,11.3,30.04,NNW,335,0.0,0.0,77,0.00,,,0.00,VWS V14.01,2013-02-15 19:20:00,
2013-02-15 14:21:00,16.9,10.4,30.04,North,354,0.0,19.6,75,0.00,,,0.00,VWS V14.01,2013-02-15 19:21:00,
2013-02-15 14:22:00,17.3,11.1,30.04,North,8,0.0,0.0,76,0.00,,,0.00,VWS V14.01,2013-02-15 19:22:00,
2013-02-15 14:23:00,17.2,10.9,30.05,NNE,26,0.0,0.0,76,0.00,,,0.00,VWS V14.01,2013-02-15 19:23:00,
2013-02-15 14:24:00,17.1,10.9,30.04,NNW,348,0.0,0.0,76,0.00,,,0.00,VWS V14.01,2013-02-15 19:24:00,
2013-02-15 14:25:00,17.0,11.1,30.04,NW,321,0.0,0.0,77,0.00,,,0.00,VWS V14.01,2013-02-15 19:25:00,
2013-02-15 14:26:00,17.0,10.5,30.04,NNW,340,0.0,19.6,75,0.00,,,0.00,VWS V14.01,2013-02-15 19:26:00,
2013-02-15 14:27:00,16.9,10.7,30.04,NNW,341,0.0,0.0,76,0.00,,,0.00,VWS V14.01,2013-02-15 19:27:00,
2013-02-15 14:28:00,16.8,10.6,30.05,WNW,294,0.0,0.0,76,0.00,,,0.00,VWS V14.01,2013-02-15 19:28:00,
2013-02-15 14:29:00,16.8,10.6,30.05,NNW,341,0.0,0.0,76,0.00,,,0.00,VWS V14.01,2013-02-15 19:29:00,
2013-02-15 14:30:00,16.7,10.8,30.04,NNW,348,0.0,0.0,77,0.00,,,0.00,VWS V14.01,2013-02-15 19:30:00,
2013-02-15 14:31:00,17.1,10.6,30.04,NW,325,0.0,19.6,75,0.00,,,0.00,VWS V14.01,2013-02-15 19:31:00,
2013-02-15 14:32:00,16.7,10.8,30.04,NNW,335,0.0,0.0,77,0.00,,,0.00,VWS V14.01,2013-02-15 19:32:00,
2013-02-15 14:33:00,16.7,10.8,30.04,WNW,298,0.0,0.0,77,0.00,,,0.00,VWS V14.01,2013-02-15 19:33:00,
2013-02-15 14:34:00,16.6,10.7,30.04,North,357,0.0,0.0,77,0.00,,,0.00,VWS V14.01,2013-02-15 19:34:00,
2013-02-15 14:35:00,16.6,10.7,30.05,NNW,345,0.0,0.0,77,0.00,,,0.00,VWS V14.01,2013-02-15 19:35:00,
2013-02-15 14:36:00,16.8,10.3,30.04,North,354,0.0,19.6,75,0.00,,,0.00,VWS V14.01,2013-02-15 19:36:00,
2013-02-15 14:37:00,16.6,10.7,30.04,North,351,0.0,0.0,77,0.00,,,0.00,VWS V14.01,2013-02-15 19:37:00,
2013-02-15 14:38:00,16.6,10.7,30.05,NNW,333,0.0,0.0,77,0.00,,,0.00,VWS V14.01,2013-02-15 19:38:00,
2013-02-15 14:39:00,16.6,10.9,30.05,NW,321,0.0,0.0,78,0.00,,,0.00,VWS V14.01,2013-02-15 19:39:00,
2013-02-15 14:40:00,16.7,11.1,30.05,North,358,0.0,0.0,78,0.00,,,0.00,VWS V14.01,2013-02-15 19:40:00,
2013-02-15 14:41:00,16.9,10.7,30.04,NW,318,0.0,0.0,76,0.00,,,0.00,VWS V14.01,2013-02-15 19:41:00,
2013-02-15 14:42:00,16.7,10.8,30.05,NNW,342,0.0,0.0,77,0.00,,,0.00,VWS V14.01,2013-02-15 19:42:00,
2013-02-15 14:43:00,16.7,10.8,30.05,NW,326,0.0,0.0,77,0.00,,,0.00,VWS V14.01,2013-02-15 19:43:00,
2013-02-15 14:44:00,16.7,10.8,30.05,NW,321,0.0,0.0,77,0.00,,,0.00,VWS V14.01,2013-02-15 19:44:00,
2013-02-15 14:45:00,16.8,10.9,30.05,North,350,0.0,0.0,77,0.00,,,0.00,VWS V14.01,2013-02-15 19:45:00,
2013-02-15 14:46:00,16.8,10.6,30.04,NNW,329,0.0,0.0,76,0.00,,,0.00,VWS V14.01,2013-02-15 19:46:00,
2013-02-15 14:47:00,16.7,10.8,30.05,NNW,336,0.0,0.0,77,0.00,,,0.00,VWS V14.01,2013-02-15 19:47:00,
2013-02-15 14:48:00,16.7,10.8,30.05,NW,305,0.0,0.0,77,0.00,,,0.00,VWS V14.01,2013-02-15 19:48:00,
2013-02-15 14:49:00,16.7,10.8,30.05,NNW,344,0.0,0.0,77,0.00,,,0.00,VWS V14.01,2013-02-15 19:49:00,
2013-02-15 14:50:00,16.7,10.5,30.05,NNW,341,0.0,0.0,76,0.00,,,0.00,VWS V14.01,2013-02-15 19:50:00,
2013-02-15 14:51:00,16.8,10.6,30.04,NNW,335,0.0,0.0,76,0.00,,,0.00,VWS V14.01,2013-02-15 19:51:00,
2013-02-15 14:52:00,16.7,10.5,30.05,NNW,329,0.0,0.0,76,0.00,,,0.00,VWS V14.01,2013-02-15 19:52:00,
2013-02-15 14:53:00,16.7,10.5,30.05,SSW,205,0.0,0.0,76,0.00,,,0.00,VWS V14.01,2013-02-15 19:53:00,
2013-02-15 14:54:00,16.8,10.6,30.05,NNW,341,0.0,0.0,76,0.00,,,0.00,VWS V14.01,2013-02-15 19:54:00,
2013-02-15 14:55:00,16.8,10.6,30.05,NW,305,0.0,0.0,76,0.00,,,0.00,VWS V14.01,2013-02-15 19:55:00,
2013-02-15 14:56:00,17.3,11.3,30.04,NW,319,0.0,0.0,77,0.00,,,0.00,VWS V14.01,2013-02-15 19:56:00,
2013-02-15 14:57:00,16.9,10.4,30.05,NW,319,0.0,0.0,75,0.00,,,0.00,VWS V14.01,2013-02-15 19:57:00,
2013-02-15 14:58:00,17.0,10.8,30.05,North,6,0.0,0.0,76,0.00,,,0.00,VWS V14.01,2013-02-15 19:58:00,
2013-02-15 14:59:00,17.0,10.8,30.05,North,5,0.0,0.0,76,0.00,,,0.00,VWS V14.01,2013-02-15 19:59:00,
2013-02-15 15:00:00,17.0,10.5,30.05,NNW,330,0.0,0.0,75,0.00,,,0.00,VWS V14.01,2013-02-15 20:00:00,
2013-02-15 15:01:00,17.1,10.9,30.04,NNW,338,0.0,0.0,76,0.00,,,0.00,VWS V14.01,2013-02-15 20:01:00,
2013-02-15 15:02:00,17.0,10.5,30.05,NNW,345,0.0,8.4,75,0.00,,,0.00,VWS V14.01,2013-02-15 20:02:00,
2013-02-15 15:03:00,17.1,10.9,30.05,NNW,342,0.0,8.4,76,0.00,,,0.00,VWS V14.01,2013-02-15 20:03:00,
2013-02-15 15:04:00,17.1,10.9,30.05,NNE,13,0.0,8.4,76,0.00,,,0.00,VWS V14.01,2013-02-15 20:04:00,
2013-02-15 15:05:00,17.1,10.6,30.05,NNE,32,0.0,8.4,75,0.00,,,0.00,VWS V14.01,2013-02-15 20:05:00,
2013-02-15 15:06:00,16.8,10.9,30.04,North,353,0.0,0.0,77,0.00,,,0.00,VWS V14.01,2013-02-15 20:06:00,
2013-02-15 15:07:00,17.1,10.6,30.05,NW,321,0.0,16.8,75,0.00,,,0.00,VWS V14.01,2013-02-15 20:07:00,
2013-02-15 15:08:00,17.0,10.5,30.05,NNW,337,0.0,16.8,75,0.00,,,0.00,VWS V14.01,2013-02-15 20:08:00,
2013-02-15 15:09:00,17.0,10.5,30.05,NNW,345,0.0,16.8,75,0.00,,,0.00,VWS V14.01,2013-02-15 20:09:00,
2013-02-15 15:10:00,16.9,10.4,30.05,WNW,302,0.0,16.8,75,0.00,,,0.00,VWS V14.01,2013-02-15 20:10:00,
2013-02-15 15:11:00,16.6,10.7,30.05,NNW,343,0.0,0.0,77,0.00,,,0.00,VWS V14.01,2013-02-15 20:11:00,
2013-02-15 15:12:00,16.9,10.4,30.05,North,8,0.0,16.8,75,0.00,,,0.00,VWS V14.01,2013-02-15 20:12:00,
2013-02-15 15:13:00,16.9,10.4,30.05,NW,326,0.0,16.8,75,0.00,,,0.00,VWS V14.01,2013-02-15 20:13:00,
2013-02-15 15:14:00,16.8,10.3,30.05,North,352,0.0,16.8,75,0.00,,,0.00,VWS V14.01,2013-02-15 20:14:00,
2013-02-15 15:15:00,16.8,10.3,30.05,North,359,0.0,16.8,75,0.00,,,0.00,VWS V14.01,2013-02-15 20:15:00,
2013-02-15 15:16:00,16.7,11.1,30.05,NNW,345,0.0,0.0,78,0.00,,,0.00,VWS V14.01,2013-02-15 20:16:00,
2013-02-15 15:17:00,16.8,10.3,30.05,ENE,64,0.0,16.8,75,0.00,,,0.00,VWS V14.01,2013-02-15 20:17:00,
2013-02-15 15:18:00,16.9,10.7,30.05,WSW,248,0.0,23.8,76,0.00,,,0.00,VWS V14.01,2013-02-15 20:18:00,
2013-02-15 15:19:00,16.9,10.7,30.05,North,351,0.0,23.8,76,0.00,,,0.00,VWS V14.01,2013-02-15 20:19:00,
2013-02-15 15:20:00,17.0,10.5,30.05,NNW,347,0.0,23.8,75,0.00,,,0.00,VWS V14.01,2013-02-15 20:20:00,
2013-02-15 15:21:00,16.8,10.9,30.05,North,9,0.0,0.0,77,0.00,,,0.00,VWS V14.01,2013-02-15 20:21:00,
2013-02-15 15:22:00,17.1,10.9,30.05,North,360,0.0,23.8,76,0.00,,,0.00,VWS V14.01,2013-02-15 20:22:00,
2013-02-15 15:23:00,17.1,10.9,30.05,NW,306,0.0,23.8,76,0.00,,,0.00,VWS V14.01,2013-02-15 20:23:00,
2013-02-15 15:24:00,17.1,10.9,30.05,NNW,331,0.0,23.8,76,0.00,,,0.00,VWS V14.01,2013-02-15 20:24:00,
2013-02-15 15:25:00,17.1,10.9,30.05,NW,325,0.0,23.8,76,0.00,,,0.00,VWS V14.01,2013-02-15 20:25:00,
2013-02-15 15:26:00,16.7,10.5,30.05,NW,326,0.0,0.0,76,0.00,,,0.00,VWS V14.01,2013-02-15 20:26:00,
2013-02-15 15:27:00,17.2,10.9,30.05,NNW,339,1.4,23.8,76,0.00,,,0.00,VWS V14.01,2013-02-15 20:27:00,
2013-02-15 15:28:00,17.2,10.9,30.05,NW,325,2.8,23.8,76,0.00,,,0.00,VWS V14.01,2013-02-15 20:28:00,
2013-02-15 15:29:00,17.3,11.1,30.05,WNW,299,0.0,23.8,76,0.00,,,0.00,VWS V14.01,2013-02-15 20:29:00,
2013-02-15 15:30:00,17.3,11.1,30.05,North,4,0.0,23.8,76,0.00,,,0.00,VWS V14.01,2013-02-15 20:30:00,
2013-02-15 15:31:00,16.8,10.6,30.05,SW,225,0.0,0.0,76,0.00,,,0.00,VWS V14.01,2013-02-15 20:31:00,
2013-02-15 15:32:00,17.3,11.1,30.05,NW,319,11.2,23.8,76,0.00,,,0.00,VWS V14.01,2013-02-15 20:32:00,
2013-02-15 15:33:00,17.2,10.9,30.05,NNW,338,0.0,23.8,76,0.00,,,0.00,VWS V14.01,2013-02-15 20:33:00,
2013-02-15 15:34:00,17.2,10.9,30.05,NNW,328,0.0,23.8,76,0.00,,,0.00,VWS V14.01,2013-02-15 20:34:00,
2013-02-15 15:35:00,17.2,10.9,30.05,NW,318,0.0,23.8,76,0.00,,,0.00,VWS V14.01,2013-02-15 20:35:00,
2013-02-15 15:36:00,17.0,10.8,30.05,NNW,342,0.0,0.0,76,0.00,,,0.00,VWS V14.01,2013-02-15 20:36:00,
2013-02-15 15:37:00,17.2,11.2,30.06,NNW,347,0.0,23.8,77,0.00,,,0.00,VWS V14.01,2013-02-15 20:37:00,
2013-02-15 15:38:00,17.2,11.2,30.06,NNW,347,5.6,23.8,77,0.00,,,0.00,VWS V14.01,2013-02-15 20:38:00,
2013-02-15 15:39:00,17.2,11.2,30.05,NW,326,0.0,23.8,77,0.00,,,0.00,VWS V14.01,2013-02-15 20:39:00,
2013-02-15 15:40:00,17.2,11.2,30.06,North,351,0.0,23.8,77,0.00,,,0.00,VWS V14.01,2013-02-15 20:40:00,
2013-02-15 15:41:00,17.1,10.6,30.05,North,357,0.0,8.4,75,0.00,,,0.00,VWS V14.01,2013-02-15 20:41:00,
2013-02-15 15:42:00,17.1,11.1,30.06,NNW,340,0.0,23.8,77,0.00,,,0.00,VWS V14.01,2013-02-15 20:42:00,
2013-02-15 15:43:00,17.0,11.1,30.06,NW,315,0.0,23.8,77,0.00,,,0.00,VWS V14.01,2013-02-15 20:43:00,
2013-02-15 15:44:00,17.0,11.3,30.06,NW,315,0.0,23.8,78,0.00,,,0.00,VWS V14.01,2013-02-15 20:44:00,
2013-02-15 15:45:00,17.0,11.3,30.06,WNW,299,0.0,23.8,78,0.00,,,0.00,VWS V14.01,2013-02-15 20:45:00,
2013-02-15 15:46:00,16.9,10.4,30.05,NW,326,0.0,16.8,75,0.00,,,0.00,VWS V14.01,2013-02-15 20:46:00,
2013-02-15 15:47:00,16.9,11.5,30.06,NNW,340,0.0,23.8,79,0.00,,,0.00,VWS V14.01,2013-02-15 20:47:00,
2013-02-15 15:48:00,16.9,11.2,30.06,NNW,342,0.0,23.8,78,0.00,,,0.00,VWS V14.01,2013-02-15 20:48:00,
2013-02-15 15:49:00,16.8,11.1,30.06,NNW,341,0.0,23.8,78,0.00,,,0.00,VWS V14.01,2013-02-15 20:49:00,
2013-02-15 15:50:00,16.8,11.1,30.06,NW,322,0.0,23.8,78,0.00,,,0.00,VWS V14.01,2013-02-15 20:50:00,
2013-02-15 15:51:00,16.8,10.3,30.05,West,281,0.0,16.8,75,0.00,,,0.00,VWS V14.01,2013-02-15 20:51:00,
2013-02-15 15:52:00,16.7,11.3,30.06,NNW,335,0.0,23.8,79,0.00,,,0.00,VWS V14.01,2013-02-15 20:52:00,
2013-02-15 15:53:00,16.7,11.6,30.06,NNW,330,1.4,23.8,80,0.00,,,0.00,VWS V14.01,2013-02-15 20:53:00,
2013-02-15 15:54:00,16.7,11.6,30.06,NNW,328,0.0,23.8,80,0.00,,,0.00,VWS V14.01,2013-02-15 20:54:00,
2013-02-15 15:55:00,16.7,11.6,30.06,North,354,1.4,23.8,80,0.00,,,0.00,VWS V14.01,2013-02-15 20:55:00,
2013-02-15 15:56:00,17.0,10.5,30.05,North,6,0.0,23.8,75,0.00,,,0.00,VWS V14.01,2013-02-15 20:56:00,
2013-02-15 15:57:00,16.7,11.9,30.06,NNW,341,0.0,23.8,81,0.00,,,0.00,VWS V14.01,2013-02-15 20:57:00,
2013-02-15 15:58:00,16.7,11.9,30.06,NE,39,0.0,23.8,81,0.00,,,0.00,VWS V14.01,2013-02-15 20:58:00,
2013-02-15 15:59:00,16.7,11.9,30.06,NNW,333,0.0,23.8,81,0.00,,,0.00,VWS V14.01,2013-02-15 20:59:00,
2013-02-15 16:00:00,16.7,11.9,30.06,North,4,5.6,23.8,81,0.00,,,0.00,VWS V14.01,2013-02-15 21:00:00,
2013-02-15 16:01:00,17.1,10.9,30.05,NW,308,0.0,23.8,76,0.00,,,0.00,VWS V14.01,2013-02-15 21:01:00,
2013-02-15 16:02:00,16.7,12.2,30.06,NW,319,0.0,9.8,82,0.00,,,0.00,VWS V14.01,2013-02-15 21:02:00,
2013-02-15 16:03:00,16.7,12.2,30.06,NW,326,0.0,9.8,82,0.00,,,0.00,VWS V14.01,2013-02-15 21:03:00,
2013-02-15 16:04:00,16.7,12.2,30.06,NW,326,0.0,9.8,82,0.00,,,0.00,VWS V14.01,2013-02-15 21:04:00,
2013-02-15 16:05:00,16.7,12.2,30.06,NW,322,0.0,9.8,82,0.00,,,0.00,VWS V14.01,2013-02-15 21:05:00,
2013-02-15 16:06:00,17.3,11.1,30.05,NNE,15,0.0,23.8,76,0.00,,,0.00,VWS V14.01,2013-02-15 21:06:00,
2013-02-15 16:07:00,16.6,12.1,30.06,North,1,0.0,9.8,82,0.00,,,0.00,VWS V14.01,2013-02-15 21:07:00,
2013-02-15 16:08:00,16.6,12.1,30.06,NNW,345,0.0,9.8,82,0.00,,,0.00,VWS V14.01,2013-02-15 21:08:00,
2013-02-15 16:09:00,16.5,12.0,30.06,North,357,0.0,9.8,82,0.00,,,0.00,VWS V14.01,2013-02-15 21:09:00,
2013-02-15 16:10:00,16.4,11.9,30.06,North,349,0.0,9.8,82,0.00,,,0.00,VWS V14.01,2013-02-15 21:10:00,
2013-02-15 16:11:00,17.2,10.9,30.05,NNW,338,0.0,23.8,76,0.00,,,0.00,VWS V14.01,2013-02-15 21:11:00,
2013-02-15 16:12:00,16.3,11.8,30.06,North,351,4.2,9.8,82,0.00,,,0.00,VWS V14.01,2013-02-15 21:12:00,
2013-02-15 16:13:00,16.3,12.1,30.06,NNE,16,0.0,9.8,83,0.00,,,0.00,VWS V14.01,2013-02-15 21:13:00,
2013-02-15 16:14:00,16.2,12.0,30.06,NNW,332,0.0,9.8,83,0.00,,,0.00,VWS V14.01,2013-02-15 21:14:00,
2013-02-15 16:15:00,16.2,12.0,30.06,NNW,341,0.0,9.8,83,0.00,,,0.00,VWS V14.01,2013-02-15 21:15:00,
2013-02-15 16:16:00,17.2,11.2,30.06,NNE,18,0.0,23.8,77,0.00,,,0.00,VWS V14.01,2013-02-15 21:16:00,
2013-02-15 16:17:00,16.2,12.0,30.06,North,352,0.0,9.8,83,0.00,,,0.00,VWS V14.01,2013-02-15 21:17:00,
2013-02-15 16:18:00,16.2,12.0,30.06,NW,311,0.0,9.8,83,0.00,,,0.00,VWS V14.01,2013-02-15 21:18:00,
2013-02-15 16:19:00,16.0,11.8,30.06,North,358,1.4,39.2,83,0.00,,,0.00,VWS V14.01,2013-02-15 21:19:00,
2013-02-15 16:20:00,16.0,11.8,30.06,NW,308,8.4,39.2,83,0.00,,,0.00,VWS V14.01,2013-02-15 21:20:00,
2013-02-15 16:21:00,17.0,11.3,30.06,North,359,0.0,23.8,78,0.00,,,0.00,VWS V14.01,2013-02-15 21:21:00,
2013-02-15 16:22:00,16.0,12.0,30.07,North,355,8.4,39.2,84,0.00,,,0.00,VWS V14.01,2013-02-15 21:22:00,
2013-02-15 16:23:00,15.9,11.7,30.06,NNW,345,9.8,39.2,83,0.00,,,0.00,VWS V14.01,2013-02-15 21:23:00,
2013-02-15 16:24:00,15.9,11.9,30.06,NNW,332,4.2,39.2,84,0.00,,,0.00,VWS V14.01,2013-02-15 21:24:00,
2013-02-15 16:25:00,15.9,11.9,30.07,NNW,332,7.0,39.2,84,0.00,,,0.00,VWS V14.01,2013-02-15 21:25:00,
2013-02-15 16:26:00,16.8,11.1,30.06,NW,311,9.8,23.8,78,0.00,,,0.00,VWS V14.01,2013-02-15 21:26:00,
2013-02-15 16:27:00,15.9,11.9,30.07,NW,326,0.0,39.2,84,0.00,,,0.00,VWS V14.01,2013-02-15 21:27:00,
2013-02-15 16:28:00,15.9,11.9,30.07,NNW,343,0.0,39.2,84,0.00,,,0.00,VWS V14.01,2013-02-15 21:28:00,
2013-02-15 16:29:00,15.9,11.9,30.07,NNW,338,5.6,39.2,84,0.00,,,0.00,VWS V14.01,2013-02-15 21:29:00,
2013-02-15 16:30:00,15.9,11.9,30.07,NNW,342,0.0,39.2,84,0.00,,,0.00,VWS V14.01,2013-02-15 21:30:00,
2013-02-15 16:31:00,16.7,11.6,30.06,North,8,0.0,23.8,80,0.00,,,0.00,VWS V14.01,2013-02-15 21:31:00,
2013-02-15 16:32:00,16.0,12.0,30.07,NNW,346,0.0,39.2,84,0.00,,,0.00,VWS V14.01,2013-02-15 21:32:00,
2013-02-15 16:33:00,16.0,12.3,30.07,NW,308,0.0,39.2,85,0.00,,,0.00,VWS V14.01,2013-02-15 21:33:00,
2013-02-15 16:34:00,16.0,12.3,30.07,NNW,347,0.0,39.2,85,0.00,,,0.00,VWS V14.01,2013-02-15 21:34:00,
2013-02-15 16:35:00,16.0,12.3,30.07,North,357,0.0,39.2,85,0.00,,,0.00,VWS V14.01,2013-02-15 21:35:00,
2013-02-15 16:36:00,16.7,11.9,30.06,NNW,346,0.0,23.8,81,0.00,,,0.00,VWS V14.01,2013-02-15 21:36:00,
2013-02-15 16:37:00,16.0,12.3,30.07,NW,315,0.0,39.2,85,0.00,,,0.00,VWS V14.01,2013-02-15 21:37:00,
2013-02-15 16:38:00,16.0,12.3,30.07,NW,322,0.0,39.2,85,0.00,,,0.00,VWS V14.01,2013-02-15 21:38:00,
2013-02-15 16:39:00,15.9,12.2,30.07,WSW,237,5.6,39.2,85,0.00,,,0.00,VWS V14.01,2013-02-15 21:39:00,
2013-02-15 16:40:00,15.9,12.2,30.07,NNW,347,7.0,39.2,85,0.00,,,0.00,VWS V14.01,2013-02-15 21:40:00,
2013-02-15 16:41:00,16.7,12.2,30.06,South,181,0.0,9.8,82,0.00,,,0.00,VWS V14.01,2013-02-15 21:41:00,
2013-02-15 16:42:00,15.9,12.2,30.07,NNW,332,2.8,39.2,85,0.00,,,0.00,VWS V14.01,2013-02-15 21:42:00,
2013-02-15 16:43:00,15.9,12.5,30.07,NNW,340,2.8,39.2,86,0.00,,,0.00,VWS V14.01,2013-02-15 21:43:00,
2013-02-15 16:44:00,15.9,12.5,30.07,North,349,2.8,39.2,86,0.00,,,0.00,VWS V14.01,2013-02-15 21:44:00,
2013-02-15 16:45:00,15.9,12.5,30.07,NNW,347,0.0,39.2,86,0.00,,,0.00,VWS V14.01,2013-02-15 21:45:00,
2013-02-15 16:46:00,16.4,11.9,30.06,NNW,328,0.0,9.8,82,0.00,,,0.00,VWS V14.01,2013-02-15 21:46:00,
2013-02-15 16:47:00,15.8,12.6,30.07,NNW,335,8.4,39.2,87,0.00,,,0.00,VWS V14.01,2013-02-15 21:47:00,
2013-02-15 16:48:00,15.8,12.4,30.07,NNW,332,5.6,39.2,86,0.00,,,0.00,VWS V14.01,2013-02-15 21:48:00,
2013-02-15 16:49:00,15.8,12.4,30.07,NNW,342,0.0,39.2,86,0.00,,,0.00,VWS V14.01,2013-02-15 21:49:00,
2013-02-15 16:50:00,15.7,12.3,30.07,NNW,342,0.0,39.2,86,0.00,,,0.00,VWS V14.01,2013-02-15 21:50:00,
2013-02-15 16:51:00,16.2,12.0,30.06,WNW,298,0.0,9.8,83,0.00,,,0.00,VWS V14.01,2013-02-15 21:51:00,
2013-02-15 16:52:00,15.7,12.5,30.07,NNW,342,0.0,39.2,87,0.00,,,0.00,VWS V14.01,2013-02-15 21:52:00,
2013-02-15 16:53:00,15.7,12.5,30.07,NW,318,0.0,39.2,87,0.00,,,0.00,VWS V14.01,2013-02-15 21:53:00,
2013-02-15 16:54:00,15.7,12.5,30.07,North,354,0.0,39.2,87,0.00,,,0.00,VWS V14.01,2013-02-15 21:54:00,
2013-02-15 16:55:00,15.7,12.5,30.07,NNW,332,0.0,39.2,87,0.00,,,0.00,VWS V14.01,2013-02-15 21:55:00,
2013-02-15 16:56:00,16.0,11.8,30.06,NNW,340,0.0,39.2,83,0.00,,,0.00,VWS V14.01,2013-02-15 21:56:00,
2013-02-15 16:57:00,15.7,12.5,30.08,WNW,302,0.0,39.2,87,0.00,,,0.00,VWS V14.01,2013-02-15 21:57:00,
2013-02-15 16:58:00,15.7,12.5,30.08,NNW,337,0.0,39.2,87,0.00,,,0.00,VWS V14.01,2013-02-15 21:58:00,
2013-02-15 16:59:00,15.8,12.6,30.08,NNW,345,4.2,39.2,87,0.00,,,0.00,VWS V14.01,2013-02-15 21:59:00,
2013-02-15 17:00:00,15.7,12.5,30.07,NW,316,0.0,39.2,87,0.00,,,0.00,VWS V14.01,2013-02-15 22:00:00,
2013-02-15 17:01:00,15.9,11.9,30.07,NNW,329,7.0,39.2,84,0.00,,,0.00,VWS V14.01,2013-02-15 22:01:00,
2013-02-15 17:02:00,15.6,12.4,30.08,NNW,335,0.0,39.2,87,0.00,,,0.00,VWS V14.01,2013-02-15 22:02:00,
2013-02-15 17:03:00,15.6,12.4,30.08,NW,321,0.0,39.2,87,0.00,,,0.00,VWS V14.01,2013-02-15 22:03:00,
2013-02-15 17:04:00,15.6,12.4,30.08,NW,322,0.0,39.2,87,0.00,,,0.00,VWS V14.01,2013-02-15 22:04:00,
2013-02-15 17:05:00,15.6,12.4,30.08,NW,323,0.0,39.2,87,0.00,,,0.00,VWS V14.01,2013-02-15 22:05:00,
2013-02-15 17:06:00,15.9,11.9,30.07,NNW,348,0.0,39.2,84,0.00,,,0.00,VWS V14.01,2013-02-15 22:06:00,
2013-02-15 17:07:00,15.5,12.3,30.08,NNW,342,0.0,39.2,87,0.00,,,0.00,VWS V14.01,2013-02-15 22:07:00,
2013-02-15 17:08:00,15.5,12.3,30.08,NNW,335,0.0,39.2,87,0.00,,,0.00,VWS V14.01,2013-02-15 22:08:00,
2013-02-15 17:09:00,15.4,12.2,30.08,NW,322,0.0,39.2,87,0.00,,,0.00,VWS V14.01,2013-02-15 22:09:00,
2013-02-15 17:10:00,15.4,12.2,30.08,NW,319,0.0,39.2,87,0.00,,,0.00,VWS V14.01,2013-02-15 22:10:00,
2013-02-15 17:11:00,16.0,12.3,30.07,North,352,0.0,39.2,85,0.00,,,0.00,VWS V14.01,2013-02-15 22:11:00,
2013-02-15 17:12:00,15.4,12.2,30.08,NW,319,0.0,39.2,87,0.00,,,0.00,VWS V14.01,2013-02-15 22:12:00,
2013-02-15 17:13:00,15.4,12.2,30.08,WNW,302,0.0,39.2,87,0.00,,,0.00,VWS V14.01,2013-02-15 22:13:00,
2013-02-15 17:14:00,15.4,12.2,30.08,NW,325,2.8,39.2,87,0.00,,,0.00,VWS V14.01,2013-02-15 22:14:00,
2013-02-15 17:15:00,15.4,12.2,30.08,NW,319,1.4,39.2,87,0.00,,,0.00,VWS V14.01,2013-02-15 22:15:00,
2013-02-15 17:16:00,15.9,12.2,30.07,NNW,335,7.0,39.2,85,0.00,,,0.00,VWS V14.01,2013-02-15 22:16:00,
2013-02-15 17:17:00,15.4,12.2,30.08,WNW,295,0.0,39.2,87,0.00,,,0.00,VWS V14.01,2013-02-15 22:17:00,
2013-02-15 17:18:00,15.3,12.1,30.08,NW,319,0.0,39.2,87,0.00,,,0.00,VWS V14.01,2013-02-15 22:18:00,
2013-02-15 17:19:00,15.3,12.1,30.08,NW,318,0.0,39.2,87,0.00,,,0.00,VWS V14.01,2013-02-15 22:19:00,
2013-02-15 17:20:00,15.3,12.1,30.08,NNW,338,0.0,39.2,87,0.00,,,0.00,VWS V14.01,2013-02-15 22:20:00,
2013-02-15 17:21:00,15.9,12.5,30.07,NNW,333,1.4,39.2,86,0.00,,,0.00,VWS V14.01,2013-02-15 22:21:00,
2013-02-15 17:22:00,15.2,12.0,30.08,WNW,283,1.4,39.2,87,0.00,,,0.00,VWS V14.01,2013-02-15 22:22:00,
2013-02-15 17:23:00,15.2,12.0,30.08,West,273,2.8,39.2,87,0.00,,,0.00,VWS V14.01,2013-02-15 22:23:00,
2013-02-15 17:24:00,15.2,12.0,30.08,NW,322,2.8,39.2,87,0.00,,,0.00,VWS V14.01,2013-02-15 22:24:00,
2013-02-15 17:25:00,15.2,12.0,30.08,NW,319,1.4,39.2,87,0.00,,,0.00,VWS V14.01,2013-02-15 22:25:00,
2013-02-15 17:26:00,15.7,12.3,30.07,NW,309,0.0,39.2,86,0.00,,,0.00,VWS V14.01,2013-02-15 22:26:00,
2013-02-15 17:27:00,15.2,12.0,30.08,NNW,335,2.8,39.2,87,0.00,,,0.00,VWS V14.01,2013-02-15 22:27:00,
2013-02-15 17:28:00,15.2,12.0,30.08,NW,321,1.4,39.2,87,0.00,,,0.00,VWS V14.01,2013-02-15 22:28:00,
2013-02-15 17:29:00,15.2,12.0,30.08,NW,322,1.4,39.2,87,0.00,,,0.00,VWS V14.01,2013-02-15 22:29:00,
2013-02-15 17:30:00,15.2,12.0,30.08,NW,316,1.4,39.2,87,0.00,,,0.00,VWS V14.01,2013-02-15 22:30:00,
2013-02-15 17:31:00,15.7,12.5,30.07,NNW,338,0.0,39.2,87,0.00,,,0.00,VWS V14.01,2013-02-15 22:31:00,
2013-02-15 17:32:00,15.2,12.0,30.08,NW,315,1.4,39.2,87,0.00,,,0.00,VWS V14.01,2013-02-15 22:32:00,
2013-02-15 17:33:00,15.2,11.8,30.08,West,278,0.0,39.2,86,0.00,,,0.00,VWS V14.01,2013-02-15 22:33:00,
2013-02-15 17:34:00,15.2,11.8,30.08,West,277,1.4,39.2,86,0.00,,,0.00,VWS V14.01,2013-02-15 22:34:00,
2013-02-15 17:35:00,15.2,11.8,30.08,NNW,342,0.0,39.2,86,0.00,,,0.00,VWS V14.01,2013-02-15 22:35:00,
2013-02-15 17:36:00,15.7,12.5,30.07,NNW,335,0.0,39.2,87,0.00,,,0.00,VWS V14.01,2013-02-15 22:36:00,
2013-02-15 17:37:00,15.3,11.9,30.08,NNW,340,4.2,39.2,86,0.00,,,0.00,VWS V14.01,2013-02-15 22:37:00,
2013-02-15 17:38:00,15.4,11.7,30.08,West,280,1.4,39.2,85,0.00,,,0.00,VWS V14.01,2013-02-15 22:38:00,
2013-02-15 17:39:00,15.4,11.4,30.08,West,276,1.4,39.2,84,0.00,,,0.00,VWS V14.01,2013-02-15 22:39:00,
2013-02-15 17:40:00,15.5,11.5,30.08,WNW,302,2.8,39.2,84,0.00,,,0.00,VWS V14.01,2013-02-15 22:40:00,
2013-02-15 17:41:00,15.6,12.4,30.08,NW,323,0.0,39.2,87,0.00,,,0.00,VWS V14.01,2013-02-15 22:41:00,
2013-02-15 17:42:00,15.5,11.3,30.08,WNW,300,7.0,39.2,83,0.00,,,0.00,VWS V14.01,2013-02-15 22:42:00,
2013-02-15 17:43:00,15.6,11.4,30.08,NW,319,8.4,39.2,83,0.00,,,0.00,VWS V14.01,2013-02-15 22:43:00,
2013-02-15 17:44:00,15.6,11.1,30.08,North,349,2.8,39.2,82,0.00,,,0.00,VWS V14.01,2013-02-15 22:44:00,
2013-02-15 17:45:00,15.7,11.2,30.08,North,9,4.2,39.2,82,0.00,,,0.00,VWS V14.01,2013-02-15 22:45:00,
2013-02-15 17:46:00,15.4,12.2,30.08,NW,319,0.0,39.2,87,0.00,,,0.00,VWS V14.01,2013-02-15 22:46:00,
2013-02-15 17:47:00,15.8,11.3,30.08,WNW,285,7.0,39.2,82,0.00,,,0.00,VWS V14.01,2013-02-15 22:47:00,
2013-02-15 17:48:00,15.8,11.0,30.08,NNW,332,4.2,39.2,81,0.00,,,0.00,VWS V14.01,2013-02-15 22:48:00,
2013-02-15 17:49:00,15.8,11.0,30.08,NNW,345,8.4,39.2,81,0.00,,,0.00,VWS V14.01,2013-02-15 22:49:00,
2013-02-15 17:50:00,15.8,10.7,30.08,NW,323,11.2,39.2,80,0.00,,,0.00,VWS V14.01,2013-02-15 22:50:00,
2013-02-15 17:51:00,15.4,12.2,30.08,NW,319,1.4,39.2,87,0.00,,,0.00,VWS V14.01,2013-02-15 22:51:00,
2013-02-15 17:52:00,15.8,10.7,30.08,NNW,330,5.6,39.2,80,0.00,,,0.00,VWS V14.01,2013-02-15 22:52:00,
2013-02-15 17:53:00,15.9,10.8,30.08,NNE,19,2.8,39.2,80,0.00,,,0.00,VWS V14.01,2013-02-15 22:53:00,
2013-02-15 17:54:00,15.9,10.8,30.08,NW,319,5.6,39.2,80,0.00,,,0.00,VWS V14.01,2013-02-15 22:54:00,
2013-02-15 17:55:00,15.9,10.8,30.08,NW,325,7.0,39.2,80,0.00,,,0.00,VWS V14.01,2013-02-15 22:55:00,
2013-02-15 17:56:00,15.3,12.1,30.08,NNW,338,0.0,39.2,87,0.00,,,0.00,VWS V14.01,2013-02-15 22:56:00,
2013-02-15 17:57:00,15.9,10.8,30.08,West,264,9.8,39.2,80,0.00,,,0.00,VWS V14.01,2013-02-15 22:57:00,
2013-02-15 17:58:00,16.0,10.9,30.08,West,276,1.4,39.2,80,0.00,,,0.00,VWS V14.01,2013-02-15 22:58:00,
2013-02-15 17:59:00,16.0,10.9,30.08,NNW,335,2.8,39.2,80,0.00,,,0.00,VWS V14.01,2013-02-15 22:59:00,
2013-02-15 18:00:00,16.0,10.9,30.08,NW,308,9.8,39.2,80,0.00,,,0.00,VWS V14.01,2013-02-15 23:00:00,
2013-02-15 18:01:00,15.3,12.1,30.08,NNW,333,4.2,39.2,87,0.00,,,0.00,VWS V14.01,2013-02-15 23:01:00,
2013-02-15 18:02:00,16.0,10.9,30.08,West,262,4.2,11.2,80,0.00,,,0.00,VWS V14.01,2013-02-15 23:02:00,
2013-02-15 18:03:00,16.0,10.9,30.08,NNW,340,4.2,11.2,80,0.00,,,0.00,VWS V14.01,2013-02-15 23:03:00,
2013-02-15 18:04:00,15.9,10.8,30.08,North,360,11.2,11.2,80,0.00,,,0.00,VWS V14.01,2013-02-15 23:04:00,
2013-02-15 18:05:00,15.9,10.8,30.08,NNW,330,14.0,15.4,80,0.00,,,0.00,VWS V14.01,2013-02-15 23:05:00,
2013-02-15 18:06:00,15.2,12.0,30.08,NW,319,1.4,39.2,87,0.00,,,0.00,VWS V14.01,2013-02-15 23:06:00,
2013-02-15 18:07:00,16.0,10.9,30.09,WNW,284,0.0,15.4,80,0.00,,,0.00,VWS V14.01,2013-02-15 23:07:00,
2013-02-15 18:08:00,16.0,10.9,30.09,West,270,0.0,15.4,80,0.00,,,0.00,VWS V14.01,2013-02-15 23:08:00,
2013-02-15 18:09:00,16.0,10.9,30.09,NNW,333,0.0,15.4,80,0.00,,,0.00,VWS V14.01,2013-02-15 23:09:00,
2013-02-15 18:10:00,16.0,10.9,30.09,North,352,0.0,15.4,80,0.00,,,0.00,VWS V14.01,2013-02-15 23:10:00,
2013-02-15 18:11:00,15.2,11.8,30.08,WNW,295,1.4,39.2,86,0.00,,,0.00,VWS V14.01,2013-02-15 23:11:00,
2013-02-15 18:12:00,16.0,10.9,30.09,West,277,0.0,15.4,80,0.00,,,0.00,VWS V14.01,2013-02-15 23:12:00,
2013-02-15 18:13:00,16.0,11.2,30.09,NW,308,0.0,15.4,81,0.00,,,0.00,VWS V14.01,2013-02-15 23:13:00,
2013-02-15 18:14:00,16.1,11.3,30.09,WNW,289,0.0,15.4,81,0.00,,,0.00,VWS V14.01,2013-02-15 23:14:00,
2013-02-15 18:15:00,16.0,11.2,30.09,NW,319,0.0,15.4,81,0.00,,,0.00,VWS V14.01,2013-02-15 23:15:00,
2013-02-15 18:16:00,15.4,11.4,30.08,NW,319,2.8,39.2,84,0.00,,,0.00,VWS V14.01,2013-02-15 23:16:00,
2013-02-15 18:17:00,16.0,11.2,30.09,South,169,0.0,15.4,81,0.00,,,0.00,VWS V14.01,2013-02-15 23:17:00,
2013-02-15 18:18:00,16.1,11.3,30.09,WNW,302,0.0,15.4,81,0.00,,,0.00,VWS V14.01,2013-02-15 23:18:00,
2013-02-15 18:19:00,16.1,11.3,30.09,West,274,0.0,15.4,81,0.00,,,0.00,VWS V14.01,2013-02-15 23:19:00,
2013-02-15 18:20:00,16.1,11.0,30.09,WNW,283,0.0,15.4,80,0.00,,,0.00,VWS V14.01,2013-02-15 23:20:00,
2013-02-15 18:21:00,15.6,11.1,30.08,NW,326,1.4,39.2,82,0.00,,,0.00,VWS V14.01,2013-02-15 23:21:00,
2013-02-15 18:22:00,16.1,11.0,30.09,NW,315,0.0,15.4,80,0.00,,,0.00,VWS V14.01,2013-02-15 23:22:00,
2013-02-15 18:23:00,16.1,11.0,30.09,West,281,0.0,15.4,80,0.00,,,0.00,VWS V14.01,2013-02-15 23:23:00,
2013-02-15 18:24:00,16.2,11.1,30.09,NNW,338,0.0,15.4,80,0.00,,,0.00,VWS V14.01,2013-02-15 23:24:00,
2013-02-15 18:25:00,16.2,11.1,30.09,NNW,343,0.0,15.4,80,0.00,,,0.00,VWS V14.01,2013-02-15 23:25:00,
2013-02-15 18:26:00,15.8,11.0,30.08,South,188,1.4,39.2,81,0.00,,,0.00,VWS V14.01,2013-02-15 23:26:00,
2013-02-15 18:27:00,16.2,11.1,30.09,North,1,0.0,15.4,80,0.00,,,0.00,VWS V14.01,2013-02-15 23:27:00,
2013-02-15 18:28:00,16.3,11.2,30.09,NNE,26,0.0,15.4,80,0.00,,,0.00,VWS V14.01,2013-02-15 23:28:00,
2013-02-15 18:29:00,16.2,10.8,30.09,NNW,344,0.0,15.4,79,0.00,,,0.00,VWS V14.01,2013-02-15 23:29:00,
2013-02-15 18:30:00,16.3,10.9,30.09,NW,308,0.0,15.4,79,0.00,,,0.00,VWS V14.01,2013-02-15 23:30:00,
2013-02-15 18:31:00,15.9,10.8,30.08,NNW,333,4.2,39.2,80,0.00,,,0.00,VWS V14.01,2013-02-15 23:31:00,
2013-02-15 18:32:00,16.3,10.9,30.09,West,281,0.0,15.4,79,0.00,,,0.00,VWS V14.01,2013-02-15 23:32:00,
2013-02-15 18:33:00,16.3,10.9,30.09,NNW,330,0.0,15.4,79,0.00,,,0.00,VWS V14.01,2013-02-15 23:33:00,
2013-02-15 18:34:00,16.4,10.8,30.09,NNW,333,0.0,15.4,78,0.00,,,0.00,VWS V14.01,2013-02-15 23:34:00,
2013-02-15 18:35:00,16.4,10.8,30.09,NNW,332,0.0,15.4,78,0.00,,,0.00,VWS V14.01,2013-02-15 23:35:00,
2013-02-15 18:36:00,16.0,10.9,30.08,NW,305,2.8,39.2,80,0.00,,,0.00,VWS V14.01,2013-02-15 23:36:00,
2013-02-15 18:37:00,16.4,10.8,30.09,NNW,336,0.0,15.4,78,0.00,,,0.00,VWS V14.01,2013-02-15 23:37:00,
2013-02-15 18:38:00,16.4,10.8,30.09,WNW,293,0.0,15.4,78,0.00,,,0.00,VWS V14.01,2013-02-15 23:38:00,
2013-02-15 18:39:00,16.4,10.8,30.09,NW,316,0.0,15.4,78,0.00,,,0.00,VWS V14.01,2013-02-15 23:39:00,
2013-02-15 18:40:00,16.5,10.6,30.09,SW,225,0.0,15.4,77,0.00,,,0.00,VWS V14.01,2013-02-15 23:40:00,
2013-02-15 18:41:00,16.0,10.9,30.08,NNW,347,4.2,15.4,80,0.00,,,0.00,VWS V14.01,2013-02-15 23:41:00,
2013-02-15 18:42:00,16.5,10.6,30.09,West,266,0.0,15.4,77,0.00,,,0.00,VWS V14.01,2013-02-15 23:42:00,
2013-02-15 18:43:00,16.6,10.7,30.09,NNE,22,0.0,15.4,77,0.00,,,0.00,VWS V14.01,2013-02-15 23:43:00,
2013-02-15 18:44:00,16.6,10.7,30.09,West,273,0.0,15.4,77,0.00,,,0.00,VWS V14.01,2013-02-15 23:44:00,
2013-02-15 18:45:00,16.6,10.7,30.09,WNW,289,0.0,15.4,77,0.00,,,0.00,VWS V14.01,2013-02-15 23:45:00,
2013-02-15 18:46:00,16.0,10.9,30.09,NNW,335,0.0,15.4,80,0.00,,,0.00,VWS V14.01,2013-02-15 23:46:00,
2013-02-15 18:47:00,16.5,10.6,30.09,West,281,0.0,16.8,77,0.00,,,0.00,VWS V14.01,2013-02-15 23:47:00,
2013-02-15 18:48:00,16.5,10.9,30.09,WSW,248,0.0,16.8,78,0.00,,,0.00,VWS V14.01,2013-02-15 23:48:00,
2013-02-15 18:49:00,16.5,10.9,30.09,NW,325,0.0,16.8,78,0.00,,,0.00,VWS V14.01,2013-02-15 23:49:00,
2013-02-15 18:50:00,16.5,10.9,30.09,West,269,0.0,16.8,78,0.00,,,0.00,VWS V14.01,2013-02-15 23:50:00,
2013-02-15 18:51:00,16.0,11.2,30.09,NNW,333,1.4,15.4,81,0.00,,,0.00,VWS V14.01,2013-02-15 23:51:00,
2013-02-15 18:52:00,16.5,10.9,30.09,NW,319,0.0,16.8,78,0.00,,,0.00,VWS V14.01,2013-02-15 23:52:00,
2013-02-15 18:53:00,16.4,10.8,30.09,WNW,294,0.0,16.8,78,0.00,,,0.00,VWS V14.01,2013-02-15 23:53:00,
2013-02-15 18:54:00,16.4,10.8,30.09,WNW,293,0.0,16.8,78,0.00,,,0.00,VWS V14.01,2013-02-15 23:54:00,
2013-02-15 18:55:00,16.4,10.8,30.09,NW,314,0.0,16.8,78,0.00,,,0.00,VWS V14.01,2013-02-15 23:55:00,
2013-02-15 18:56:00,16.1,11.3,30.09,WSW,256,0.0,15.4,81,0.00,,,0.00,VWS V14.01,2013-02-15 23:56:00,
2013-02-15 18:57:00,16.4,10.8,30.10,NNW,338,0.0,16.8,78,0.00,,,0.00,VWS V14.01,2013-02-15 23:57:00,
2013-02-15 18:58:00,16.4,11.0,30.10,NW,318,0.0,16.8,79,0.00,,,0.00,VWS V14.01,2013-02-15 23:58:00,
2013-02-15 18:59:00,16.4,11.0,30.10,WNW,285,0.0,16.8,79,0.00,,,0.00,VWS V14.01,2013-02-15 23:59:00,
2013-02-15 19:00:00,16.3,10.9,30.10,WNW,298,0.0,16.8,79,0.00,,,0.00,VWS V14.01,2013-02-16 00:00:00,
2013-02-15 19:01:00,16.2,11.1,30.09,NW,308,0.0,15.4,80,0.00,,,0.00,VWS V14.01,2013-02-16 00:01:00,
2013-02-15 19:02:00,16.3,11.2,30.10,NW,325,0.0,16.8,80,0.00,,,0.00,VWS V14.01,2013-02-16 00:02:00,
2013-02-15 19:03:00,16.2,11.1,30.10,WNW,296,0.0,16.8,80,0.00,,,0.00,VWS V14.01,2013-02-16 00:03:00,
2013-02-15 19:04:00,16.1,11.0,30.10,WNW,294,0.0,22.4,80,0.00,,,0.00,VWS V14.01,2013-02-16 00:04:00,
2013-02-15 19:05:00,16.1,11.3,30.10,WNW,301,0.0,22.4,81,0.00,,,0.00,VWS V14.01,2013-02-16 00:05:00,
2013-02-15 19:06:00,16.3,10.9,30.09,North,349,0.0,15.4,79,0.00,,,0.00,VWS V14.01,2013-02-16 00:06:00,
2013-02-15 19:07:00,15.9,11.4,30.09,West,281,0.0,22.4,82,0.00,,,0.00,VWS V14.01,2013-02-16 00:07:00,
2013-02-15 19:08:00,15.9,11.4,30.09,WSW,247,0.0,22.4,82,0.00,,,0.00,VWS V14.01,2013-02-16 00:08:00,
2013-02-15 19:09:00,15.8,11.6,30.09,West,278,0.0,22.4,83,0.00,,,0.00,VWS V14.01,2013-02-16 00:09:00,
2013-02-15 19:10:00,15.7,11.5,30.09,WNW,293,0.0,22.4,83,0.00,,,0.00,VWS V14.01,2013-02-16 00:10:00,
2013-02-15 19:11:00,16.4,10.8,30.09,NNW,335,0.0,15.4,78,0.00,,,0.00,VWS V14.01,2013-02-16 00:11:00,
2013-02-15 19:12:00,15.6,11.6,30.10,WNW,294,0.0,22.4,84,0.00,,,0.00,VWS V14.01,2013-02-16 00:12:00,
2013-02-15 19:13:00,15.6,11.6,30.10,West,276,0.0,22.4,84,0.00,,,0.00,VWS V14.01,2013-02-16 00:13:00,
2013-02-15 19:14:00,15.6,11.6,30.10,NW,314,0.0,22.4,84,0.00,,,0.00,VWS V14.01,2013-02-16 00:14:00,
2013-02-15 19:15:00,15.5,11.5,30.10,WSW,255,0.0,22.4,84,0.00,,,0.00,VWS V14.01,2013-02-16 00:15:00,
2013-02-15 19:16:00,16.5,10.6,30.09,NW,309,0.0,15.4,77,0.00,,,0.00,VWS V14.01,2013-02-16 00:16:00,
2013-02-15 19:17:00,15.5,11.5,30.10,WNW,302,0.0,22.4,84,0.00,,,0.00,VWS V14.01,2013-02-16 00:17:00,
2013-02-15 19:18:00,15.5,11.8,30.10,NW,305,0.0,22.4,85,0.00,,,0.00,VWS V14.01,2013-02-16 00:18:00,
2013-02-15 19:19:00,15.5,11.8,30.10,WNW,287,0.0,22.4,85,0.00,,,0.00,VWS V14.01,2013-02-16 00:19:00,
2013-02-15 19:20:00,15.5,11.8,30.10,NNW,344,0.0,22.4,85,0.00,,,0.00,VWS V14.01,2013-02-16 00:20:00,
2013-02-15 19:21:00,16.6,10.7,30.09,West,264,0.0,15.4,77,0.00,,,0.00,VWS V14.01,2013-02-16 00:21:00,
2013-02-15 19:22:00,15.4,11.7,30.10,WNW,288,0.0,22.4,85,0.00,,,0.00,VWS V14.01,2013-02-16 00:22:00,
2013-02-15 19:23:00,15.4,11.7,30.10,WNW,285,0.0,22.4,85,0.00,,,0.00,VWS V14.01,2013-02-16 00:23:00,
2013-02-15 19:24:00,15.4,12.0,30.10,West,273,0.0,22.4,86,0.00,,,0.00,VWS V14.01,2013-02-16 00:24:00,
2013-02-15 19:25:00,15.4,12.0,30.09,West,277,0.0,22.4,86,0.00,,,0.00,VWS V14.01,2013-02-16 00:25:00,
2013-02-15 19:26:00,16.5,10.9,30.09,NNW,340,0.0,16.8,78,0.00,,,0.00,VWS V14.01,2013-02-16 00:26:00,
2013-02-15 19:27:00,15.5,12.1,30.09,WNW,297,0.0,22.4,86,0.00,,,0.00,VWS V14.01,2013-02-16 00:27:00,
2013-02-15 19:28:00,15.4,12.0,30.09,WNW,290,0.0,22.4,86,0.00,,,0.00,VWS V14.01,2013-02-16 00:28:00,
2013-02-15 19:29:00,15.5,12.1,30.09,WNW,296,0.0,22.4,86,0.00,,,0.00,VWS V14.01,2013-02-16 00:29:00,
2013-02-15 19:30:00,15.4,12.2,30.09,WSW,253,0.0,22.4,87,0.00,,,0.00,VWS V14.01,2013-02-16 00:30:00,
2013-02-15 19:31:00,16.4,10.8,30.09,WSW,255,0.0,16.8,78,0.00,,,0.00,VWS V14.01,2013-02-16 00:31:00,
2013-02-15 19:32:00,15.5,12.3,30.09,WNW,289,0.0,22.4,87,0.00,,,0.00,VWS V14.01,2013-02-16 00:32:00,
2013-02-15 19:33:00,15.5,12.3,30.09,WNW,284,0.0,22.4,87,0.00,,,0.00,VWS V14.01,2013-02-16 00:33:00,
2013-02-15 19:34:00,15.5,12.3,30.09,West,273,0.0,22.4,87,0.00,,,0.00,VWS V14.01,2013-02-16 00:34:00,
2013-02-15 19:35:00,15.5,12.3,30.09,WNW,286,0.0,22.4,87,0.00,,,0.00,VWS V14.01,2013-02-16 00:35:00,
2013-02-15 19:36:00,16.4,11.0,30.10,NW,315,0.0,16.8,79,0.00,,,0.00,VWS V14.01,2013-02-16 00:36:00,
2013-02-15 19:37:00,15.5,12.6,30.09,West,260,0.0,33.6,88,0.00,,,0.00,VWS V14.01,2013-02-16 00:37:00,
2013-02-15 19:38:00,15.5,12.6,30.09,West,262,0.0,33.6,88,0.00,,,0.00,VWS V14.01,2013-02-16 00:38:00,
2013-02-15 19:39:00,15.5,12.6,30.09,WNW,291,0.0,33.6,88,0.00,,,0.00,VWS V14.01,2013-02-16 00:39:00,
2013-02-15 19:40:00,15.5,12.6,30.09,WNW,295,0.0,33.6,88,0.00,,,0.00,VWS V14.01,2013-02-16 00:40:00,
2013-02-15 19:41:00,16.1,11.3,30.10,West,262,0.0,22.4,81,0.00,,,0.00,VWS V14.01,2013-02-16 00:41:00,
2013-02-15 19:42:00,15.5,12.6,30.09,WSW,238,0.0,33.6,88,0.00,,,0.00,VWS V14.01,2013-02-16 00:42:00,
2013-02-15 19:43:00,15.5,12.6,30.09,West,266,0.0,33.6,88,0.00,,,0.00,VWS V14.01,2013-02-16 00:43:00,
2013-02-15 19:44:00,15.5,12.6,30.09,NW,312,0.0,33.6,88,0.00,,,0.00,VWS V14.01,2013-02-16 00:44:00,
2013-02-15 19:45:00,15.5,12.6,30.09,West,262,0.0,33.6,88,0.00,,,0.00,VWS V14.01,2013-02-16 00:45:00,
2013-02-15 19:46:00,15.8,11.6,30.09,West,281,0.0,22.4,83,0.00,,,0.00,VWS V14.01,2013-02-16 00:46:00,
2013-02-15 19:47:00,15.5,12.6,30.09,West,259,0.0,33.6,88,0.00,,,0.00,VWS V14.01,2013-02-16 00:47:00,
2013-02-15 19:48:00,15.5,12.6,30.09,WNW,295,0.0,33.6,88,0.00,,,0.00,VWS V14.01,2013-02-16 00:48:00,
2013-02-15 19:49:00,15.5,12.6,30.09,NNW,345,0.0,33.6,88,0.00,,,0.00,VWS V14.01,2013-02-16 00:49:00,
2013-02-15 19:50:00,15.5,12.6,30.09,SSW,208,0.0,33.6,88,0.00,,,0.00,VWS V14.01,2013-02-16 00:50:00,
2013-02-15 19:51:00,15.5,11.5,30.10,WNW,293,0.0,22.4,84,0.00,,,0.00,VWS V14.01,2013-02-16 00:51:00,
2013-02-15 19:52:00,15.5,12.3,30.09,West,278,0.0,33.6,87,0.00,,,0.00,VWS V14.01,2013-02-16 00:52:00,
2013-02-15 19:53:00,15.5,12.1,30.09,West,266,0.0,33.6,86,0.00,,,0.00,VWS V14.01,2013-02-16 00:53:00,
2013-02-15 19:54:00,15.5,12.1,30.09,West,262,0.0,33.6,86,0.00,,,0.00,VWS V14.01,2013-02-16 00:54:00,
2013-02-15 19:55:00,15.5,12.1,30.09,SW,236,0.0,33.6,86,0.00,,,0.00,VWS V14.01,2013-02-16 00:55:00,
2013-02-15 19:56:00,15.5,11.8,30.10,WNW,294,0.0,22.4,85,0.00,,,0.00,VWS V14.01,2013-02-16 00:56:00,
2013-02-15 19:57:00,15.5,11.8,30.09,West,264,0.0,33.6,85,0.00,,,0.00,VWS V14.01,2013-02-16 00:57:00,
2013-02-15 19:58:00,15.5,11.8,30.09,South,186,0.0,33.6,85,0.00,,,0.00,VWS V14.01,2013-02-16 00:58:00,
2013-02-15 19:59:00,15.5,11.8,30.09,West,270,0.0,33.6,85,0.00,,,0.00,VWS V14.01,2013-02-16 00:59:00,
2013-02-15 20:00:00,15.5,11.8,30.09,West,259,0.0,33.6,85,0.00,,,0.00,VWS V14.01,2013-02-16 01:00:00,
2013-02-15 20:01:00,15.4,12.0,30.09,WNW,295,0.0,22.4,86,0.00,,,0.00,VWS V14.01,2013-02-16 01:01:00,
2013-02-15 20:02:00,15.4,11.7,30.09,WNW,302,0.0,4.2,85,0.00,,,0.00,VWS V14.01,2013-02-16 01:02:00,
2013-02-15 20:03:00,15.4,11.7,30.09,NW,322,0.0,4.2,85,0.00,,,0.00,VWS V14.01,2013-02-16 01:03:00,
2013-02-15 20:04:00,15.4,11.7,30.09,NNW,332,0.0,4.2,85,0.00,,,0.00,VWS V14.01,2013-02-16 01:04:00,
2013-02-15 20:05:00,15.4,11.7,30.09,West,269,0.0,4.2,85,0.00,,,0.00,VWS V14.01,2013-02-16 01:05:00,
2013-02-15 20:06:00,15.5,12.3,30.09,WNW,293,0.0,22.4,87,0.00,,,0.00,VWS V14.01,2013-02-16 01:06:00,
2013-02-15 20:07:00,15.4,11.7,30.09,WNW,286,0.0,4.2,85,0.00,,,0.00,VWS V14.01,2013-02-16 01:07:00,
2013-02-15 20:08:00,15.3,11.6,30.09,WNW,299,0.0,7.0,85,0.00,,,0.00,VWS V14.01,2013-02-16 01:08:00,
2013-02-15 20:09:00,15.3,11.6,30.09,WNW,298,0.0,7.0,85,0.00,,,0.00,VWS V14.01,2013-02-16 01:09:00,
2013-02-15 20:10:00,15.3,11.6,30.09,WNW,286,0.0,7.0,85,0.00,,,0.00,VWS V14.01,2013-02-16 01:10:00,
2013-02-15 20:11:00,15.5,12.3,30.09,WSW,243,0.0,22.4,87,0.00,,,0.00,VWS V14.01,2013-02-16 01:11:00,
2013-02-15 20:12:00,15.3,11.3,30.09,WNW,284,0.0,7.0,84,0.00,,,0.00,VWS V14.01,2013-02-16 01:12:00,
2013-02-15 20:13:00,15.3,11.3,30.09,NW,322,0.0,7.0,84,0.00,,,0.00,VWS V14.01,2013-02-16 01:13:00,
2013-02-15 20:14:00,15.3,11.3,30.09,WSW,250,0.0,7.0,84,0.00,,,0.00,VWS V14.01,2013-02-16 01:14:00,
2013-02-15 20:15:00,15.2,11.2,30.09,WNW,298,0.0,7.0,84,0.00,,,0.00,VWS V14.01,2013-02-16 01:15:00,
2013-02-15 20:16:00,15.5,12.6,30.09,WNW,295,0.0,33.6,88,0.00,,,0.00,VWS V14.01,2013-02-16 01:16:00,
2013-02-15 20:17:00,15.2,11.0,30.09,WNW,293,0.0,7.0,83,0.00,,,0.00,VWS V14.01,2013-02-16 01:17:00,
2013-02-15 20:18:00,15.2,11.0,30.09,West,273,0.0,7.0,83,0.00,,,0.00,VWS V14.01,2013-02-16 01:18:00,
2013-02-15 20:19:00,15.2,11.0,30.09,West,263,0.0,7.0,83,0.00,,,0.00,VWS V14.01,2013-02-16 01:19:00,
2013-02-15 20:20:00,15.2,11.0,30.09,WSW,256,0.0,7.0,83,0.00,,,0.00,VWS V14.01,2013-02-16 01:20:00,
2013-02-15 20:21:00,15.5,12.6,30.09,WNW,283,0.0,33.6,88,0.00,,,0.00,VWS V14.01,2013-02-16 01:21:00,
2013-02-15 20:22:00,15.2,11.0,30.09,WNW,288,0.0,7.0,83,0.00,,,0.00,VWS V14.01,2013-02-16 01:22:00,
2013-02-15 20:23:00,15.2,10.7,30.09,West,276,0.0,7.0,82,0.00,,,0.00,VWS V14.01,2013-02-16 01:23:00,
2013-02-15 20:24:00,15.1,10.3,30.09,SW,229,0.0,7.0,81,0.00,,,0.00,VWS V14.01,2013-02-16 01:24:00,
2013-02-15 20:25:00,15.1,10.3,30.09,North,4,0.0,7.0,81,0.00,,,0.00,VWS V14.01,2013-02-16 01:25:00,
2013-02-15 20:26:00,15.5,12.6,30.09,West,274,0.0,33.6,88,0.00,,,0.00,VWS V14.01,2013-02-16 01:26:00,
2013-02-15 20:27:00,15.1,10.1,30.09,West,266,0.0,7.0,80,0.00,,,0.00,VWS V14.01,2013-02-16 01:27:00,
2013-02-15 20:28:00,15.1,9.8,30.09,NW,312,0.0,7.0,79,0.00,,,0.00,VWS V14.01,2013-02-16 01:28:00,
2013-02-15 20:29:00,15.1,9.8,30.09,West,281,0.0,7.0,79,0.00,,,0.00,VWS V14.01,2013-02-16 01:29:00,
2013-02-15 20:30:00,15.1,9.8,30.09,NE,41,0.0,7.0,79,0.00,,,0.00,VWS V14.01,2013-02-16 01:30:00,
2013-02-15 20:31:00,15.5,12.1,30.09,NW,315,0.0,33.6,86,0.00,,,0.00,VWS V14.01,2013-02-16 01:31:00,
2013-02-15 20:32:00,15.1,9.8,30.09,WNW,300,0.0,7.0,79,0.00,,,0.00,VWS V14.01,2013-02-16 01:32:00,
2013-02-15 20:33:00,15.0,9.7,30.09,West,281,0.0,7.0,79,0.00,,,0.00,VWS V14.01,2013-02-16 01:33:00,
2013-02-15 20:34:00,15.0,9.7,30.09,West,281,0.0,7.0,79,0.00,,,0.00,VWS V14.01,2013-02-16 01:34:00,
2013-02-15 20:35:00,15.0,9.7,30.09,SSW,210,0.0,8.4,79,0.00,,,0.00,VWS V14.01,2013-02-16 01:35:00,
2013-02-15 20:36:00,15.5,11.8,30.09,West,278,0.0,33.6,85,0.00,,,0.00,VWS V14.01,2013-02-16 01:36:00,
2013-02-15 20:37:00,14.9,9.6,30.09,West,276,0.0,8.4,79,0.00,,,0.00,VWS V14.01,2013-02-16 01:37:00,
2013-02-15 20:38:00,14.9,9.6,30.09,WNW,285,0.0,8.4,79,0.00,,,0.00,VWS V14.01,2013-02-16 01:38:00,
2013-02-15 20:39:00,14.9,9.6,30.09,WSW,249,0.0,8.4,79,0.00,,,0.00,VWS V14.01,2013-02-16 01:39:00,
2013-02-15 20:40:00,14.8,9.5,30.09,West,260,0.0,8.4,79,0.00,,,0.00,VWS V14.01,2013-02-16 01:40:00,
2013-02-15 20:41:00,15.4,11.7,30.09,West,281,0.0,4.2,85,0.00,,,0.00,VWS V14.01,2013-02-16 01:41:00,
2013-02-15 20:42:00,14.8,9.5,30.09,West,281,0.0,8.4,79,0.00,,,0.00,VWS V14.01,2013-02-16 01:42:00,
2013-02-15 20:43:00,14.7,9.7,30.09,WNW,293,16.8,16.8,80,0.00,,,0.00,VWS V14.01,2013-02-16 01:43:00,
2013-02-15 20:44:00,14.7,9.7,30.09,West,278,0.0,16.8,80,0.00,,,0.00,VWS V14.01,2013-02-16 01:44:00,
2013-02-15 20:45:00,14.7,9.7,30.09,NNE,27,4.2,16.8,80,0.00,,,0.00,VWS V14.01,2013-02-16 01:45:00,
2013-02-15 20:46:00,15.3,11.6,30.09,NW,318,0.0,7.0,85,0.00,,,0.00,VWS V14.01,2013-02-16 01:46:00,
2013-02-15 20:47:00,14.7,9.9,30.09,NE,39,0.0,19.6,81,0.00,,,0.00,VWS V14.01,2013-02-16 01:47:00,
2013-02-15 20:48:00,14.6,9.8,30.09,West,278,0.0,19.6,81,0.00,,,0.00,VWS V14.01,2013-02-16 01:48:00,
2013-02-15 20:49:00,14.6,9.8,30.09,WNW,288,0.0,19.6,81,0.00,,,0.00,VWS V14.01,2013-02-16 01:49:00,
2013-02-15 20:50:00,14.5,10.0,30.09,WSW,241,0.0,19.6,82,0.00,,,0.00,VWS V14.01,2013-02-16 01:50:00,
2013-02-15 20:51:00,15.3,11.3,30.09,WNW,293,0.0,7.0,84,0.00,,,0.00,VWS V14.01,2013-02-16 01:51:00,
2013-02-15 20:52:00,14.5,10.0,30.09,WSW,255,2.8,19.6,82,0.00,,,0.00,VWS V14.01,2013-02-16 01:52:00,
2013-02-15 20:53:00,14.5,10.0,30.09,WNW,285,8.4,19.6,82,0.00,,,0.00,VWS V14.01,2013-02-16 01:53:00,
2013-02-15 20:54:00,14.4,10.2,30.09,SSE,165,4.2,19.6,83,0.00,,,0.00,VWS V14.01,2013-02-16 01:54:00,
2013-02-15 20:55:00,14.4,10.2,30.09,NW,318,2.8,19.6,83,0.00,,,0.00,VWS V14.01,2013-02-16 01:55:00,
2013-02-15 20:56:00,15.2,11.0,30.09,West,264,0.0,7.0,83,0.00,,,0.00,VWS V14.01,2013-02-16 01:56:00,
2013-02-15 20:57:00,14.4,10.2,30.09,WNW,287,8.4,19.6,83,0.00,,,0.00,VWS V14.01,2013-02-16 01:57:00,
2013-02-15 20:58:00,14.4,10.2,30.09,NW,308,9.8,19.6,83,0.00,,,0.00,VWS V14.01,2013-02-16 01:58:00,
2013-02-15 20:59:00,14.4,10.2,30.09,West,264,7.0,19.6,83,0.00,,,0.00,VWS V14.01,2013-02-16 01:59:00,
2013-02-15 21:00:00,14.4,10.2,30.09,NW,321,7.0,19.6,83,0.00,,,0.00,VWS V14.01,2013-02-16 02:00:00,
2013-02-15 21:01:00,15.1,10.3,30.09,WSW,247,0.0,7.0,81,0.00,,,0.00,VWS V14.01,2013-02-16 02:01:00,
2013-02-15 21:02:00,14.4,10.2,30.09,WNW,295,5.6,19.6,83,0.00,,,0.00,VWS V14.01,2013-02-16 02:02:00,
2013-02-15 21:03:00,14.4,10.2,30.09,WSW,243,5.6,19.6,83,0.00,,,0.00,VWS V14.01,2013-02-16 02:03:00,
2013-02-15 21:04:00,14.3,10.1,30.09,West,271,2.8,19.6,83,0.00,,,0.00,VWS V14.01,2013-02-16 02:04:00,
2013-02-15 21:05:00,14.4,10.2,30.09,WNW,285,11.2,19.6,83,0.00,,,0.00,VWS V14.01,2013-02-16 02:05:00,
2013-02-15 21:06:00,15.1,9.8,30.09,NNW,345,0.0,7.0,79,0.00,,,0.00,VWS V14.01,2013-02-16 02:06:00,
2013-02-15 21:07:00,14.4,9.9,30.08,WSW,246,11.2,19.6,82,0.00,,,0.00,VWS V14.01,2013-02-16 02:07:00,
2013-02-15 21:08:00,14.4,9.9,30.09,West,273,2.8,19.6,82,0.00,,,0.00,VWS V14.01,2013-02-16 02:08:00,
2013-02-15 21:09:00,14.3,9.8,30.09,WNW,286,4.2,19.6,82,0.00,,,0.00,VWS V14.01,2013-02-16 02:09:00,
2013-02-15 21:10:00,14.3,9.8,30.09,West,267,4.2,19.6,82,0.00,,,0.00,VWS V14.01,2013-02-16 02:10:00,
2013-02-15 21:11:00,15.0,9.7,30.09,NE,53,0.0,8.4,79,0.00,,,0.00,VWS V14.01,2013-02-16 02:11:00,
2013-02-15 21:12:00,14.3,9.8,30.09,West,260,4.2,19.6,82,0.00,,,0.00,VWS V14.01,2013-02-16 02:12:00,
2013-02-15 21:13:00,14.3,9.8,30.09,SW,225,2.8,19.6,82,0.00,,,0.00,VWS V14.01,2013-02-16 02:13:00,
2013-02-15 21:14:00,14.3,9.8,30.09,West,270,4.2,19.6,82,0.00,,,0.00,VWS V14.01,2013-02-16 02:14:00,
2013-02-15 21:15:00,14.3,9.8,30.08,WSW,257,8.4,19.6,82,0.00,,,0.00,VWS V14.01,2013-02-16 02:15:00,
2013-02-15 21:16:00,14.9,9.6,30.09,WSW,255,0.0,8.4,79,0.00,,,0.00,VWS V14.01,2013-02-16 02:16:00,
2013-02-15 21:17:00,14.2,9.7,30.09,WNW,293,5.6,19.6,82,0.00,,,0.00,VWS V14.01,2013-02-16 02:17:00,
2013-02-15 21:18:00,14.2,9.7,30.08,NNW,337,4.2,19.6,82,0.00,,,0.00,VWS V14.01,2013-02-16 02:18:00,
2013-02-15 21:19:00,14.2,10.0,30.08,WNW,285,7.0,19.6,83,0.00,,,0.00,VWS V14.01,2013-02-16 02:19:00,
2013-02-15 21:20:00,14.2,10.0,30.08,NNW,330,2.8,19.6,83,0.00,,,0.00,VWS V14.01,2013-02-16 02:20:00,
2013-02-15 21:21:00,14.7,9.7,30.09,West,271,0.0,16.8,80,0.00,,,0.00,VWS V14.01,2013-02-16 02:21:00,
2013-02-15 21:22:00,14.2,10.0,30.08,West,278,2.8,19.6,83,0.00,,,0.00,VWS V14.01,2013-02-16 02:22:00,
2013-02-15 21:23:00,14.1,9.9,30.08,WNW,293,1.4,19.6,83,0.00,,,0.00,VWS V14.01,2013-02-16 02:23:00,
2013-02-15 21:24:00,14.1,9.9,30.08,WNW,301,7.0,19.6,83,0.00,,,0.00,VWS V14.01,2013-02-16 02:24:00,
2013-02-15 21:25:00,14.1,9.9,30.08,West,278,5.6,19.6,83,0.00,,,0.00,VWS V14.01,2013-02-16 02:25:00,
2013-02-15 21:26:00,14.6,10.1,30.09,WNW,293,0.0,19.6,82,0.00,,,0.00,VWS V14.01,2013-02-16 02:26:00,
2013-02-15 21:27:00,14.1,10.2,30.08,West,264,5.6,19.6,84,0.00,,,0.00,VWS V14.01,2013-02-16 02:27:00,
2013-02-15 21:28:00,14.0,10.1,30.08,NNW,327,2.8,19.6,84,0.00,,,0.00,VWS V14.01,2013-02-16 02:28:00,
2013-02-15 21:29:00,14.0,10.1,30.08,West,267,2.8,19.6,84,0.00,,,0.00,VWS V14.01,2013-02-16 02:29:00,
2013-02-15 21:30:00,14.0,10.1,30.08,WNW,301,1.4,19.6,84,0.00,,,0.00,VWS V14.01,2013-02-16 02:30:00,
2013-02-15 21:31:00,14.4,10.2,30.09,WNW,288,7.0,19.6,83,0.00,,,0.00,VWS V14.01,2013-02-16 02:31:00,
2013-02-15 21:32:00,13.9,10.0,30.08,NNW,346,9.8,19.6,84,0.00,,,0.00,VWS V14.01,2013-02-16 02:32:00,
2013-02-15 21:33:00,13.8,10.1,30.08,NNW,333,8.4,19.6,85,0.00,,,0.00,VWS V14.01,2013-02-16 02:33:00,
2013-02-15 21:34:00,13.8,10.1,30.09,North,352,7.0,19.6,85,0.00,,,0.00,VWS V14.01,2013-02-16 02:34:00,
2013-02-15 21:35:00,13.8,10.1,30.08,North,352,5.6,19.6,85,0.00,,,0.00,VWS V14.01,2013-02-16 02:35:00,
2013-02-15 21:36:00,14.4,10.2,30.09,WNW,285,5.6,19.6,83,0.00,,,0.00,VWS V14.01,2013-02-16 02:36:00,
2013-02-15 21:37:00,13.7,10.3,30.08,North,352,5.6,19.6,86,0.00,,,0.00,VWS V14.01,2013-02-16 02:37:00,
2013-02-15 21:38:00,13.7,10.3,30.08,NW,319,5.6,19.6,86,0.00,,,0.00,VWS V14.01,2013-02-16 02:38:00,
2013-02-15 21:39:00,13.6,10.2,30.08,NNW,335,5.6,19.6,86,0.00,,,0.00,VWS V14.01,2013-02-16 02:39:00,
2013-02-15 21:40:00,13.6,10.2,30.08,NNW,345,7.0,19.6,86,0.00,,,0.00,VWS V14.01,2013-02-16 02:40:00,
2013-02-15 21:41:00,14.4,10.2,30.09,West,279,14.0,19.6,83,0.00,,,0.00,VWS V14.01,2013-02-16 02:41:00,
2013-02-15 21:42:00,13.6,10.5,30.08,North,350,7.0,19.6,87,0.00,,,0.00,VWS V14.01,2013-02-16 02:42:00,
2013-02-15 21:43:00,13.6,10.5,30.08,North,352,4.2,19.6,87,0.00,,,0.00,VWS V14.01,2013-02-16 02:43:00,
2013-02-15 21:44:00,13.6,10.5,30.08,NW,308,2.8,19.6,87,0.00,,,0.00,VWS V14.01,2013-02-16 02:44:00,
2013-02-15 21:45:00,13.5,10.6,30.08,NNW,336,2.8,19.6,88,0.00,,,0.00,VWS V14.01,2013-02-16 02:45:00,
2013-02-15 21:46:00,14.3,9.8,30.09,NW,308,2.8,19.6,82,0.00,,,0.00,VWS V14.01,2013-02-16 02:46:00,
2013-02-15 21:47:00,13.5,10.6,30.08,NE,43,4.2,19.6,88,0.00,,,0.00,VWS V14.01,2013-02-16 02:47:00,
2013-02-15 21:48:00,13.4,10.5,30.08,ENE,68,1.4,19.6,88,0.00,,,0.00,VWS V14.01,2013-02-16 02:48:00,
2013-02-15 21:49:00,13.4,10.5,30.08,NNW,333,4.2,19.6,88,0.00,,,0.00,VWS V14.01,2013-02-16 02:49:00,
2013-02-15 21:50:00,13.4,10.5,30.08,NNW,328,1.4,19.6,88,0.00,,,0.00,VWS V14.01,2013-02-16 02:50:00,
2013-02-15 21:51:00,14.3,9.8,30.08,WNW,285,2.8,19.6,82,0.00,,,0.00,VWS V14.01,2013-02-16 02:51:00,
2013-02-15 21:52:00,13.4,10.5,30.08,NE,53,5.6,19.6,88,0.00,,,0.00,VWS V14.01,2013-02-16 02:52:00,
2013-02-15 21:53:00,13.4,10.5,30.08,NE,50,2.8,19.6,88,0.00,,,0.00,VWS V14.01,2013-02-16 02:53:00,
2013-02-15 21:54:00,13.4,10.5,30.08,ENE,63,5.6,19.6,88,0.00,,,0.00,VWS V14.01,2013-02-16 02:54:00,
2013-02-15 21:55:00,13.4,10.5,30.08,ENE,61,1.4,19.6,88,0.00,,,0.00,VWS V14.01,2013-02-16 02:55:00,
2013-02-15 21:56:00,14.2,10.0,30.08,WNW,293,5.6,19.6,83,0.00,,,0.00,VWS V14.01,2013-02-16 02:56:00,
2013-02-15 21:57:00,13.3,10.4,30.08,North,9,2.8,19.6,88,0.00,,,0.00,VWS V14.01,2013-02-16 02:57:00,
2013-02-15 21:58:00,13.4,10.5,30.08,North,355,1.4,19.6,88,0.00,,,0.00,VWS V14.01,2013-02-16 02:58:00,
2013-02-15 21:59:00,13.4,10.5,30.08,North,360,0.0,19.6,88,0.00,,,0.00,VWS V14.01,2013-02-16 02:59:00,
2013-02-15 22:00:00,13.3,10.4,30.08,North,360,0.0,19.6,88,0.00,,,0.00,VWS V14.01,2013-02-16 03:00:00,
2013-02-15 22:01:00,14.1,9.9,30.08,SW,229,4.2,19.6,83,0.00,,,0.00,VWS V14.01,2013-02-16 03:01:00,
2013-02-15 22:02:00,13.4,10.5,30.08,ENE,76,0.0,4.2,88,0.00,,,0.00,VWS V14.01,2013-02-16 03:02:00,
2013-02-15 22:03:00,13.4,10.5,30.08,NE,50,1.4,5.6,88,0.00,,,0.00,VWS V14.01,2013-02-16 03:03:00,
2013-02-15 22:04:00,13.4,10.5,30.08,ESE,105,2.8,5.6,88,0.00,,,0.00,VWS V14.01,2013-02-16 03:04:00,
2013-02-15 22:05:00,13.4,10.5,30.08,ESE,106,0.0,5.6,88,0.00,,,0.00,VWS V14.01,2013-02-16 03:05:00,
2013-02-15 22:06:00,14.0,10.1,30.08,West,276,4.2,19.6,84,0.00,,,0.00,VWS V14.01,2013-02-16 03:06:00,
2013-02-15 22:07:00,13.4,10.5,30.08,ESE,117,0.0,5.6,88,0.00,,,0.00,VWS V14.01,2013-02-16 03:07:00,
2013-02-15 22:08:00,13.4,10.5,30.08,ENE,66,2.8,5.6,88,0.00,,,0.00,VWS V14.01,2013-02-16 03:08:00,
2013-02-15 22:09:00,13.4,10.5,30.08,NE,53,1.4,5.6,88,0.00,,,0.00,VWS V14.01,2013-02-16 03:09:00,
2013-02-15 22:10:00,13.4,10.5,30.08,East,81,2.8,5.6,88,0.00,,,0.00,VWS V14.01,2013-02-16 03:10:00,
2013-02-15 22:11:00,13.8,10.1,30.08,NNW,330,4.2,19.6,85,0.00,,,0.00,VWS V14.01,2013-02-16 03:11:00,
2013-02-15 22:12:00,13.4,10.5,30.08,East,79,0.0,5.6,88,0.00,,,0.00,VWS V14.01,2013-02-16 03:12:00,
2013-02-15 22:13:00,13.4,10.5,30.08,East,98,2.8,5.6,88,0.00,,,0.00,VWS V14.01,2013-02-16 03:13:00,
2013-02-15 22:14:00,13.4,10.5,30.08,ENE,67,2.8,5.6,88,0.00,,,0.00,VWS V14.01,2013-02-16 03:14:00,
2013-02-15 22:15:00,13.4,10.5,30.08,ESE,110,1.4,5.6,88,0.00,,,0.00,VWS V14.01,2013-02-16 03:15:00,
2013-02-15 22:16:00,13.6,10.2,30.08,NNW,328,5.6,19.6,86,0.00,,,0.00,VWS V14.01,2013-02-16 03:16:00,
2013-02-15 22:17:00,13.3,10.4,30.08,ENE,68,1.4,5.6,88,0.00,,,0.00,VWS V14.01,2013-02-16 03:17:00,
2013-02-15 22:18:00,13.3,10.4,30.08,East,98,1.4,5.6,88,0.00,,,0.00,VWS V14.01,2013-02-16 03:18:00,
2013-02-15 22:19:00,13.3,10.4,30.08,ENE,63,1.4,5.6,88,0.00,,,0.00,VWS V14.01,2013-02-16 03:19:00,
2013-02-15 22:20:00,13.2,10.3,30.08,East,84,0.0,5.6,88,0.00,,,0.00,VWS V14.01,2013-02-16 03:20:00,
2013-02-15 22:21:00,13.5,10.4,30.08,WNW,300,1.4,19.6,87,0.00,,,0.00,VWS V14.01,2013-02-16 03:21:00,
2013-02-15 22:22:00,13.2,10.3,30.08,East,86,1.4,5.6,88,0.00,,,0.00,VWS V14.01,2013-02-16 03:22:00,
2013-02-15 22:23:00,13.2,10.3,30.08,East,86,2.8,5.6,88,0.00,,,0.00,VWS V14.01,2013-02-16 03:23:00,
2013-02-15 22:24:00,13.2,10.6,30.08,ENE,58,1.4,5.6,89,0.00,,,0.00,VWS V14.01,2013-02-16 03:24:00,
2013-02-15 22:25:00,13.2,10.6,30.08,East,96,0.0,5.6,89,0.00,,,0.00,VWS V14.01,2013-02-16 03:25:00,
2013-02-15 22:26:00,13.4,10.5,30.08,NNE,30,8.4,19.6,88,0.00,,,0.00,VWS V14.01,2013-02-16 03:26:00,
2013-02-15 22:27:00,13.1,10.2,30.08,East,89,1.4,5.6,88,0.00,,,0.00,VWS V14.01,2013-02-16 03:27:00,
2013-02-15 22:28:00,13.1,10.2,30.08,East,83,2.8,5.6,88,0.00,,,0.00,VWS V14.01,2013-02-16 03:28:00,
2013-02-15 22:29:00,13.1,10.2,30.08,ENE,71,1.4,5.6,88,0.00,,,0.00,VWS V14.01,2013-02-16 03:29:00,
2013-02-15 22:30:00,13.0,10.1,30.08,ENE,60,1.4,5.6,88,0.00,,,0.00,VWS V14.01,2013-02-16 03:30:00,
2013-02-15 22:31:00,13.4,10.5,30.08,NE,53,4.2,19.6,88,0.00,,,0.00,VWS V14.01,2013-02-16 03:31:00,
2013-02-15 22:32:00,12.9,10.0,30.08,NNE,33,1.4,5.6,88,0.00,,,0.00,VWS V14.01,2013-02-16 03:32:00,
2013-02-15 22:33:00,12.9,10.0,30.08,NNE,33,0.0,5.6,88,0.00,,,0.00,VWS V14.01,2013-02-16 03:33:00,
2013-02-15 22:34:00,12.8,9.9,30.08,NE,34,0.0,5.6,88,0.00,,,0.00,VWS V14.01,2013-02-16 03:34:00,
2013-02-15 22:35:00,12.8,9.9,30.08,ENE,63,1.4,5.6,88,0.00,,,0.00,VWS V14.01,2013-02-16 03:35:00,
2013-02-15 22:36:00,13.3,10.4,30.08,North,360,0.0,19.6,88,0.00,,,0.00,VWS V14.01,2013-02-16 03:36:00,
2013-02-15 22:37:00,12.7,9.8,30.08,ENE,76,0.0,5.6,88,0.00,,,0.00,VWS V14.01,2013-02-16 03:37:00,
2013-02-15 22:38:00,12.7,9.8,30.08,East,88,0.0,5.6,88,0.00,,,0.00,VWS V14.01,2013-02-16 03:38:00,
2013-02-15 22:39:00,12.7,9.8,30.08,East,98,0.0,5.6,88,0.00,,,0.00,VWS V14.01,2013-02-16 03:39:00,
2013-02-15 22:40:00,12.6,9.7,30.08,East,94,0.0,5.6,88,0.00,,,0.00,VWS V14.01,2013-02-16 03:40:00,
2013-02-15 22:41:00,13.4,10.5,30.08,ESE,105,0.0,5.6,88,0.00,,,0.00,VWS V14.01,2013-02-16 03:41:00,
2013-02-15 22:42:00,12.5,9.6,30.08,ESE,111,0.0,5.6,88,0.00,,,0.00,VWS V14.01,2013-02-16 03:42:00,
2013-02-15 22:43:00,12.5,9.6,30.08,ESE,111,0.0,5.6,88,0.00,,,0.00,VWS V14.01,2013-02-16 03:43:00,
2013-02-15 22:44:00,12.5,9.6,30.09,ESE,111,0.0,5.6,88,0.00,,,0.00,VWS V14.01,2013-02-16 03:44:00,
2013-02-15 22:45:00,12.5,9.6,30.09,ESE,112,0.0,5.6,88,0.00,,,0.00,VWS V14.01,2013-02-16 03:45:00,
2013-02-15 22:46:00,13.4,10.5,30.08,East,96,4.2,5.6,88,0.00,,,0.00,VWS V14.01,2013-02-16 03:46:00,
2013-02-15 22:47:00,12.4,9.5,30.09,ESE,107,0.0,5.6,88,0.00,,,0.00,VWS V14.01,2013-02-16 03:47:00,
2013-02-15 22:48:00,12.4,9.5,30.09,ESE,107,0.0,5.6,88,0.00,,,0.00,VWS V14.01,2013-02-16 03:48:00,
2013-02-15 22:49:00,12.3,9.4,30.08,ESE,103,0.0,5.6,88,0.00,,,0.00,VWS V14.01,2013-02-16 03:49:00,
2013-02-15 22:50:00,12.3,9.4,30.09,ESE,103,0.0,5.6,88,0.00,,,0.00,VWS V14.01,2013-02-16 03:50:00,
2013-02-15 22:51:00,13.4,10.5,30.08,ESE,103,0.0,5.6,88,0.00,,,0.00,VWS V14.01,2013-02-16 03:51:00,
2013-02-15 22:52:00,12.2,9.3,30.09,ESE,103,0.0,5.6,88,0.00,,,0.00,VWS V14.01,2013-02-16 03:52:00,
2013-02-15 22:53:00,12.2,9.3,30.09,ESE,103,0.0,5.6,88,0.00,,,0.00,VWS V14.01,2013-02-16 03:53:00,
2013-02-15 22:54:00,12.2,9.3,30.09,ESE,103,0.0,5.6,88,0.00,,,0.00,VWS V14.01,2013-02-16 03:54:00,
2013-02-15 22:55:00,12.1,9.2,30.09,ESE,103,0.0,5.6,88,0.00,,,0.00,VWS V14.01,2013-02-16 03:55:00,
2013-02-15 22:56:00,13.2,10.3,30.08,ENE,63,2.8,5.6,88,0.00,,,0.00,VWS V14.01,2013-02-16 03:56:00,
2013-02-15 22:57:00,12.1,9.2,30.09,ESE,105,0.0,5.6,88,0.00,,,0.00,VWS V14.01,2013-02-16 03:57:00,
2013-02-15 22:58:00,12.1,9.2,30.08,ESE,105,0.0,5.6,88,0.00,,,0.00,VWS V14.01,2013-02-16 03:58:00,
2013-02-15 22:59:00,12.0,9.1,30.08,ESE,105,0.0,5.6,88,0.00,,,0.00,VWS V14.01,2013-02-16 03:59:00,
2013-02-15 23:00:00,12.0,9.1,30.08,ESE,105,0.0,5.6,88,0.00,,,0.00,VWS V14.01,2013-02-16 04:00:00,
2013-02-15 23:01:00,13.2,10.6,30.08,East,96,0.0,5.6,89,0.00,,,0.00,VWS V14.01,2013-02-16 04:01:00,
2013-02-15 23:02:00,12.0,9.1,30.08,ESE,105,0.0,5.6,88,0.00,,,0.00,VWS V14.01,2013-02-16 04:02:00,
2013-02-15 23:03:00,12.0,9.1,30.08,ESE,106,0.0,5.6,88,0.00,,,0.00,VWS V14.01,2013-02-16 04:03:00,
2013-02-15 23:04:00,11.9,9.0,30.08,ESE,105,0.0,5.6,88,0.00,,,0.00,VWS V14.01,2013-02-16 04:04:00,
2013-02-15 23:05:00,11.9,9.0,30.08,ESE,106,0.0,5.6,88,0.00,,,0.00,VWS V14.01,2013-02-16 04:05:00,
2013-02-15 23:06:00,13.0,10.1,30.08,ENE,63,1.4,5.6,88,0.00,,,0.00,VWS V14.01,2013-02-16 04:06:00,
2013-02-15 23:07:00,11.9,9.0,30.08,ESE,108,0.0,5.6,88,0.00,,,0.00,VWS V14.01,2013-02-16 04:07:00,
2013-02-15 23:08:00,11.9,9.0,30.08,ESE,108,0.0,5.6,88,0.00,,,0.00,VWS V14.01,2013-02-16 04:08:00,
2013-02-15 23:09:00,11.9,9.0,30.08,ESE,108,0.0,5.6,88,0.00,,,0.00,VWS V14.01,2013-02-16 04:09:00,
2013-02-15 23:10:00,11.9,9.0,30.08,ESE,108,0.0,5.6,88,0.00,,,0.00,VWS V14.01,2013-02-16 04:10:00,
2013-02-15 23:11:00,12.8,9.9,30.08,NE,34,0.0,5.6,88,0.00,,,0.00,VWS V14.01,2013-02-16 04:11:00,
2013-02-15 23:12:00,11.8,9.2,30.08,ESE,117,0.0,5.6,89,0.00,,,0.00,VWS V14.01,2013-02-16 04:12:00,
2013-02-15 23:13:00,11.8,9.2,30.08,SE,138,0.0,5.6,89,0.00,,,0.00,VWS V14.01,2013-02-16 04:13:00,
2013-02-15 23:14:00,11.7,8.8,30.08,SE,131,0.0,5.6,88,0.00,,,0.00,VWS V14.01,2013-02-16 04:14:00,
2013-02-15 23:15:00,11.7,9.1,30.08,SE,131,0.0,5.6,89,0.00,,,0.00,VWS V14.01,2013-02-16 04:15:00,
2013-02-15 23:16:00,12.6,9.7,30.08,East,95,0.0,5.6,88,0.00,,,0.00,VWS V14.01,2013-02-16 04:16:00,
2013-02-15 23:17:00,11.7,9.1,30.08,SSE,153,0.0,5.6,89,0.00,,,0.00,VWS V14.01,2013-02-16 04:17:00,
2013-02-15 23:18:00,11.7,9.1,30.08,SSE,155,0.0,5.6,89,0.00,,,0.00,VWS V14.01,2013-02-16 04:18:00,
2013-02-15 23:19:00,11.6,9.0,30.08,SSE,155,0.0,5.6,89,0.00,,,0.00,VWS V14.01,2013-02-16 04:19:00,
2013-02-15 23:20:00,11.6,9.0,30.08,SSE,155,0.0,5.6,89,0.00,,,0.00,VWS V14.01,2013-02-16 04:20:00,
2013-02-15 23:21:00,12.4,9.5,30.09,ESE,111,0.0,5.6,88,0.00,,,0.00,VWS V14.01,2013-02-16 04:21:00,
2013-02-15 23:22:00,11.5,8.9,30.08,SSE,155,0.0,5.6,89,0.00,,,0.00,VWS V14.01,2013-02-16 04:22:00,
2013-02-15 23:23:00,11.5,8.9,30.08,SSE,155,0.0,5.6,89,0.00,,,0.00,VWS V14.01,2013-02-16 04:23:00,
2013-02-15 23:24:00,11.5,8.9,30.08,SSE,155,0.0,5.6,89,0.00,,,0.00,VWS V14.01,2013-02-16 04:24:00,
2013-02-15 23:25:00,11.5,8.9,30.08,SSE,155,0.0,5.6,89,0.00,,,0.00,VWS V14.01,2013-02-16 04:25:00,
2013-02-15 23:26:00,12.3,9.4,30.09,ESE,103,0.0,5.6,88,0.00,,,0.00,VWS V14.01,2013-02-16 04:26:00,
2013-02-15 23:27:00,11.4,8.8,30.08,SSE,155,0.0,5.6,89,0.00,,,0.00,VWS V14.01,2013-02-16 04:27:00,
2013-02-15 23:28:00,11.4,8.8,30.08,SSE,155,0.0,5.6,89,0.00,,,0.00,VWS V14.01,2013-02-16 04:28:00,
2013-02-15 23:29:00,11.4,8.8,30.08,SSE,155,0.0,5.6,89,0.00,,,0.00,VWS V14.01,2013-02-16 04:29:00,
2013-02-15 23:30:00,11.3,8.7,30.08,SSE,155,0.0,5.6,89,0.00,,,0.00,VWS V14.01,2013-02-16 04:30:00,
2013-02-15 23:31:00,12.1,9.2,30.09,ESE,103,0.0,5.6,88,0.00,,,0.00,VWS V14.01,2013-02-16 04:31:00,
2013-02-15 23:32:00,11.3,8.7,30.08,SSE,150,0.0,5.6,89,0.00,,,0.00,VWS V14.01,2013-02-16 04:32:00,
2013-02-15 23:33:00,11.3,8.7,30.08,ESE,122,0.0,5.6,89,0.00,,,0.00,VWS V14.01,2013-02-16 04:33:00,
2013-02-15 23:34:00,11.3,8.7,30.08,ESE,122,0.0,5.6,89,0.00,,,0.00,VWS V14.01,2013-02-16 04:34:00,
2013-02-15 23:35:00,11.3,8.7,30.08,ESE,123,0.0,5.6,89,0.00,,,0.00,VWS V14.01,2013-02-16 04:35:00,
2013-02-15 23:36:00,12.0,9.1,30.08,ESE,105,0.0,5.6,88,0.00,,,0.00,VWS V14.01,2013-02-16 04:36:00,
2013-02-15 23:37:00,11.3,8.7,30.08,ESE,122,0.0,5.6,89,0.00,,,0.00,VWS V14.01,2013-02-16 04:37:00,
2013-02-15 23:38:00,11.3,8.7,30.08,ESE,122,0.0,5.6,89,0.00,,,0.00,VWS V14.01,2013-02-16 04:38:00,
2013-02-15 23:39:00,11.3,8.7,30.08,SE,124,0.0,5.6,89,0.00,,,0.00,VWS V14.01,2013-02-16 04:39:00,
2013-02-15 23:40:00,11.2,8.6,30.08,SE,134,0.0,5.6,89,0.00,,,0.00,VWS V14.01,2013-02-16 04:40:00,
2013-02-15 23:41:00,11.9,9.0,30.08,ESE,105,0.0,5.6,88,0.00,,,0.00,VWS V14.01,2013-02-16 04:41:00,
2013-02-15 23:42:00,11.2,8.6,30.08,ESE,115,0.0,5.6,89,0.00,,,0.00,VWS V14.01,2013-02-16 04:42:00,
2013-02-15 23:43:00,11.2,8.6,30.08,SE,131,0.0,5.6,89,0.00,,,0.00,VWS V14.01,2013-02-16 04:43:00,
2013-02-15 23:44:00,11.1,8.5,30.08,SE,131,0.0,5.6,89,0.00,,,0.00,VWS V14.01,2013-02-16 04:44:00,
2013-02-15 23:45:00,11.0,8.1,30.08,SE,128,0.0,5.6,88,0.00,,,0.00,VWS V14.01,2013-02-16 04:45:00,
2013-02-15 23:46:00,11.9,9.0,30.08,ESE,108,0.0,5.6,88,0.00,,,0.00,VWS V14.01,2013-02-16 04:46:00,
2013-02-15 23:47:00,10.9,8.1,30.08,ESE,117,0.0,5.6,88,0.00,,,0.00,VWS V14.01,2013-02-16 04:47:00,
2013-02-15 23:48:00,10.8,7.9,30.08,SE,131,0.0,5.6,88,0.00,,,0.00,VWS V14.01,2013-02-16 04:48:00,
2013-02-15 23:49:00,10.8,7.9,30.08,ESE,122,0.0,5.6,88,0.00,,,0.00,VWS V14.01,2013-02-16 04:49:00,
2013-02-15 23:50:00,10.7,7.8,30.08,ESE,120,1.4,5.6,88,0.00,,,0.00,VWS V14.01,2013-02-16 04:50:00,
2013-02-15 23:51:00,11.7,9.1,30.08,SE,131,0.0,5.6,89,0.00,,,0.00,VWS V14.01,2013-02-16 04:51:00,
2013-02-15 23:52:00,10.7,8.1,30.08,ESE,113,0.0,5.6,89,0.00,,,0.00,VWS V14.01,2013-02-16 04:52:00,
2013-02-15 23:53:00,10.6,8.0,30.08,ESE,120,0.0,5.6,89,0.00,,,0.00,VWS V14.01,2013-02-16 04:53:00,
2013-02-15 23:54:00,10.6,8.0,30.08,ESE,111,0.0,5.6,89,0.00,,,0.00,VWS V14.01,2013-02-16 04:54:00,
2013-02-15 23:55:00,10.5,7.9,30.08,ESE,111,0.0,5.6,89,0.00,,,0.00,VWS V14.01,2013-02-16 04:55:00,
2013-02-15 23:56:00,11.6,9.0,30.08,SSE,155,0.0,5.6,89,0.00,,,0.00,VWS V14.01,2013-02-16 04:56:00,
2013-02-15 23:57:00,10.4,7.6,30.08,ESE,111,0.0,5.6,88,0.00,,,0.00,VWS V14.01,2013-02-16 04:57:00,
2013-02-15 23:58:00,10.3,7.5,30.08,ESE,112,0.0,5.6,88,0.00,,,0.00,VWS V14.01,2013-02-16 04:58:00,
2013-02-15 23:59:00,10.2,7.4,30.08,ESE,111,0.0,5.6,88,0.00,,,0.00,VWS V14.01,2013-02-16 04:59:00,